Time,TemperatureF,DewpointF,PressureIn,WindDirection,WindDirectionDegrees,WindSpeedMPH,WindSpeedGustMPH,Humidity,HourlyPrecipIn,Conditions,Clouds,dailyrainin,SolarRadiationWatts/m^2,SoftwareType,DateUTC
2013-01-04 00:00:00,16.7,14.5,29.94,NE,48,0.0,0.0,90,0.00,,,-99.99,1.0,HOBO +U30 +Weather +,2013-01-04 05:00:00,
2013-01-04 00:01:00,16.5,14.3,29.94,NE,48,0.0,0.0,90,0.00,,,-99.99,1.0,HOBO +U30 +Weather +,2013-01-04 05:01:00,
2013-01-04 00:02:00,16.5,14.1,29.94,NE,48,0.0,0.0,90,0.00,,,-99.99,1.0,HOBO +U30 +Weather +,2013-01-04 05:02:00,
2013-01-04 00:03:00,16.4,14.1,29.94,NE,48,0.0,0.0,90,0.00,,,-99.99,1.0,HOBO +U30 +Weather +,2013-01-04 05:03:00,
2013-01-04 00:04:00,16.4,14.1,29.94,NE,48,0.0,0.0,90,0.00,,,-99.99,1.0,HOBO +U30 +Weather +,2013-01-04 05:04:00,
2013-01-04 00:05:00,16.4,14.1,29.94,NE,48,0.0,0.0,90,0.00,,,-99.99,1.0,HOBO +U30 +Weather +,2013-01-04 05:05:00,
2013-01-04 00:06:00,16.3,14.1,29.94,NE,48,0.0,0.0,90,0.00,,,-99.99,1.0,HOBO +U30 +Weather +,2013-01-04 05:06:00,
2013-01-04 00:07:00,16.3,14.0,29.94,NE,48,0.0,0.0,90,0.00,,,-99.99,1.0,HOBO +U30 +Weather +,2013-01-04 05:07:00,
2013-01-04 00:08:00,16.2,13.9,29.94,NE,48,0.0,0.0,90,0.00,,,-99.99,1.0,HOBO +U30 +Weather +,2013-01-04 05:08:00,
2013-01-04 00:09:00,16.1,13.7,29.94,NE,48,0.0,0.0,90,0.00,,,-99.99,1.0,HOBO +U30 +Weather +,2013-01-04 05:09:00,
2013-01-04 00:10:00,16.0,13.6,29.94,NE,48,0.0,0.0,90,0.00,,,-99.99,1.0,HOBO +U30 +Weather +,2013-01-04 05:10:00,
2013-01-04 00:11:00,15.8,13.3,29.93,NE,48,0.0,0.0,89,0.00,,,-99.99,1.0,HOBO +U30 +Weather +,2013-01-04 05:11:00,
2013-01-04 00:12:00,15.8,13.3,29.94,NE,48,0.0,0.0,89,0.00,,,-99.99,1.0,HOBO +U30 +Weather +,2013-01-04 05:12:00,
2013-01-04 00:13:00,15.7,13.3,29.94,NE,48,0.0,0.0,90,0.00,,,-99.99,1.0,HOBO +U30 +Weather +,2013-01-04 05:13:00,
2013-01-04 00:14:00,15.7,13.2,29.93,NE,48,0.0,0.0,90,0.00,,,-99.99,1.0,HOBO +U30 +Weather +,2013-01-04 05:14:00,
2013-01-04 00:15:00,15.7,13.3,29.93,NE,48,0.0,0.0,90,0.00,,,-99.99,1.0,HOBO +U30 +Weather +,2013-01-04 05:15:00,
2013-01-04 00:16:00,15.6,13.2,29.93,NE,48,0.0,0.0,90,0.00,,,-99.99,1.0,HOBO +U30 +Weather +,2013-01-04 05:16:00,
2013-01-04 00:17:00,15.6,13.1,29.94,NE,48,0.0,0.0,90,0.00,,,-99.99,1.0,HOBO +U30 +Weather +,2013-01-04 05:17:00,
2013-01-04 00:18:00,15.5,13.1,29.94,NE,48,0.0,0.0,90,0.00,,,-99.99,1.0,HOBO +U30 +Weather +,2013-01-04 05:18:00,
2013-01-04 00:19:00,15.5,13.1,29.94,NE,48,0.0,0.0,90,0.00,,,-99.99,1.0,HOBO +U30 +Weather +,2013-01-04 05:19:00,
2013-01-04 00:20:00,15.5,13.1,29.93,NE,48,0.0,0.0,90,0.00,,,-99.99,1.0,HOBO +U30 +Weather +,2013-01-04 05:20:00,
2013-01-04 00:21:00,15.5,13.1,29.93,NE,48,0.0,0.0,90,0.00,,,-99.99,1.0,HOBO +U30 +Weather +,2013-01-04 05:21:00,
2013-01-04 00:22:00,15.5,13.1,29.93,NE,48,0.0,0.0,90,0.00,,,-99.99,1.0,HOBO +U30 +Weather +,2013-01-04 05:22:00,
2013-01-04 00:23:00,15.5,13.1,29.93,NE,48,0.0,0.0,90,0.00,,,-99.99,1.0,HOBO +U30 +Weather +,2013-01-04 05:23:00,
2013-01-04 00:24:00,15.5,13.2,29.93,NE,48,0.0,0.0,90,0.00,,,-99.99,1.0,HOBO +U30 +Weather +,2013-01-04 05:24:00,
2013-01-04 00:25:00,15.5,13.2,29.93,NE,48,0.0,0.0,90,0.00,,,-99.99,1.0,HOBO +U30 +Weather +,2013-01-04 05:25:00,
2013-01-04 00:26:00,15.6,13.3,29.94,NE,48,0.0,0.0,90,0.00,,,-99.99,1.0,HOBO +U30 +Weather +,2013-01-04 05:26:00,
2013-01-04 00:27:00,15.6,13.3,29.93,NE,48,0.0,0.0,90,0.00,,,-99.99,1.0,HOBO +U30 +Weather +,2013-01-04 05:27:00,
2013-01-04 00:28:00,15.6,13.3,29.93,NE,48,0.0,0.0,90,0.00,,,-99.99,1.0,HOBO +U30 +Weather +,2013-01-04 05:28:00,
2013-01-04 00:29:00,15.5,13.2,29.93,NE,48,0.0,0.0,90,0.00,,,-99.99,1.0,HOBO +U30 +Weather +,2013-01-04 05:29:00,
2013-01-04 00:30:00,15.3,13.0,29.93,NE,48,0.0,0.0,90,0.00,,,-99.99,1.0,HOBO +U30 +Weather +,2013-01-04 05:30:00,
2013-01-04 00:31:00,15.3,12.9,29.93,NE,48,0.0,0.0,90,0.00,,,-99.99,1.0,HOBO +U30 +Weather +,2013-01-04 05:31:00,
2013-01-04 00:32:00,15.3,12.9,29.93,NE,48,0.0,0.0,90,0.00,,,-99.99,1.0,HOBO +U30 +Weather +,2013-01-04 05:32:00,
2013-01-04 00:33:00,15.2,12.8,29.93,NE,48,0.0,0.0,90,0.00,,,-99.99,1.0,HOBO +U30 +Weather +,2013-01-04 05:33:00,
2013-01-04 00:34:00,15.2,12.9,29.93,NE,48,0.0,0.0,90,0.00,,,-99.99,1.0,HOBO +U30 +Weather +,2013-01-04 05:34:00,
2013-01-04 00:35:00,15.2,12.8,29.93,NE,48,0.0,0.0,90,0.00,,,-99.99,1.0,HOBO +U30 +Weather +,2013-01-04 05:35:00,
2013-01-04 00:36:00,15.1,12.8,29.93,NE,48,0.0,0.0,90,0.00,,,-99.99,1.0,HOBO +U30 +Weather +,2013-01-04 05:36:00,
2013-01-04 00:37:00,15.1,12.7,29.93,NE,48,0.0,0.0,90,0.00,,,-99.99,1.0,HOBO +U30 +Weather +,2013-01-04 05:37:00,
2013-01-04 00:38:00,15.1,12.7,29.93,NE,48,0.0,0.0,90,0.00,,,-99.99,1.0,HOBO +U30 +Weather +,2013-01-04 05:38:00,
2013-01-04 00:39:00,15.2,12.9,29.93,NE,48,0.0,0.0,90,0.00,,,-99.99,1.0,HOBO +U30 +Weather +,2013-01-04 05:39:00,
2013-01-04 00:40:00,15.1,12.8,29.93,NE,48,0.0,0.0,90,0.00,,,-99.99,1.0,HOBO +U30 +Weather +,2013-01-04 05:40:00,
2013-01-04 00:41:00,15.1,12.8,29.93,NE,48,0.0,0.0,90,0.00,,,-99.99,1.0,HOBO +U30 +Weather +,2013-01-04 05:41:00,
2013-01-04 00:42:00,15.1,12.8,29.93,NE,48,0.0,0.0,90,0.00,,,-99.99,1.0,HOBO +U30 +Weather +,2013-01-04 05:42:00,
2013-01-04 00:43:00,15.1,12.8,29.93,NE,48,0.0,0.0,90,0.00,,,-99.99,1.0,HOBO +U30 +Weather +,2013-01-04 05:43:00,
2013-01-04 00:44:00,15.0,12.7,29.93,NE,48,0.0,0.0,90,0.00,,,-99.99,1.0,HOBO +U30 +Weather +,2013-01-04 05:44:00,
2013-01-04 00:45:00,15.2,13.0,29.93,NE,48,0.0,0.0,90,0.00,,,-99.99,1.0,HOBO +U30 +Weather +,2013-01-04 05:45:00,
2013-01-04 00:46:00,15.2,13.0,29.93,NE,48,0.0,0.0,91,0.00,,,-99.99,1.0,HOBO +U30 +Weather +,2013-01-04 05:46:00,
2013-01-04 00:47:00,15.2,13.1,29.93,NE,48,0.0,0.0,91,0.00,,,-99.99,1.0,HOBO +U30 +Weather +,2013-01-04 05:47:00,
2013-01-04 00:48:00,15.3,13.1,29.93,NE,48,0.0,0.0,91,0.00,,,-99.99,1.0,HOBO +U30 +Weather +,2013-01-04 05:48:00,
2013-01-04 00:49:00,15.3,13.1,29.93,NE,48,0.0,0.0,91,0.00,,,-99.99,1.0,HOBO +U30 +Weather +,2013-01-04 05:49:00,
2013-01-04 00:50:00,15.3,13.1,29.93,NE,48,0.0,0.0,91,0.00,,,-99.99,1.0,HOBO +U30 +Weather +,2013-01-04 05:50:00,
2013-01-04 00:51:00,15.3,13.1,29.93,NE,48,0.0,0.0,90,0.00,,,-99.99,1.0,HOBO +U30 +Weather +,2013-01-04 05:51:00,
2013-01-04 00:52:00,15.3,13.0,29.92,NE,48,0.0,0.0,90,0.00,,,-99.99,1.0,HOBO +U30 +Weather +,2013-01-04 05:52:00,
2013-01-04 00:53:00,15.2,12.9,29.92,NE,48,0.0,0.0,90,0.00,,,-99.99,1.0,HOBO +U30 +Weather +,2013-01-04 05:53:00,
2013-01-04 00:54:00,15.4,13.2,29.93,NE,48,0.0,0.0,90,0.00,,,-99.99,1.0,HOBO +U30 +Weather +,2013-01-04 05:54:00,
2013-01-04 00:55:00,15.4,13.3,29.92,NE,48,0.0,0.0,91,0.00,,,-99.99,1.0,HOBO +U30 +Weather +,2013-01-04 05:55:00,
2013-01-04 00:56:00,15.6,13.5,29.92,NE,48,0.0,0.0,91,0.00,,,-99.99,1.0,HOBO +U30 +Weather +,2013-01-04 05:56:00,
2013-01-04 00:57:00,15.6,13.5,29.92,NE,48,0.0,0.0,91,0.00,,,-99.99,1.0,HOBO +U30 +Weather +,2013-01-04 05:57:00,
2013-01-04 00:58:00,15.7,13.5,29.93,NE,48,0.0,0.0,91,0.00,,,-99.99,1.0,HOBO +U30 +Weather +,2013-01-04 05:58:00,
2013-01-04 00:59:00,15.6,13.4,29.92,NE,48,0.0,0.0,91,0.00,,,-99.99,1.0,HOBO +U30 +Weather +,2013-01-04 05:59:00,
2013-01-04 01:00:00,15.6,13.4,29.92,NE,48,0.0,0.0,90,0.00,,,-99.99,1.0,HOBO +U30 +Weather +,2013-01-04 06:00:00,
2013-01-04 01:01:00,15.6,13.4,29.92,NE,48,0.0,0.0,90,0.00,,,-99.99,1.0,HOBO +U30 +Weather +,2013-01-04 06:01:00,
2013-01-04 01:02:00,15.5,13.2,29.91,NE,48,0.0,0.0,90,0.00,,,-99.99,1.0,HOBO +U30 +Weather +,2013-01-04 06:02:00,
2013-01-04 01:03:00,15.5,13.2,29.92,NE,48,0.0,0.0,90,0.00,,,-99.99,1.0,HOBO +U30 +Weather +,2013-01-04 06:03:00,
2013-01-04 01:04:00,15.6,13.3,29.92,NE,48,0.0,0.0,90,0.00,,,-99.99,1.0,HOBO +U30 +Weather +,2013-01-04 06:04:00,
2013-01-04 01:05:00,15.6,13.4,29.91,NE,48,0.0,0.0,90,0.00,,,-99.99,1.0,HOBO +U30 +Weather +,2013-01-04 06:05:00,
2013-01-04 01:06:00,15.7,13.5,29.92,NE,48,0.0,0.0,90,0.00,,,-99.99,1.0,HOBO +U30 +Weather +,2013-01-04 06:06:00,
2013-01-04 01:07:00,16.2,14.1,29.92,NE,48,0.0,0.0,91,0.00,,,-99.99,1.0,HOBO +U30 +Weather +,2013-01-04 06:07:00,
2013-01-04 01:08:00,16.3,14.3,29.92,NE,48,0.0,0.0,91,0.00,,,-99.99,1.0,HOBO +U30 +Weather +,2013-01-04 06:08:00,
2013-01-04 01:09:00,16.3,14.3,29.92,NE,48,0.0,0.0,91,0.00,,,-99.99,1.0,HOBO +U30 +Weather +,2013-01-04 06:09:00,
2013-01-04 01:10:00,16.3,14.3,29.92,NE,48,0.0,0.0,91,0.00,,,-99.99,1.0,HOBO +U30 +Weather +,2013-01-04 06:10:00,
2013-01-04 01:11:00,16.3,14.2,29.92,NE,48,0.0,0.0,91,0.00,,,-99.99,1.0,HOBO +U30 +Weather +,2013-01-04 06:11:00,
2013-01-04 01:12:00,16.3,14.3,29.92,NE,48,0.0,0.0,91,0.00,,,-99.99,1.0,HOBO +U30 +Weather +,2013-01-04 06:12:00,
2013-01-04 01:13:00,16.3,14.2,29.91,NE,48,0.0,0.0,91,0.00,,,-99.99,1.0,HOBO +U30 +Weather +,2013-01-04 06:13:00,
2013-01-04 01:14:00,16.3,14.1,29.92,NE,48,0.0,0.0,91,0.00,,,-99.99,1.0,HOBO +U30 +Weather +,2013-01-04 06:14:00,
2013-01-04 01:15:00,16.3,14.1,29.92,NE,48,0.0,0.0,91,0.00,,,-99.99,1.0,HOBO +U30 +Weather +,2013-01-04 06:15:00,
2013-01-04 01:16:00,16.3,14.1,29.92,NE,48,0.0,0.0,91,0.00,,,-99.99,1.0,HOBO +U30 +Weather +,2013-01-04 06:16:00,
2013-01-04 01:17:00,16.2,14.0,29.92,NE,48,0.0,0.0,90,0.00,,,-99.99,1.0,HOBO +U30 +Weather +,2013-01-04 06:17:00,
2013-01-04 01:18:00,16.2,14.0,29.92,NE,48,0.0,0.0,90,0.00,,,-99.99,1.0,HOBO +U30 +Weather +,2013-01-04 06:18:00,
2013-01-04 01:19:00,16.2,14.0,29.92,NE,48,0.0,0.0,90,0.00,,,-99.99,1.0,HOBO +U30 +Weather +,2013-01-04 06:19:00,
2013-01-04 01:20:00,16.2,13.9,29.92,NE,48,0.0,0.0,90,0.00,,,-99.99,1.0,HOBO +U30 +Weather +,2013-01-04 06:20:00,
2013-01-04 01:21:00,16.2,13.9,29.91,NE,48,0.0,0.0,90,0.00,,,-99.99,1.0,HOBO +U30 +Weather +,2013-01-04 06:21:00,
2013-01-04 01:22:00,16.1,13.9,29.91,NE,48,0.0,0.0,90,0.00,,,-99.99,1.0,HOBO +U30 +Weather +,2013-01-04 06:22:00,
2013-01-04 01:23:00,16.1,13.8,29.91,NE,48,0.0,0.0,90,0.00,,,-99.99,1.0,HOBO +U30 +Weather +,2013-01-04 06:23:00,
2013-01-04 01:24:00,16.0,13.7,29.92,NE,48,0.0,0.0,90,0.00,,,-99.99,1.0,HOBO +U30 +Weather +,2013-01-04 06:24:00,
2013-01-04 01:25:00,15.9,13.6,29.92,NE,48,0.0,0.0,90,0.00,,,-99.99,1.0,HOBO +U30 +Weather +,2013-01-04 06:25:00,
2013-01-04 01:26:00,15.9,13.6,29.92,NE,48,0.0,0.0,90,0.00,,,-99.99,1.0,HOBO +U30 +Weather +,2013-01-04 06:26:00,
2013-01-04 01:30:00,15.7,13.4,29.92,NE,48,0.0,0.0,90,0.00,,,-99.99,1.0,HOBO +U30 +Weather +,2013-01-04 06:30:00,
2013-01-04 01:31:00,15.7,13.5,29.91,NE,48,0.0,0.0,90,0.00,,,-99.99,1.0,HOBO +U30 +Weather +,2013-01-04 06:31:00,
2013-01-04 01:32:00,15.7,13.5,29.92,NE,48,0.0,0.0,90,0.00,,,-99.99,1.0,HOBO +U30 +Weather +,2013-01-04 06:32:00,
2013-01-04 01:33:00,15.7,13.5,29.92,NE,48,0.0,0.0,90,0.00,,,-99.99,1.0,HOBO +U30 +Weather +,2013-01-04 06:33:00,
2013-01-04 01:34:00,15.7,13.5,29.92,NE,48,0.0,0.0,90,0.00,,,-99.99,1.0,HOBO +U30 +Weather +,2013-01-04 06:34:00,
2013-01-04 01:35:00,15.9,13.7,29.92,NE,48,0.0,0.0,91,0.00,,,-99.99,1.0,HOBO +U30 +Weather +,2013-01-04 06:35:00,
2013-01-04 01:36:00,16.1,13.9,29.92,NE,48,0.0,0.0,91,0.00,,,-99.99,1.0,HOBO +U30 +Weather +,2013-01-04 06:36:00,
2013-01-04 01:38:00,16.6,14.7,29.91,NE,48,0.0,0.0,91,0.00,,,-99.99,1.0,HOBO +U30 +Weather +,2013-01-04 06:38:00,
2013-01-04 01:39:00,16.9,14.9,29.92,NE,48,0.0,0.0,91,0.00,,,-99.99,1.0,HOBO +U30 +Weather +,2013-01-04 06:39:00,
2013-01-04 01:40:00,17.0,15.1,29.91,NE,48,0.0,0.0,92,0.00,,,-99.99,1.0,HOBO +U30 +Weather +,2013-01-04 06:40:00,
2013-01-04 01:41:00,17.1,15.1,29.92,NE,48,0.0,0.0,91,0.00,,,-99.99,1.0,HOBO +U30 +Weather +,2013-01-04 06:41:00,
2013-01-04 01:42:00,17.1,15.1,29.92,NE,48,0.0,0.0,91,0.00,,,-99.99,1.0,HOBO +U30 +Weather +,2013-01-04 06:42:00,
2013-01-04 01:45:00,17.6,15.7,29.92,NE,48,0.0,0.0,92,0.00,,,-99.99,1.0,HOBO +U30 +Weather +,2013-01-04 06:45:00,
2013-01-04 01:46:00,17.7,15.7,29.92,NE,48,0.0,0.0,91,0.00,,,-99.99,1.0,HOBO +U30 +Weather +,2013-01-04 06:46:00,
2013-01-04 01:47:00,17.7,15.8,29.92,NE,48,0.0,0.0,92,0.00,,,-99.99,1.0,HOBO +U30 +Weather +,2013-01-04 06:47:00,
2013-01-04 01:48:00,17.9,15.9,29.92,NE,48,0.0,0.0,91,0.00,,,-99.99,1.0,HOBO +U30 +Weather +,2013-01-04 06:48:00,
2013-01-04 01:49:00,18.1,16.1,29.92,NE,48,0.0,0.0,91,0.00,,,-99.99,1.0,HOBO +U30 +Weather +,2013-01-04 06:49:00,
2013-01-04 01:50:00,18.2,16.3,29.92,NE,48,0.0,0.0,91,0.00,,,-99.99,1.0,HOBO +U30 +Weather +,2013-01-04 06:50:00,
2013-01-04 01:51:00,18.3,16.3,29.92,NE,48,0.0,0.0,91,0.00,,,-99.99,1.0,HOBO +U30 +Weather +,2013-01-04 06:51:00,
2013-01-04 01:52:00,18.4,16.3,29.92,NE,48,0.0,0.0,91,0.00,,,-99.99,1.0,HOBO +U30 +Weather +,2013-01-04 06:52:00,
2013-01-04 01:53:00,18.3,16.1,29.92,NE,48,0.0,0.0,91,0.00,,,-99.99,1.0,HOBO +U30 +Weather +,2013-01-04 06:53:00,
2013-01-04 01:54:00,18.4,16.1,29.92,NE,48,0.0,0.0,91,0.00,,,-99.99,1.0,HOBO +U30 +Weather +,2013-01-04 06:54:00,
2013-01-04 01:55:00,18.4,16.2,29.92,NE,48,0.0,0.0,90,0.00,,,-99.99,1.0,HOBO +U30 +Weather +,2013-01-04 06:55:00,
2013-01-04 01:56:00,18.6,16.4,29.92,NE,48,0.0,0.0,90,0.00,,,-99.99,1.0,HOBO +U30 +Weather +,2013-01-04 06:56:00,
2013-01-04 01:57:00,18.7,16.4,29.92,NE,48,0.0,0.0,90,0.00,,,-99.99,1.0,HOBO +U30 +Weather +,2013-01-04 06:57:00,
2013-01-04 01:58:00,18.7,16.4,29.92,NE,48,0.0,0.0,90,0.00,,,-99.99,1.0,HOBO +U30 +Weather +,2013-01-04 06:58:00,
2013-01-04 01:59:00,18.8,16.6,29.92,NE,48,0.0,0.0,90,0.00,,,-99.99,1.0,HOBO +U30 +Weather +,2013-01-04 06:59:00,
2013-01-04 02:00:00,19.1,17.0,29.91,NE,48,0.0,0.0,91,0.00,,,-99.99,1.0,HOBO +U30 +Weather +,2013-01-04 07:00:00,
2013-01-04 02:01:00,19.3,17.2,29.91,NE,48,0.0,0.0,91,0.00,,,-99.99,1.0,HOBO +U30 +Weather +,2013-01-04 07:01:00,
2013-01-04 02:02:00,19.3,17.1,29.91,NE,48,0.0,0.0,91,0.00,,,-99.99,1.0,HOBO +U30 +Weather +,2013-01-04 07:02:00,
2013-01-04 02:03:00,19.4,17.3,29.92,NE,48,0.0,0.0,91,0.00,,,-99.99,1.0,HOBO +U30 +Weather +,2013-01-04 07:03:00,
2013-01-04 02:04:00,19.6,17.4,29.92,NE,48,0.0,0.0,91,0.00,,,-99.99,1.0,HOBO +U30 +Weather +,2013-01-04 07:04:00,
2013-01-04 02:05:00,19.8,17.6,29.92,NE,48,0.0,0.0,91,0.00,,,-99.99,1.0,HOBO +U30 +Weather +,2013-01-04 07:05:00,
2013-01-04 02:06:00,19.8,17.6,29.92,NE,48,0.0,0.0,91,0.00,,,-99.99,1.0,HOBO +U30 +Weather +,2013-01-04 07:06:00,
2013-01-04 02:11:00,19.9,17.6,29.92,NE,48,0.0,0.0,90,0.00,,,-99.99,1.0,HOBO +U30 +Weather +,2013-01-04 07:11:00,
2013-01-04 02:12:00,19.9,17.6,29.92,NE,48,0.0,0.0,90,0.00,,,-99.99,1.0,HOBO +U30 +Weather +,2013-01-04 07:12:00,
2013-01-04 02:13:00,19.8,17.4,29.92,NE,48,0.0,0.0,90,0.00,,,-99.99,1.0,HOBO +U30 +Weather +,2013-01-04 07:13:00,
2013-01-04 02:14:00,19.8,17.4,29.92,NE,48,0.0,0.0,90,0.00,,,-99.99,1.0,HOBO +U30 +Weather +,2013-01-04 07:14:00,
2013-01-04 02:15:00,19.7,17.4,29.92,NE,48,0.0,0.0,90,0.00,,,-99.99,1.0,HOBO +U30 +Weather +,2013-01-04 07:15:00,
2013-01-04 02:16:00,19.6,17.3,29.92,NE,48,0.0,0.0,90,0.00,,,-99.99,1.0,HOBO +U30 +Weather +,2013-01-04 07:16:00,
2013-01-04 02:17:00,19.6,17.3,29.92,NE,48,0.0,0.0,90,0.00,,,-99.99,1.0,HOBO +U30 +Weather +,2013-01-04 07:17:00,
2013-01-04 02:18:00,19.5,17.1,29.92,NE,48,0.0,0.0,90,0.00,,,-99.99,1.0,HOBO +U30 +Weather +,2013-01-04 07:18:00,
2013-01-04 02:19:00,19.4,17.0,29.92,NE,48,0.0,0.0,90,0.00,,,-99.99,1.0,HOBO +U30 +Weather +,2013-01-04 07:19:00,
2013-01-04 02:20:00,19.3,16.9,29.92,NE,48,0.0,0.0,90,0.00,,,-99.99,1.0,HOBO +U30 +Weather +,2013-01-04 07:20:00,
2013-01-04 02:21:00,19.3,17.0,29.92,NE,48,0.0,0.0,90,0.00,,,-99.99,1.0,HOBO +U30 +Weather +,2013-01-04 07:21:00,
2013-01-04 02:22:00,19.3,16.9,29.92,NE,48,0.0,0.0,90,0.00,,,-99.99,1.0,HOBO +U30 +Weather +,2013-01-04 07:22:00,
2013-01-04 02:23:00,19.2,16.8,29.92,NE,48,0.0,0.0,90,0.00,,,-99.99,1.0,HOBO +U30 +Weather +,2013-01-04 07:23:00,
2013-01-04 02:24:00,19.2,16.8,29.92,NE,48,0.0,0.0,90,0.00,,,-99.99,1.0,HOBO +U30 +Weather +,2013-01-04 07:24:00,
2013-01-04 02:25:00,19.1,16.7,29.92,NE,48,0.0,0.0,90,0.00,,,-99.99,1.0,HOBO +U30 +Weather +,2013-01-04 07:25:00,
2013-01-04 02:26:00,19.1,16.8,29.92,NE,48,0.0,0.0,90,0.00,,,-99.99,1.0,HOBO +U30 +Weather +,2013-01-04 07:26:00,
2013-01-04 02:27:00,19.1,16.7,29.92,NE,48,0.0,0.0,90,0.00,,,-99.99,1.0,HOBO +U30 +Weather +,2013-01-04 07:27:00,
2013-01-04 02:28:00,19.1,16.7,29.92,NE,48,0.0,0.0,90,0.00,,,-99.99,1.0,HOBO +U30 +Weather +,2013-01-04 07:28:00,
2013-01-04 02:29:00,19.0,16.7,29.92,NE,48,0.0,0.0,90,0.00,,,-99.99,1.0,HOBO +U30 +Weather +,2013-01-04 07:29:00,
2013-01-04 02:30:00,18.8,16.4,29.91,NE,48,0.0,0.0,90,0.00,,,-99.99,1.0,HOBO +U30 +Weather +,2013-01-04 07:30:00,
2013-01-04 02:31:00,18.7,16.3,29.92,NE,48,0.0,0.0,90,0.00,,,-99.99,1.0,HOBO +U30 +Weather +,2013-01-04 07:31:00,
2013-01-04 02:32:00,18.6,16.1,29.92,NE,48,0.0,0.0,90,0.00,,,-99.99,1.0,HOBO +U30 +Weather +,2013-01-04 07:32:00,
2013-01-04 02:33:00,18.5,16.1,29.92,NE,48,0.0,0.0,89,0.00,,,-99.99,1.0,HOBO +U30 +Weather +,2013-01-04 07:33:00,
2013-01-04 02:34:00,18.5,16.1,29.92,NE,48,0.0,0.0,90,0.00,,,-99.99,1.0,HOBO +U30 +Weather +,2013-01-04 07:34:00,
2013-01-04 02:35:00,18.5,16.2,29.92,NE,48,0.0,0.0,90,0.00,,,-99.99,1.0,HOBO +U30 +Weather +,2013-01-04 07:35:00,
2013-01-04 02:36:00,18.5,16.2,29.93,NE,48,0.0,0.0,90,0.00,,,-99.99,1.0,HOBO +U30 +Weather +,2013-01-04 07:36:00,
2013-01-04 02:37:00,18.5,16.2,29.93,NE,48,0.0,0.0,90,0.00,,,-99.99,1.0,HOBO +U30 +Weather +,2013-01-04 07:37:00,
2013-01-04 02:38:00,18.4,16.1,29.92,NE,48,0.0,0.0,90,0.00,,,-99.99,1.0,HOBO +U30 +Weather +,2013-01-04 07:38:00,
2013-01-04 02:45:00,18.2,15.9,29.92,NE,48,0.0,0.0,90,0.00,,,-99.99,1.0,HOBO +U30 +Weather +,2013-01-04 07:45:00,
2013-01-04 02:46:00,18.1,15.8,29.92,NE,48,0.0,0.0,90,0.00,,,-99.99,1.0,HOBO +U30 +Weather +,2013-01-04 07:46:00,
2013-01-04 02:54:00,18.2,16.1,29.91,NE,48,0.0,0.0,91,0.00,,,-99.99,1.0,HOBO +U30 +Weather +,2013-01-04 07:54:00,
2013-01-04 02:55:00,18.2,16.0,29.92,NE,48,0.0,0.0,90,0.00,,,-99.99,1.0,HOBO +U30 +Weather +,2013-01-04 07:55:00,
2013-01-04 02:56:00,18.2,15.9,29.91,NE,48,0.0,0.0,90,0.00,,,-99.99,1.0,HOBO +U30 +Weather +,2013-01-04 07:56:00,
2013-01-04 02:57:00,18.1,15.8,29.92,NE,48,0.0,0.0,90,0.00,,,-99.99,1.0,HOBO +U30 +Weather +,2013-01-04 07:57:00,
2013-01-04 02:58:00,18.0,15.6,29.92,NE,48,0.0,0.0,90,0.00,,,-99.99,1.0,HOBO +U30 +Weather +,2013-01-04 07:58:00,
2013-01-04 02:59:00,17.9,15.5,29.92,NE,48,0.0,0.0,90,0.00,,,-99.99,1.0,HOBO +U30 +Weather +,2013-01-04 07:59:00,
2013-01-04 03:00:00,17.9,15.5,29.92,NE,48,0.0,0.0,90,0.00,,,-99.99,1.0,HOBO +U30 +Weather +,2013-01-04 08:00:00,
2013-01-04 03:01:00,17.7,15.3,29.92,NE,48,0.0,0.0,90,0.00,,,-99.99,1.0,HOBO +U30 +Weather +,2013-01-04 08:01:00,
2013-01-04 03:02:00,17.6,15.1,29.92,NE,48,0.0,0.0,89,0.00,,,-99.99,1.0,HOBO +U30 +Weather +,2013-01-04 08:02:00,
2013-01-04 03:03:00,17.7,15.2,29.92,NE,48,0.0,0.0,90,0.00,,,-99.99,1.0,HOBO +U30 +Weather +,2013-01-04 08:03:00,
2013-01-04 03:04:00,17.7,15.4,29.92,NE,48,0.0,0.0,90,0.00,,,-99.99,1.0,HOBO +U30 +Weather +,2013-01-04 08:04:00,
2013-01-04 03:05:00,17.7,15.4,29.91,NE,48,0.0,0.0,90,0.00,,,-99.99,1.0,HOBO +U30 +Weather +,2013-01-04 08:05:00,
2013-01-04 03:06:00,17.7,15.3,29.92,NE,48,0.0,0.0,90,0.00,,,-99.99,1.0,HOBO +U30 +Weather +,2013-01-04 08:06:00,
2013-01-04 03:07:00,17.7,15.3,29.92,NE,48,0.0,0.0,90,0.00,,,-99.99,1.0,HOBO +U30 +Weather +,2013-01-04 08:07:00,
2013-01-04 03:08:00,17.6,15.3,29.92,NE,48,0.0,0.0,90,0.00,,,-99.99,1.0,HOBO +U30 +Weather +,2013-01-04 08:08:00,
2013-01-04 03:09:00,17.5,15.2,29.92,NE,48,0.0,0.0,90,0.00,,,-99.99,1.0,HOBO +U30 +Weather +,2013-01-04 08:09:00,
2013-01-04 03:10:00,17.5,15.2,29.92,NE,48,0.0,0.0,90,0.00,,,-99.99,1.0,HOBO +U30 +Weather +,2013-01-04 08:10:00,
2013-01-04 03:11:00,17.4,15.1,29.92,NE,48,0.0,0.0,90,0.00,,,-99.99,1.0,HOBO +U30 +Weather +,2013-01-04 08:11:00,
2013-01-04 03:12:00,17.4,15.1,29.92,NE,48,0.0,0.0,90,0.00,,,-99.99,1.0,HOBO +U30 +Weather +,2013-01-04 08:12:00,
2013-01-04 03:13:00,17.4,15.1,29.92,NE,48,0.0,0.0,90,0.00,,,-99.99,1.0,HOBO +U30 +Weather +,2013-01-04 08:13:00,
2013-01-04 03:14:00,17.3,15.0,29.91,NE,48,0.0,0.0,90,0.00,,,-99.99,1.0,HOBO +U30 +Weather +,2013-01-04 08:14:00,
2013-01-04 03:15:00,17.4,15.1,29.92,NE,48,0.0,0.0,90,0.00,,,-99.99,1.0,HOBO +U30 +Weather +,2013-01-04 08:15:00,
2013-01-04 03:16:00,17.3,15.1,29.92,NE,48,0.0,0.0,90,0.00,,,-99.99,1.0,HOBO +U30 +Weather +,2013-01-04 08:16:00,
2013-01-04 03:18:00,17.2,15.0,29.92,NE,48,0.0,0.0,90,0.00,,,-99.99,1.0,HOBO +U30 +Weather +,2013-01-04 08:18:00,
2013-01-04 03:19:00,17.2,15.0,29.92,NE,48,0.0,0.0,90,0.00,,,-99.99,1.0,HOBO +U30 +Weather +,2013-01-04 08:19:00,
2013-01-04 03:20:00,17.2,15.0,29.91,NE,48,0.0,0.0,91,0.00,,,-99.99,1.0,HOBO +U30 +Weather +,2013-01-04 08:20:00,
2013-01-04 03:21:00,17.2,15.1,29.91,NE,48,0.0,0.0,91,0.00,,,-99.99,1.0,HOBO +U30 +Weather +,2013-01-04 08:21:00,
2013-01-04 03:22:00,17.2,15.1,29.91,NE,48,0.0,0.0,91,0.00,,,-99.99,1.0,HOBO +U30 +Weather +,2013-01-04 08:22:00,
2013-01-04 03:23:00,17.4,15.3,29.91,NE,48,0.0,0.0,91,0.00,,,-99.99,1.0,HOBO +U30 +Weather +,2013-01-04 08:23:00,
2013-01-04 03:24:00,17.5,15.5,29.91,NE,48,0.0,0.0,91,0.00,,,-99.99,1.0,HOBO +U30 +Weather +,2013-01-04 08:24:00,
2013-01-04 03:25:00,17.5,15.6,29.91,NE,48,0.0,0.0,91,0.00,,,-99.99,1.0,HOBO +U30 +Weather +,2013-01-04 08:25:00,
2013-01-04 03:26:00,17.5,15.6,29.91,NE,48,0.0,0.0,91,0.00,,,-99.99,1.0,HOBO +U30 +Weather +,2013-01-04 08:26:00,
2013-01-04 03:27:00,17.5,15.5,29.91,NE,48,0.0,0.0,91,0.00,,,-99.99,1.0,HOBO +U30 +Weather +,2013-01-04 08:27:00,
2013-01-04 03:28:00,17.5,15.5,29.91,NE,48,0.0,0.0,91,0.00,,,-99.99,1.0,HOBO +U30 +Weather +,2013-01-04 08:28:00,
2013-01-04 03:29:00,17.4,15.4,29.92,NE,48,0.0,0.0,91,0.00,,,-99.99,1.0,HOBO +U30 +Weather +,2013-01-04 08:29:00,
2013-01-04 03:30:00,17.4,15.4,29.91,NE,48,0.0,0.0,91,0.00,,,-99.99,1.0,HOBO +U30 +Weather +,2013-01-04 08:30:00,
2013-01-04 03:31:00,17.4,15.4,29.91,NE,48,0.0,0.0,91,0.00,,,-99.99,1.0,HOBO +U30 +Weather +,2013-01-04 08:31:00,
2013-01-04 03:32:00,17.4,15.4,29.91,NE,48,0.0,0.0,91,0.00,,,-99.99,1.0,HOBO +U30 +Weather +,2013-01-04 08:32:00,
2013-01-04 03:33:00,17.4,15.4,29.91,NE,48,0.0,0.0,91,0.00,,,-99.99,1.0,HOBO +U30 +Weather +,2013-01-04 08:33:00,
2013-01-04 03:34:00,17.4,15.4,29.92,NE,48,0.0,0.0,91,0.00,,,-99.99,1.0,HOBO +U30 +Weather +,2013-01-04 08:34:00,
2013-01-04 03:35:00,17.4,15.4,29.91,NE,48,0.0,0.0,91,0.00,,,-99.99,1.0,HOBO +U30 +Weather +,2013-01-04 08:35:00,
2013-01-04 03:36:00,17.4,15.4,29.91,NE,48,0.0,0.0,91,0.00,,,-99.99,1.0,HOBO +U30 +Weather +,2013-01-04 08:36:00,
2013-01-04 03:37:00,17.4,15.4,29.91,NE,48,0.0,0.0,91,0.00,,,-99.99,1.0,HOBO +U30 +Weather +,2013-01-04 08:37:00,
2013-01-04 03:38:00,17.4,15.4,29.91,NE,48,0.0,0.0,91,0.00,,,-99.99,1.0,HOBO +U30 +Weather +,2013-01-04 08:38:00,
2013-01-04 03:39:00,17.4,15.4,29.91,NE,48,0.0,0.0,91,0.00,,,-99.99,1.0,HOBO +U30 +Weather +,2013-01-04 08:39:00,
2013-01-04 03:40:00,17.4,15.4,29.91,NE,48,0.0,0.0,91,0.00,,,-99.99,1.0,HOBO +U30 +Weather +,2013-01-04 08:40:00,
2013-01-04 03:41:00,17.4,15.4,29.91,NE,48,0.0,0.0,91,0.00,,,-99.99,1.0,HOBO +U30 +Weather +,2013-01-04 08:41:00,
2013-01-04 03:42:00,17.3,15.3,29.91,NE,48,0.0,0.0,91,0.00,,,-99.99,1.0,HOBO +U30 +Weather +,2013-01-04 08:42:00,
2013-01-04 03:43:00,17.2,15.2,29.91,NE,48,0.0,0.0,91,0.00,,,-99.99,1.0,HOBO +U30 +Weather +,2013-01-04 08:43:00,
2013-01-04 03:44:00,17.2,15.2,29.91,NE,48,0.0,0.0,91,0.00,,,-99.99,1.0,HOBO +U30 +Weather +,2013-01-04 08:44:00,
2013-01-04 03:45:00,17.2,15.1,29.91,NE,48,0.0,0.0,91,0.00,,,-99.99,1.0,HOBO +U30 +Weather +,2013-01-04 08:45:00,
2013-01-04 03:46:00,17.2,15.2,29.91,NE,48,0.0,0.0,91,0.00,,,-99.99,1.0,HOBO +U30 +Weather +,2013-01-04 08:46:00,
2013-01-04 03:47:00,17.1,15.0,29.91,NE,48,0.0,0.0,91,0.00,,,-99.99,1.0,HOBO +U30 +Weather +,2013-01-04 08:47:00,
2013-01-04 03:48:00,17.0,14.9,29.91,NE,48,0.0,0.0,91,0.00,,,-99.99,1.0,HOBO +U30 +Weather +,2013-01-04 08:48:00,
2013-01-04 03:49:00,17.0,15.0,29.91,NE,48,0.0,0.0,91,0.00,,,-99.99,1.0,HOBO +U30 +Weather +,2013-01-04 08:49:00,
2013-01-04 03:50:00,16.9,14.8,29.91,NE,48,0.0,0.0,91,0.00,,,-99.99,1.0,HOBO +U30 +Weather +,2013-01-04 08:50:00,
2013-01-04 03:51:00,16.8,14.6,29.91,NE,48,0.0,0.0,91,0.00,,,-99.99,1.0,HOBO +U30 +Weather +,2013-01-04 08:51:00,
2013-01-04 03:52:00,16.5,14.3,29.91,NE,48,0.0,0.0,90,0.00,,,-99.99,1.0,HOBO +U30 +Weather +,2013-01-04 08:52:00,
2013-01-04 03:53:00,16.4,14.2,29.91,NE,48,0.0,0.0,90,0.00,,,-99.99,1.0,HOBO +U30 +Weather +,2013-01-04 08:53:00,
2013-01-04 03:54:00,16.3,14.1,29.91,NE,48,0.0,0.0,90,0.00,,,-99.99,1.0,HOBO +U30 +Weather +,2013-01-04 08:54:00,
2013-01-04 03:55:00,16.2,13.9,29.90,NE,48,0.0,0.0,90,0.00,,,-99.99,1.0,HOBO +U30 +Weather +,2013-01-04 08:55:00,
2013-01-04 03:56:00,16.2,14.0,29.90,NE,48,0.0,0.0,90,0.00,,,-99.99,1.0,HOBO +U30 +Weather +,2013-01-04 08:56:00,
2013-01-04 04:06:00,16.5,14.6,29.91,NE,48,0.0,0.0,92,0.00,,,-99.99,1.0,HOBO +U30 +Weather +,2013-01-04 09:06:00,
2013-01-04 04:07:00,16.7,15.0,29.91,NE,48,0.0,0.0,92,0.00,,,-99.99,1.0,HOBO +U30 +Weather +,2013-01-04 09:07:00,
2013-01-04 04:08:00,16.8,15.0,29.91,NE,48,0.0,0.0,92,0.00,,,-99.99,1.0,HOBO +U30 +Weather +,2013-01-04 09:08:00,
2013-01-04 04:09:00,16.8,15.1,29.91,NE,48,0.0,0.0,92,0.00,,,-99.99,1.0,HOBO +U30 +Weather +,2013-01-04 09:09:00,
2013-01-04 04:10:00,16.9,15.1,29.91,NE,48,0.0,0.0,92,0.00,,,-99.99,1.0,HOBO +U30 +Weather +,2013-01-04 09:10:00,
2013-01-04 04:11:00,16.9,15.1,29.91,NE,48,0.0,0.0,92,0.00,,,-99.99,1.0,HOBO +U30 +Weather +,2013-01-04 09:11:00,
2013-01-04 04:12:00,16.8,15.1,29.91,NE,48,0.0,0.0,92,0.00,,,-99.99,1.0,HOBO +U30 +Weather +,2013-01-04 09:12:00,
2013-01-04 04:13:00,16.8,15.0,29.91,NE,48,0.0,0.0,92,0.00,,,-99.99,1.0,HOBO +U30 +Weather +,2013-01-04 09:13:00,
2013-01-04 04:14:00,16.8,15.0,29.90,NE,48,0.0,0.0,92,0.00,,,-99.99,1.0,HOBO +U30 +Weather +,2013-01-04 09:14:00,
2013-01-04 04:15:00,16.7,14.8,29.91,NE,48,0.0,0.0,92,0.00,,,-99.99,1.0,HOBO +U30 +Weather +,2013-01-04 09:15:00,
2013-01-04 04:16:00,16.6,14.8,29.91,NE,48,0.0,0.0,92,0.00,,,-99.99,1.0,HOBO +U30 +Weather +,2013-01-04 09:16:00,
2013-01-04 04:17:00,16.6,14.8,29.91,NE,48,0.0,0.0,92,0.00,,,-99.99,1.0,HOBO +U30 +Weather +,2013-01-04 09:17:00,
2013-01-04 04:18:00,16.6,14.8,29.91,NE,48,0.0,0.0,92,0.00,,,-99.99,1.0,HOBO +U30 +Weather +,2013-01-04 09:18:00,
2013-01-04 04:19:00,16.6,14.8,29.91,NE,48,0.0,0.0,92,0.00,,,-99.99,1.0,HOBO +U30 +Weather +,2013-01-04 09:19:00,
2013-01-04 04:20:00,16.6,14.8,29.91,NE,48,0.0,0.0,92,0.00,,,-99.99,1.0,HOBO +U30 +Weather +,2013-01-04 09:20:00,
2013-01-04 04:21:00,16.7,14.9,29.91,NE,48,0.0,0.0,92,0.00,,,-99.99,1.0,HOBO +U30 +Weather +,2013-01-04 09:21:00,
2013-01-04 04:22:00,16.7,14.9,29.91,NE,48,0.0,0.0,92,0.00,,,-99.99,1.0,HOBO +U30 +Weather +,2013-01-04 09:22:00,
2013-01-04 04:23:00,16.7,14.9,29.91,NE,48,0.0,0.0,92,0.00,,,-99.99,1.0,HOBO +U30 +Weather +,2013-01-04 09:23:00,
2013-01-04 04:24:00,16.7,14.9,29.91,NE,48,0.0,0.0,92,0.00,,,-99.99,1.0,HOBO +U30 +Weather +,2013-01-04 09:24:00,
2013-01-04 04:25:00,16.7,14.9,29.90,NE,48,0.0,0.0,92,0.00,,,-99.99,1.0,HOBO +U30 +Weather +,2013-01-04 09:25:00,
2013-01-04 04:26:00,16.7,14.9,29.91,NE,48,0.0,0.0,92,0.00,,,-99.99,1.0,HOBO +U30 +Weather +,2013-01-04 09:26:00,
2013-01-04 04:27:00,16.7,14.9,29.91,NE,48,0.0,0.0,92,0.00,,,-99.99,1.0,HOBO +U30 +Weather +,2013-01-04 09:27:00,
2013-01-04 04:28:00,16.8,15.1,29.91,NE,48,0.0,0.0,92,0.00,,,-99.99,1.0,HOBO +U30 +Weather +,2013-01-04 09:28:00,
2013-01-04 04:29:00,16.9,15.2,29.91,NE,48,0.0,0.0,93,0.00,,,-99.99,1.0,HOBO +U30 +Weather +,2013-01-04 09:29:00,
2013-01-04 04:30:00,16.9,15.2,29.91,NE,48,0.0,0.0,93,0.00,,,-99.99,1.0,HOBO +U30 +Weather +,2013-01-04 09:30:00,
2013-01-04 04:31:00,16.9,15.1,29.91,NE,48,0.0,0.0,92,0.00,,,-99.99,1.0,HOBO +U30 +Weather +,2013-01-04 09:31:00,
2013-01-04 04:32:00,16.9,15.1,29.91,NE,48,0.0,0.0,92,0.00,,,-99.99,1.0,HOBO +U30 +Weather +,2013-01-04 09:32:00,
2013-01-04 04:33:00,16.9,15.1,29.90,NE,48,0.0,0.0,92,0.00,,,-99.99,1.0,HOBO +U30 +Weather +,2013-01-04 09:33:00,
2013-01-04 04:34:00,17.1,15.4,29.91,NE,48,0.0,0.0,93,0.00,,,-99.99,1.0,HOBO +U30 +Weather +,2013-01-04 09:34:00,
2013-01-04 04:35:00,17.3,15.6,29.91,NE,48,0.0,0.0,93,0.00,,,-99.99,1.0,HOBO +U30 +Weather +,2013-01-04 09:35:00,
2013-01-04 04:36:00,17.4,15.7,29.90,NE,48,0.0,0.0,93,0.00,,,-99.99,1.0,HOBO +U30 +Weather +,2013-01-04 09:36:00,
2013-01-04 04:37:00,17.4,15.8,29.90,NE,48,0.0,0.0,93,0.00,,,-99.99,1.0,HOBO +U30 +Weather +,2013-01-04 09:37:00,
2013-01-04 04:38:00,17.4,15.8,29.91,NE,48,0.0,0.0,93,0.00,,,-99.99,1.0,HOBO +U30 +Weather +,2013-01-04 09:38:00,
2013-01-04 04:39:00,17.4,15.8,29.91,NE,48,0.0,0.0,93,0.00,,,-99.99,1.0,HOBO +U30 +Weather +,2013-01-04 09:39:00,
2013-01-04 04:40:00,17.4,15.8,29.90,NE,48,0.0,0.0,93,0.00,,,-99.99,1.0,HOBO +U30 +Weather +,2013-01-04 09:40:00,
2013-01-04 04:41:00,17.4,15.8,29.90,NE,48,0.0,0.0,93,0.00,,,-99.99,1.0,HOBO +U30 +Weather +,2013-01-04 09:41:00,
2013-01-04 04:42:00,17.5,15.8,29.90,NE,48,0.0,0.0,93,0.00,,,-99.99,1.0,HOBO +U30 +Weather +,2013-01-04 09:42:00,
2013-01-04 04:43:00,17.5,15.8,29.90,NE,48,0.0,0.0,93,0.00,,,-99.99,1.0,HOBO +U30 +Weather +,2013-01-04 09:43:00,
2013-01-04 04:44:00,17.5,15.8,29.91,NE,48,0.0,0.0,93,0.00,,,-99.99,1.0,HOBO +U30 +Weather +,2013-01-04 09:44:00,
2013-01-04 04:45:00,17.5,15.8,29.91,NE,48,0.0,0.0,93,0.00,,,-99.99,1.0,HOBO +U30 +Weather +,2013-01-04 09:45:00,
2013-01-04 04:46:00,17.5,15.8,29.91,NE,48,0.0,0.0,93,0.00,,,-99.99,1.0,HOBO +U30 +Weather +,2013-01-04 09:46:00,
2013-01-04 04:47:00,17.5,15.8,29.91,NE,48,0.0,0.0,93,0.00,,,-99.99,1.0,HOBO +U30 +Weather +,2013-01-04 09:47:00,
2013-01-04 04:48:00,17.5,15.8,29.91,NE,48,0.0,0.0,93,0.00,,,-99.99,1.0,HOBO +U30 +Weather +,2013-01-04 09:48:00,
2013-01-04 04:49:00,17.5,15.9,29.91,NE,48,0.0,0.0,93,0.00,,,-99.99,1.0,HOBO +U30 +Weather +,2013-01-04 09:49:00,
2013-01-04 04:50:00,17.5,15.9,29.91,NE,48,0.0,0.0,93,0.00,,,-99.99,1.0,HOBO +U30 +Weather +,2013-01-04 09:50:00,
2013-01-04 04:51:00,17.6,16.0,29.90,NE,48,0.0,0.0,93,0.00,,,-99.99,1.0,HOBO +U30 +Weather +,2013-01-04 09:51:00,
2013-01-04 04:52:00,17.6,16.0,29.90,NE,48,0.0,0.0,93,0.00,,,-99.99,1.0,HOBO +U30 +Weather +,2013-01-04 09:52:00,
2013-01-04 04:53:00,17.7,16.1,29.91,NE,48,0.0,0.0,93,0.00,,,-99.99,1.0,HOBO +U30 +Weather +,2013-01-04 09:53:00,
2013-01-04 04:54:00,17.7,16.1,29.91,NE,48,0.0,0.0,93,0.00,,,-99.99,1.0,HOBO +U30 +Weather +,2013-01-04 09:54:00,
2013-01-04 04:55:00,17.7,16.1,29.91,NE,48,0.0,0.0,93,0.00,,,-99.99,1.0,HOBO +U30 +Weather +,2013-01-04 09:55:00,
2013-01-04 04:56:00,17.8,16.2,29.91,NE,48,0.0,0.0,93,0.00,,,-99.99,1.0,HOBO +U30 +Weather +,2013-01-04 09:56:00,
2013-01-04 04:57:00,17.8,16.2,29.91,NE,48,0.0,0.0,93,0.00,,,-99.99,1.0,HOBO +U30 +Weather +,2013-01-04 09:57:00,
2013-01-04 04:58:00,17.8,16.2,29.91,NE,48,0.0,0.0,93,0.00,,,-99.99,1.0,HOBO +U30 +Weather +,2013-01-04 09:58:00,
2013-01-04 04:59:00,17.8,16.3,29.91,NE,48,0.0,0.0,93,0.00,,,-99.99,1.0,HOBO +U30 +Weather +,2013-01-04 09:59:00,
2013-01-04 05:00:00,17.8,16.3,29.91,NE,48,0.0,0.0,93,0.00,,,-99.99,1.0,HOBO +U30 +Weather +,2013-01-04 10:00:00,
2013-01-04 05:01:00,17.8,16.3,29.91,NE,48,0.0,0.0,93,0.00,,,-99.99,1.0,HOBO +U30 +Weather +,2013-01-04 10:01:00,
2013-01-04 05:02:00,17.8,16.3,29.91,NE,48,0.0,0.0,93,0.00,,,-99.99,1.0,HOBO +U30 +Weather +,2013-01-04 10:02:00,
2013-01-04 05:03:00,17.9,16.4,29.91,NE,48,0.0,0.0,93,0.00,,,-99.99,1.0,HOBO +U30 +Weather +,2013-01-04 10:03:00,
2013-01-04 05:04:00,17.9,16.4,29.91,NE,48,0.0,0.0,93,0.00,,,-99.99,1.0,HOBO +U30 +Weather +,2013-01-04 10:04:00,
2013-01-04 05:05:00,18.0,16.4,29.91,NE,48,0.0,0.0,93,0.00,,,-99.99,1.0,HOBO +U30 +Weather +,2013-01-04 10:05:00,
2013-01-04 05:06:00,18.0,16.5,29.91,NE,48,0.0,0.0,93,0.00,,,-99.99,1.0,HOBO +U30 +Weather +,2013-01-04 10:06:00,
2013-01-04 05:07:00,18.1,16.6,29.91,NE,48,0.0,0.0,93,0.00,,,-99.99,1.0,HOBO +U30 +Weather +,2013-01-04 10:07:00,
2013-01-04 05:08:00,18.1,16.6,29.91,NE,48,0.0,0.0,94,0.00,,,-99.99,1.0,HOBO +U30 +Weather +,2013-01-04 10:08:00,
2013-01-04 05:09:00,18.1,16.7,29.91,NE,48,0.0,0.0,94,0.00,,,-99.99,1.0,HOBO +U30 +Weather +,2013-01-04 10:09:00,
2013-01-04 05:10:00,18.4,16.9,29.91,NE,48,0.0,0.0,94,0.00,,,-99.99,1.0,HOBO +U30 +Weather +,2013-01-04 10:10:00,
2013-01-04 05:11:00,18.5,17.1,29.91,NE,48,0.0,0.0,94,0.00,,,-99.99,1.0,HOBO +U30 +Weather +,2013-01-04 10:11:00,
2013-01-04 05:12:00,18.7,17.4,29.91,NE,48,0.0,0.0,94,0.00,,,-99.99,1.0,HOBO +U30 +Weather +,2013-01-04 10:12:00,
2013-01-04 05:13:00,18.8,17.5,29.91,NE,48,0.0,0.0,94,0.00,,,-99.99,1.0,HOBO +U30 +Weather +,2013-01-04 10:13:00,
2013-01-04 05:14:00,18.8,17.5,29.91,NE,48,0.0,0.0,94,0.00,,,-99.99,1.0,HOBO +U30 +Weather +,2013-01-04 10:14:00,
2013-01-04 05:15:00,18.9,17.6,29.91,NE,48,0.0,0.0,94,0.00,,,-99.99,1.0,HOBO +U30 +Weather +,2013-01-04 10:15:00,
2013-01-04 05:16:00,18.9,17.6,29.91,NE,48,0.0,0.0,94,0.00,,,-99.99,1.0,HOBO +U30 +Weather +,2013-01-04 10:16:00,
2013-01-04 05:17:00,18.9,17.6,29.91,NE,48,0.0,0.0,94,0.00,,,-99.99,1.0,HOBO +U30 +Weather +,2013-01-04 10:17:00,
2013-01-04 05:18:00,19.0,17.7,29.91,NE,48,0.0,0.0,94,0.00,,,-99.99,1.0,HOBO +U30 +Weather +,2013-01-04 10:18:00,
2013-01-04 05:19:00,19.0,17.7,29.91,NE,48,0.0,0.0,94,0.00,,,-99.99,1.0,HOBO +U30 +Weather +,2013-01-04 10:19:00,
2013-01-04 05:20:00,19.1,17.7,29.92,NE,48,0.0,0.0,94,0.00,,,-99.99,1.0,HOBO +U30 +Weather +,2013-01-04 10:20:00,
2013-01-04 05:21:00,19.2,17.9,29.91,NE,48,0.0,0.0,94,0.00,,,-99.99,1.0,HOBO +U30 +Weather +,2013-01-04 10:21:00,
2013-01-04 05:22:00,19.6,18.4,29.91,NE,48,0.0,0.0,95,0.00,,,-99.99,1.0,HOBO +U30 +Weather +,2013-01-04 10:22:00,
2013-01-04 05:23:00,19.8,18.6,29.91,NE,48,0.0,0.0,95,0.00,,,-99.99,1.0,HOBO +U30 +Weather +,2013-01-04 10:23:00,
2013-01-04 05:24:00,19.9,18.7,29.91,NE,48,0.0,0.0,95,0.00,,,-99.99,1.0,HOBO +U30 +Weather +,2013-01-04 10:24:00,
2013-01-04 05:25:00,20.0,18.8,29.91,NE,48,0.0,0.0,95,0.00,,,-99.99,1.0,HOBO +U30 +Weather +,2013-01-04 10:25:00,
2013-01-04 05:26:00,20.2,19.0,29.92,NE,48,0.0,0.0,95,0.00,,,-99.99,1.0,HOBO +U30 +Weather +,2013-01-04 10:26:00,
2013-01-04 05:27:00,20.3,19.2,29.92,NE,48,0.0,0.0,95,0.00,,,-99.99,1.0,HOBO +U30 +Weather +,2013-01-04 10:27:00,
2013-01-04 05:28:00,20.4,19.3,29.92,NE,48,0.0,0.0,95,0.00,,,-99.99,1.0,HOBO +U30 +Weather +,2013-01-04 10:28:00,
2013-01-04 05:29:00,20.7,19.5,29.91,NE,48,0.0,0.0,95,0.00,,,-99.99,1.0,HOBO +U30 +Weather +,2013-01-04 10:29:00,
2013-01-04 05:30:00,21.0,19.9,29.92,NE,48,0.0,0.0,95,0.00,,,-99.99,1.0,HOBO +U30 +Weather +,2013-01-04 10:30:00,
2013-01-04 05:31:00,21.2,20.2,29.91,NE,48,0.0,0.0,95,0.00,,,-99.99,1.0,HOBO +U30 +Weather +,2013-01-04 10:31:00,
2013-01-04 05:32:00,21.2,20.1,29.91,NE,48,0.0,0.0,95,0.00,,,-99.99,1.0,HOBO +U30 +Weather +,2013-01-04 10:32:00,
2013-01-04 05:33:00,21.3,20.2,29.91,NE,48,0.0,0.0,95,0.00,,,-99.99,1.0,HOBO +U30 +Weather +,2013-01-04 10:33:00,
2013-01-04 05:34:00,21.4,20.3,29.92,NE,48,0.0,0.0,95,0.00,,,-99.99,1.0,HOBO +U30 +Weather +,2013-01-04 10:34:00,
2013-01-04 05:35:00,21.6,20.4,29.91,NE,48,0.0,0.0,95,0.00,,,-99.99,1.0,HOBO +U30 +Weather +,2013-01-04 10:35:00,
2013-01-04 05:37:00,21.6,20.5,29.91,NE,48,0.0,0.0,95,0.00,,,-99.99,1.0,HOBO +U30 +Weather +,2013-01-04 10:37:00,
2013-01-04 05:38:00,21.7,20.6,29.91,NE,48,0.0,0.0,95,0.00,,,-99.99,1.0,HOBO +U30 +Weather +,2013-01-04 10:38:00,
2013-01-04 05:39:00,21.7,20.6,29.91,NE,48,0.0,0.0,95,0.00,,,-99.99,1.0,HOBO +U30 +Weather +,2013-01-04 10:39:00,
2013-01-04 05:40:00,21.7,20.5,29.92,NE,48,0.0,0.0,95,0.00,,,-99.99,1.0,HOBO +U30 +Weather +,2013-01-04 10:40:00,
2013-01-04 05:41:00,21.7,20.5,29.92,NE,48,0.0,0.0,95,0.00,,,-99.99,1.0,HOBO +U30 +Weather +,2013-01-04 10:41:00,
2013-01-04 05:42:00,21.7,20.5,29.92,NE,48,0.0,0.0,95,0.00,,,-99.99,1.0,HOBO +U30 +Weather +,2013-01-04 10:42:00,
2013-01-04 05:43:00,21.7,20.5,29.92,NE,48,0.0,0.0,95,0.00,,,-99.99,1.0,HOBO +U30 +Weather +,2013-01-04 10:43:00,
2013-01-04 05:44:00,22.1,20.9,29.91,NE,48,0.0,0.0,95,0.00,,,-99.99,1.0,HOBO +U30 +Weather +,2013-01-04 10:44:00,
2013-01-04 05:45:00,22.2,21.0,29.91,NE,48,0.0,0.0,95,0.00,,,-99.99,1.0,HOBO +U30 +Weather +,2013-01-04 10:45:00,
2013-01-04 05:46:00,22.3,21.1,29.91,NE,48,0.0,0.0,95,0.00,,,-99.99,1.0,HOBO +U30 +Weather +,2013-01-04 10:46:00,
2013-01-04 05:47:00,22.3,21.0,29.91,NE,48,0.0,0.0,94,0.00,,,-99.99,1.0,HOBO +U30 +Weather +,2013-01-04 10:47:00,
2013-01-04 05:48:00,22.2,21.0,29.91,NE,48,0.0,0.0,94,0.00,,,-99.99,1.0,HOBO +U30 +Weather +,2013-01-04 10:48:00,
2013-01-04 05:49:00,22.3,21.0,29.91,NE,48,0.0,0.0,94,0.00,,,-99.99,1.0,HOBO +U30 +Weather +,2013-01-04 10:49:00,
2013-01-04 05:50:00,22.2,20.9,29.91,NE,48,0.0,0.0,94,0.00,,,-99.99,1.0,HOBO +U30 +Weather +,2013-01-04 10:50:00,
2013-01-04 05:51:00,22.2,20.8,29.91,NE,48,0.0,0.0,94,0.00,,,-99.99,1.0,HOBO +U30 +Weather +,2013-01-04 10:51:00,
2013-01-04 05:52:00,22.2,20.8,29.91,NE,48,0.0,0.0,94,0.00,,,-99.99,1.0,HOBO +U30 +Weather +,2013-01-04 10:52:00,
2013-01-04 05:53:00,22.3,20.8,29.91,NE,48,0.0,0.0,94,0.00,,,-99.99,1.0,HOBO +U30 +Weather +,2013-01-04 10:53:00,
2013-01-04 05:54:00,22.3,20.8,29.91,NE,48,0.0,0.0,94,0.00,,,-99.99,1.0,HOBO +U30 +Weather +,2013-01-04 10:54:00,
2013-01-04 05:55:00,22.3,20.8,29.91,NE,48,0.0,0.0,93,0.00,,,-99.99,1.0,HOBO +U30 +Weather +,2013-01-04 10:55:00,
2013-01-04 05:56:00,22.2,20.7,29.91,NE,48,0.0,0.0,93,0.00,,,-99.99,1.0,HOBO +U30 +Weather +,2013-01-04 10:56:00,
2013-01-04 05:57:00,22.1,20.6,29.91,NE,48,0.0,0.0,93,0.00,,,-99.99,1.0,HOBO +U30 +Weather +,2013-01-04 10:57:00,
2013-01-04 05:58:00,22.1,20.4,29.91,NE,48,0.0,0.0,93,0.00,,,-99.99,1.0,HOBO +U30 +Weather +,2013-01-04 10:58:00,
2013-01-04 05:59:00,22.0,20.3,29.91,NE,48,0.0,0.0,93,0.00,,,-99.99,1.0,HOBO +U30 +Weather +,2013-01-04 10:59:00,
2013-01-04 06:00:00,21.9,20.2,29.91,NE,48,0.0,0.0,93,0.00,,,-99.99,1.0,HOBO +U30 +Weather +,2013-01-04 11:00:00,
2013-01-04 06:01:00,21.8,20.2,29.91,NE,48,0.0,0.0,93,0.00,,,-99.99,1.0,HOBO +U30 +Weather +,2013-01-04 11:01:00,
2013-01-04 06:02:00,21.9,20.3,29.91,NE,48,0.0,0.0,93,0.00,,,-99.99,1.0,HOBO +U30 +Weather +,2013-01-04 11:02:00,
2013-01-04 06:03:00,21.9,20.3,29.91,NE,48,0.0,0.0,93,0.00,,,-99.99,1.0,HOBO +U30 +Weather +,2013-01-04 11:03:00,
2013-01-04 06:04:00,21.8,20.1,29.91,NE,48,0.0,0.0,93,0.00,,,-99.99,1.0,HOBO +U30 +Weather +,2013-01-04 11:04:00,
2013-01-04 06:05:00,21.7,20.0,29.91,NE,48,0.0,0.0,93,0.00,,,-99.99,1.0,HOBO +U30 +Weather +,2013-01-04 11:05:00,
2013-01-04 06:06:00,21.7,20.0,29.91,NE,48,0.0,0.0,92,0.00,,,-99.99,1.0,HOBO +U30 +Weather +,2013-01-04 11:06:00,
2013-01-04 06:07:00,21.7,19.9,29.91,NE,48,0.0,0.0,92,0.00,,,-99.99,1.0,HOBO +U30 +Weather +,2013-01-04 11:07:00,
2013-01-04 06:08:00,21.6,19.9,29.91,NE,48,0.0,0.0,92,0.00,,,-99.99,1.0,HOBO +U30 +Weather +,2013-01-04 11:08:00,
2013-01-04 06:09:00,21.6,19.9,29.91,NE,48,0.0,0.0,92,0.00,,,-99.99,1.0,HOBO +U30 +Weather +,2013-01-04 11:09:00,
2013-01-04 06:10:00,21.6,19.9,29.91,NE,48,0.0,0.0,93,0.00,,,-99.99,1.0,HOBO +U30 +Weather +,2013-01-04 11:10:00,
2013-01-04 06:11:00,21.6,19.8,29.91,NE,48,0.0,0.0,92,0.00,,,-99.99,1.0,HOBO +U30 +Weather +,2013-01-04 11:11:00,
2013-01-04 06:12:00,21.5,19.8,29.91,NE,48,0.0,0.0,92,0.00,,,-99.99,1.0,HOBO +U30 +Weather +,2013-01-04 11:12:00,
2013-01-04 06:13:00,21.6,19.9,29.91,NE,48,0.0,0.0,93,0.00,,,-99.99,1.0,HOBO +U30 +Weather +,2013-01-04 11:13:00,
2013-01-04 06:14:00,21.6,19.9,29.91,NE,48,0.0,0.0,93,0.00,,,-99.99,1.0,HOBO +U30 +Weather +,2013-01-04 11:14:00,
2013-01-04 06:15:00,21.7,20.0,29.91,NE,48,0.0,0.0,93,0.00,,,-99.99,1.0,HOBO +U30 +Weather +,2013-01-04 11:15:00,
2013-01-04 06:16:00,21.7,19.9,29.91,NE,48,0.0,0.0,92,0.00,,,-99.99,1.0,HOBO +U30 +Weather +,2013-01-04 11:16:00,
2013-01-04 06:17:00,21.6,19.9,29.91,NE,48,0.0,0.0,93,0.00,,,-99.99,1.0,HOBO +U30 +Weather +,2013-01-04 11:17:00,
2013-01-04 06:18:00,21.6,19.9,29.91,NE,48,0.0,0.0,93,0.00,,,-99.99,1.0,HOBO +U30 +Weather +,2013-01-04 11:18:00,
2013-01-04 06:19:00,21.6,19.8,29.92,NE,48,0.0,0.0,92,0.00,,,-99.99,1.0,HOBO +U30 +Weather +,2013-01-04 11:19:00,
2013-01-04 06:20:00,21.5,19.7,29.91,NE,48,0.0,0.0,92,0.00,,,-99.99,1.0,HOBO +U30 +Weather +,2013-01-04 11:20:00,
2013-01-04 06:21:00,21.5,19.7,29.91,NE,48,0.0,0.0,92,0.00,,,-99.99,1.0,HOBO +U30 +Weather +,2013-01-04 11:21:00,
2013-01-04 06:22:00,21.4,19.6,29.91,NE,48,0.0,0.0,92,0.00,,,-99.99,1.0,HOBO +U30 +Weather +,2013-01-04 11:22:00,
2013-01-04 06:23:00,21.3,19.5,29.91,NE,48,0.0,0.0,92,0.00,,,-99.99,1.0,HOBO +U30 +Weather +,2013-01-04 11:23:00,
2013-01-04 06:24:00,21.2,19.4,29.92,NE,48,0.0,0.0,92,0.00,,,-99.99,1.0,HOBO +U30 +Weather +,2013-01-04 11:24:00,
2013-01-04 06:25:00,21.1,19.2,29.92,NE,48,0.0,0.0,92,0.00,,,-99.99,1.0,HOBO +U30 +Weather +,2013-01-04 11:25:00,
2013-01-04 06:26:00,21.0,19.1,29.91,NE,48,0.0,0.0,92,0.00,,,-99.99,1.0,HOBO +U30 +Weather +,2013-01-04 11:26:00,
2013-01-04 06:27:00,20.9,19.0,29.91,NE,48,0.0,0.0,92,0.00,,,-99.99,1.0,HOBO +U30 +Weather +,2013-01-04 11:27:00,
2013-01-04 06:28:00,21.0,19.2,29.92,NE,48,0.0,0.0,92,0.00,,,-99.99,1.0,HOBO +U30 +Weather +,2013-01-04 11:28:00,
2013-01-04 06:29:00,21.0,19.2,29.91,NE,48,0.0,0.0,92,0.00,,,-99.99,1.0,HOBO +U30 +Weather +,2013-01-04 11:29:00,
2013-01-04 06:30:00,20.9,19.0,29.92,NE,48,0.0,0.0,92,0.00,,,-99.99,1.0,HOBO +U30 +Weather +,2013-01-04 11:30:00,
2013-01-04 06:31:00,20.8,19.0,29.92,NE,48,0.0,0.0,92,0.00,,,-99.99,1.0,HOBO +U30 +Weather +,2013-01-04 11:31:00,
2013-01-04 06:32:00,20.7,18.8,29.92,NE,48,0.0,0.0,92,0.00,,,-99.99,1.0,HOBO +U30 +Weather +,2013-01-04 11:32:00,
2013-01-04 06:33:00,20.7,18.7,29.92,NE,48,0.0,0.0,92,0.00,,,-99.99,1.0,HOBO +U30 +Weather +,2013-01-04 11:33:00,
2013-01-04 06:34:00,20.6,18.6,29.92,NE,48,0.0,0.0,92,0.00,,,-99.99,1.0,HOBO +U30 +Weather +,2013-01-04 11:34:00,
2013-01-04 06:35:00,20.5,18.6,29.92,NE,48,0.0,0.0,92,0.00,,,-99.99,1.0,HOBO +U30 +Weather +,2013-01-04 11:35:00,
2013-01-04 06:36:00,20.5,18.6,29.92,NE,48,0.0,0.0,92,0.00,,,-99.99,1.0,HOBO +U30 +Weather +,2013-01-04 11:36:00,
2013-01-04 06:37:00,20.4,18.6,29.92,NE,48,0.0,0.0,92,0.00,,,-99.99,1.0,HOBO +U30 +Weather +,2013-01-04 11:37:00,
2013-01-04 06:38:00,20.4,18.5,29.92,NE,48,0.0,0.0,92,0.00,,,-99.99,1.0,HOBO +U30 +Weather +,2013-01-04 11:38:00,
2013-01-04 06:39:00,20.3,18.4,29.92,NE,48,0.0,0.0,92,0.00,,,-99.99,1.0,HOBO +U30 +Weather +,2013-01-04 11:39:00,
2013-01-04 06:40:00,20.3,18.5,29.92,NE,48,0.0,0.0,92,0.00,,,-99.99,1.0,HOBO +U30 +Weather +,2013-01-04 11:40:00,
2013-01-04 06:41:00,20.2,18.3,29.92,NE,48,0.0,0.0,92,0.00,,,-99.99,1.0,HOBO +U30 +Weather +,2013-01-04 11:41:00,
2013-01-04 06:42:00,20.2,18.3,29.92,NE,48,0.0,0.0,92,0.00,,,-99.99,1.0,HOBO +U30 +Weather +,2013-01-04 11:42:00,
2013-01-04 06:43:00,20.2,18.3,29.91,NE,48,0.0,0.0,92,0.00,,,-99.99,1.0,HOBO +U30 +Weather +,2013-01-04 11:43:00,
2013-01-04 06:44:00,20.2,18.4,29.92,NE,48,0.0,0.0,92,0.00,,,-99.99,1.0,HOBO +U30 +Weather +,2013-01-04 11:44:00,
2013-01-04 06:45:00,20.2,18.4,29.92,NE,48,0.0,0.0,92,0.00,,,-99.99,1.0,HOBO +U30 +Weather +,2013-01-04 11:45:00,
2013-01-04 06:46:00,20.2,18.4,29.92,NE,48,0.0,0.0,92,0.00,,,-99.99,1.0,HOBO +U30 +Weather +,2013-01-04 11:46:00,
2013-01-04 06:47:00,20.2,18.4,29.92,NE,48,0.0,0.0,92,0.00,,,-99.99,1.0,HOBO +U30 +Weather +,2013-01-04 11:47:00,
2013-01-04 06:48:00,20.2,18.3,29.91,NE,48,0.0,0.0,92,0.00,,,-99.99,1.0,HOBO +U30 +Weather +,2013-01-04 11:48:00,
2013-01-04 06:49:00,20.1,18.2,29.92,NE,48,0.0,0.0,92,0.00,,,-99.99,1.0,HOBO +U30 +Weather +,2013-01-04 11:49:00,
2013-01-04 06:50:00,20.0,18.2,29.92,NE,48,0.0,0.0,92,0.00,,,-99.99,1.0,HOBO +U30 +Weather +,2013-01-04 11:50:00,
2013-01-04 06:51:00,20.0,18.2,29.91,NE,48,0.0,0.0,92,0.00,,,-99.99,1.0,HOBO +U30 +Weather +,2013-01-04 11:51:00,
2013-01-04 06:52:00,19.9,18.1,29.91,NE,48,0.0,0.0,92,0.00,,,-99.99,1.0,HOBO +U30 +Weather +,2013-01-04 11:52:00,
2013-01-04 06:53:00,19.8,17.9,29.93,NE,48,0.0,0.0,92,0.00,,,-99.99,1.0,HOBO +U30 +Weather +,2013-01-04 11:53:00,
2013-01-04 06:54:00,19.6,17.7,29.92,NE,48,0.0,0.0,92,0.00,,,-99.99,1.0,HOBO +U30 +Weather +,2013-01-04 11:54:00,
2013-01-04 06:55:00,19.6,17.8,29.91,NE,48,0.0,0.0,92,0.00,,,-99.99,1.0,HOBO +U30 +Weather +,2013-01-04 11:55:00,
2013-01-04 06:56:00,19.6,17.7,29.92,NE,48,0.0,0.0,92,0.00,,,-99.99,1.0,HOBO +U30 +Weather +,2013-01-04 11:56:00,
2013-01-04 06:57:00,19.3,17.4,29.92,NE,48,0.0,0.0,92,0.00,,,-99.99,1.0,HOBO +U30 +Weather +,2013-01-04 11:57:00,
2013-01-04 06:58:00,19.2,17.2,29.92,NE,48,0.0,0.0,91,0.00,,,-99.99,1.0,HOBO +U30 +Weather +,2013-01-04 11:58:00,
2013-01-04 06:59:00,19.1,17.1,29.92,NE,48,0.0,0.0,91,0.00,,,-99.99,1.0,HOBO +U30 +Weather +,2013-01-04 11:59:00,
2013-01-04 07:00:00,19.0,17.0,29.92,NE,48,0.0,0.0,91,0.00,,,-99.99,1.0,HOBO +U30 +Weather +,2013-01-04 12:00:00,
2013-01-04 07:01:00,18.8,16.8,29.92,NE,48,0.0,0.0,91,0.00,,,-99.99,1.0,HOBO +U30 +Weather +,2013-01-04 12:01:00,
2013-01-04 07:02:00,18.7,16.7,29.92,NE,48,0.0,0.0,91,0.00,,,-99.99,1.0,HOBO +U30 +Weather +,2013-01-04 12:02:00,
2013-01-04 07:03:00,18.5,16.4,29.92,NE,48,0.0,0.0,91,0.00,,,-99.99,1.0,HOBO +U30 +Weather +,2013-01-04 12:03:00,
2013-01-04 07:04:00,18.5,16.4,29.91,NE,48,0.0,0.0,91,0.00,,,-99.99,1.0,HOBO +U30 +Weather +,2013-01-04 12:04:00,
2013-01-04 07:05:00,18.5,16.5,29.92,NE,48,0.0,0.0,91,0.00,,,-99.99,1.0,HOBO +U30 +Weather +,2013-01-04 12:05:00,
2013-01-04 07:06:00,18.4,16.4,29.92,NE,48,0.0,0.0,91,0.00,,,-99.99,1.0,HOBO +U30 +Weather +,2013-01-04 12:06:00,
2013-01-04 07:07:00,18.4,16.5,29.93,NE,48,0.0,0.0,92,0.00,,,-99.99,1.0,HOBO +U30 +Weather +,2013-01-04 12:07:00,
2013-01-04 07:08:00,18.3,16.3,29.92,NE,48,0.0,0.0,92,0.00,,,-99.99,1.0,HOBO +U30 +Weather +,2013-01-04 12:08:00,
2013-01-04 07:09:00,18.3,16.3,29.92,NE,48,0.0,0.0,92,0.00,,,-99.99,1.0,HOBO +U30 +Weather +,2013-01-04 12:09:00,
2013-01-04 07:10:00,18.2,16.2,29.92,NE,48,0.0,0.0,92,0.00,,,-99.99,1.0,HOBO +U30 +Weather +,2013-01-04 12:10:00,
2013-01-04 07:11:00,18.1,16.1,29.92,NE,48,0.0,0.0,91,0.00,,,-99.99,1.0,HOBO +U30 +Weather +,2013-01-04 12:11:00,
2013-01-04 07:12:00,18.1,16.1,29.92,NE,48,0.0,0.0,91,0.00,,,-99.99,1.0,HOBO +U30 +Weather +,2013-01-04 12:12:00,
2013-01-04 07:13:00,18.1,16.2,29.92,NE,48,0.0,0.0,92,0.00,,,-99.99,1.0,HOBO +U30 +Weather +,2013-01-04 12:13:00,
2013-01-04 07:14:00,18.1,16.1,29.93,NE,48,0.0,0.0,92,0.00,,,-99.99,1.0,HOBO +U30 +Weather +,2013-01-04 12:14:00,
2013-01-04 07:15:00,18.1,16.2,29.93,NE,48,0.0,0.0,92,0.00,,,-99.99,1.0,HOBO +U30 +Weather +,2013-01-04 12:15:00,
2013-01-04 07:16:00,18.1,16.2,29.92,NE,48,0.0,0.0,92,0.00,,,-99.99,1.0,HOBO +U30 +Weather +,2013-01-04 12:16:00,
2013-01-04 07:17:00,17.8,15.8,29.93,NE,48,0.0,0.0,91,0.00,,,-99.99,1.0,HOBO +U30 +Weather +,2013-01-04 12:17:00,
2013-01-04 07:18:00,17.8,15.8,29.92,NE,48,0.0,0.0,91,0.00,,,-99.99,1.0,HOBO +U30 +Weather +,2013-01-04 12:18:00,
2013-01-04 07:19:00,17.8,15.9,29.92,NE,48,0.0,0.0,92,0.00,,,-99.99,1.0,HOBO +U30 +Weather +,2013-01-04 12:19:00,
2013-01-04 07:20:00,17.8,15.9,29.93,NE,48,0.0,0.0,92,0.00,,,-99.99,1.0,HOBO +U30 +Weather +,2013-01-04 12:20:00,
2013-01-04 07:21:00,17.7,15.7,29.93,NE,48,0.0,0.0,92,0.00,,,-99.99,1.0,HOBO +U30 +Weather +,2013-01-04 12:21:00,
2013-01-04 07:22:00,17.7,15.8,29.92,NE,48,0.0,0.0,92,0.00,,,-99.99,1.0,HOBO +U30 +Weather +,2013-01-04 12:22:00,
2013-01-04 07:23:00,17.7,15.9,29.93,NE,48,0.0,0.0,92,0.00,,,-99.99,1.0,HOBO +U30 +Weather +,2013-01-04 12:23:00,
2013-01-04 07:24:00,17.7,15.9,29.92,NE,48,0.0,0.0,92,0.00,,,-99.99,1.0,HOBO +U30 +Weather +,2013-01-04 12:24:00,
2013-01-04 07:25:00,17.8,15.9,29.93,NE,48,0.0,0.0,92,0.00,,,-99.99,1.0,HOBO +U30 +Weather +,2013-01-04 12:25:00,
2013-01-04 07:26:00,17.8,16.0,29.93,NE,48,0.0,0.0,92,0.00,,,-99.99,1.0,HOBO +U30 +Weather +,2013-01-04 12:26:00,
2013-01-04 07:27:00,17.8,16.0,29.93,NE,48,0.0,0.0,92,0.00,,,-99.99,1.0,HOBO +U30 +Weather +,2013-01-04 12:27:00,
2013-01-04 07:28:00,17.6,15.8,29.93,NE,48,0.0,0.0,92,0.00,,,-99.99,1.0,HOBO +U30 +Weather +,2013-01-04 12:28:00,
2013-01-04 07:29:00,17.6,15.8,29.93,NE,48,0.0,0.0,92,0.00,,,-99.99,1.0,HOBO +U30 +Weather +,2013-01-04 12:29:00,
2013-01-04 07:30:00,17.6,15.8,29.92,NE,48,0.0,0.0,92,0.00,,,-99.99,1.0,HOBO +U30 +Weather +,2013-01-04 12:30:00,
2013-01-04 07:31:00,17.5,15.8,29.92,NE,48,0.0,0.0,92,0.00,,,-99.99,1.0,HOBO +U30 +Weather +,2013-01-04 12:31:00,
2013-01-04 07:32:00,17.4,15.6,29.92,NE,48,0.0,0.0,92,0.00,,,-99.99,1.0,HOBO +U30 +Weather +,2013-01-04 12:32:00,
2013-01-04 07:33:00,17.4,15.5,29.93,NE,48,0.0,0.0,92,0.00,,,-99.99,1.0,HOBO +U30 +Weather +,2013-01-04 12:33:00,
2013-01-04 07:34:00,17.4,15.5,29.92,NE,48,0.0,0.0,92,0.00,,,-99.99,1.0,HOBO +U30 +Weather +,2013-01-04 12:34:00,
2013-01-04 07:35:00,17.3,15.4,29.92,NE,48,0.0,0.0,92,0.00,,,-99.99,1.0,HOBO +U30 +Weather +,2013-01-04 12:35:00,
2013-01-04 07:36:00,17.3,15.4,29.92,NE,48,0.0,0.0,92,0.00,,,-99.99,1.0,HOBO +U30 +Weather +,2013-01-04 12:36:00,
2013-01-04 07:37:00,17.3,15.5,29.93,NE,48,0.0,0.0,92,0.00,,,-99.99,1.0,HOBO +U30 +Weather +,2013-01-04 12:37:00,
2013-01-04 07:38:00,17.3,15.5,29.93,NE,48,0.0,0.0,92,0.00,,,-99.99,1.0,HOBO +U30 +Weather +,2013-01-04 12:38:00,
2013-01-04 07:39:00,17.3,15.5,29.93,NE,48,0.0,0.0,92,0.00,,,-99.99,1.0,HOBO +U30 +Weather +,2013-01-04 12:39:00,
2013-01-04 07:40:00,17.3,15.5,29.93,NE,48,0.0,0.0,92,0.00,,,-99.99,1.0,HOBO +U30 +Weather +,2013-01-04 12:40:00,
2013-01-04 07:41:00,17.3,15.5,29.93,NE,48,0.0,0.0,92,0.00,,,-99.99,1.0,HOBO +U30 +Weather +,2013-01-04 12:41:00,
2013-01-04 07:42:00,17.2,15.5,29.92,NE,48,0.0,0.0,92,0.00,,,-99.99,1.0,HOBO +U30 +Weather +,2013-01-04 12:42:00,
2013-01-04 07:43:00,17.2,15.4,29.93,NE,48,0.0,0.0,92,0.00,,,-99.99,1.0,HOBO +U30 +Weather +,2013-01-04 12:43:00,
2013-01-04 07:44:00,17.2,15.5,29.92,NE,48,0.0,0.0,92,0.00,,,-99.99,1.0,HOBO +U30 +Weather +,2013-01-04 12:44:00,
2013-01-04 07:45:00,17.2,15.4,29.92,NE,48,0.0,0.0,92,0.00,,,-99.99,1.0,HOBO +U30 +Weather +,2013-01-04 12:45:00,
2013-01-04 07:46:00,17.1,15.4,29.92,NE,48,0.0,0.0,92,0.00,,,-99.99,1.0,HOBO +U30 +Weather +,2013-01-04 12:46:00,
2013-01-04 07:47:00,17.2,15.4,29.92,NE,48,0.0,0.0,92,0.00,,,-99.99,1.0,HOBO +U30 +Weather +,2013-01-04 12:47:00,
2013-01-04 07:48:00,17.2,15.5,29.92,NE,48,0.0,0.0,92,0.00,,,-99.99,1.0,HOBO +U30 +Weather +,2013-01-04 12:48:00,
2013-01-04 07:49:00,17.1,15.3,29.92,NE,48,0.0,0.0,92,0.00,,,-99.99,1.0,HOBO +U30 +Weather +,2013-01-04 12:49:00,
2013-01-04 07:50:00,17.0,15.2,29.93,NE,48,0.0,0.0,92,0.00,,,-99.99,1.0,HOBO +U30 +Weather +,2013-01-04 12:50:00,
2013-01-04 07:51:00,16.9,15.1,29.93,NE,48,0.0,0.0,92,0.00,,,-99.99,1.0,HOBO +U30 +Weather +,2013-01-04 12:51:00,
2013-01-04 07:52:00,16.8,14.9,29.92,NE,48,0.0,0.0,92,0.00,,,-99.99,1.0,HOBO +U30 +Weather +,2013-01-04 12:52:00,
2013-01-04 07:53:00,16.8,15.0,29.93,NE,48,0.0,0.0,92,0.00,,,-99.99,1.0,HOBO +U30 +Weather +,2013-01-04 12:53:00,
2013-01-04 07:54:00,16.8,15.0,29.93,NE,48,0.0,0.0,92,0.00,,,-99.99,1.0,HOBO +U30 +Weather +,2013-01-04 12:54:00,
2013-01-04 07:55:00,16.8,15.0,29.92,NE,48,0.0,0.0,92,0.00,,,-99.99,1.0,HOBO +U30 +Weather +,2013-01-04 12:55:00,
2013-01-04 07:56:00,17.0,15.3,29.93,NE,48,0.0,0.0,93,0.00,,,-99.99,1.0,HOBO +U30 +Weather +,2013-01-04 12:56:00,
2013-01-04 07:57:00,17.1,15.5,29.92,NE,48,0.0,0.0,93,0.00,,,-99.99,1.0,HOBO +U30 +Weather +,2013-01-04 12:57:00,
2013-01-04 07:58:00,17.2,15.5,29.93,NE,48,0.0,0.0,93,0.00,,,-99.99,1.0,HOBO +U30 +Weather +,2013-01-04 12:58:00,
2013-01-04 07:59:00,17.2,15.6,29.93,NE,48,0.0,0.0,93,0.00,,,-99.99,1.0,HOBO +U30 +Weather +,2013-01-04 12:59:00,
2013-01-04 08:00:00,17.4,15.7,29.93,NE,48,0.0,0.0,93,0.00,,,-99.99,1.0,HOBO +U30 +Weather +,2013-01-04 13:00:00,
2013-01-04 08:01:00,17.4,15.8,29.93,NE,48,0.0,0.0,93,0.00,,,-99.99,1.0,HOBO +U30 +Weather +,2013-01-04 13:01:00,
2013-01-04 08:02:00,17.5,16.0,29.93,NE,48,0.0,0.0,93,0.00,,,-99.99,1.0,HOBO +U30 +Weather +,2013-01-04 13:02:00,
2013-01-04 08:03:00,17.7,16.2,29.93,NE,48,0.0,0.0,93,0.00,,,-99.99,1.0,HOBO +U30 +Weather +,2013-01-04 13:03:00,
2013-01-04 08:04:00,18.0,16.6,29.93,NE,48,0.0,0.0,94,0.00,,,-99.99,1.0,HOBO +U30 +Weather +,2013-01-04 13:04:00,
2013-01-04 08:05:00,18.2,16.8,29.93,NE,48,0.0,0.0,94,0.00,,,-99.99,1.0,HOBO +U30 +Weather +,2013-01-04 13:05:00,
2013-01-04 08:06:00,18.4,16.9,29.93,NE,48,0.0,0.0,94,0.00,,,-99.99,1.0,HOBO +U30 +Weather +,2013-01-04 13:06:00,
2013-01-04 08:07:00,18.4,17.0,29.92,NE,48,0.0,0.0,94,0.00,,,-99.99,1.0,HOBO +U30 +Weather +,2013-01-04 13:07:00,
2013-01-04 08:08:00,18.5,17.1,29.93,NE,48,0.0,0.0,94,0.00,,,-99.99,1.0,HOBO +U30 +Weather +,2013-01-04 13:08:00,
2013-01-04 08:09:00,18.5,17.1,29.92,NE,48,0.0,0.0,94,0.00,,,-99.99,1.0,HOBO +U30 +Weather +,2013-01-04 13:09:00,
2013-01-04 08:10:00,18.6,17.1,29.93,NE,48,0.0,0.0,94,0.00,,,-99.99,1.0,HOBO +U30 +Weather +,2013-01-04 13:10:00,
2013-01-04 08:11:00,18.8,17.3,29.93,NE,48,0.0,0.0,94,0.00,,,-99.99,1.0,HOBO +U30 +Weather +,2013-01-04 13:11:00,
2013-01-04 08:12:00,19.2,17.9,29.93,NE,48,0.0,0.0,94,0.00,,,-99.99,1.0,HOBO +U30 +Weather +,2013-01-04 13:12:00,
2013-01-04 08:13:00,19.4,18.1,29.93,NE,48,0.0,0.0,94,0.00,,,-99.99,1.0,HOBO +U30 +Weather +,2013-01-04 13:13:00,
2013-01-04 08:14:00,19.6,18.2,29.93,NE,48,0.0,0.0,94,0.00,,,-99.99,1.0,HOBO +U30 +Weather +,2013-01-04 13:14:00,
2013-01-04 08:15:00,19.6,18.3,29.93,NE,48,0.0,0.0,94,0.00,,,-99.99,1.0,HOBO +U30 +Weather +,2013-01-04 13:15:00,
2013-01-04 08:16:00,19.7,18.3,29.93,NE,48,0.0,0.0,94,0.00,,,-99.99,1.0,HOBO +U30 +Weather +,2013-01-04 13:16:00,
2013-01-04 08:17:00,19.7,18.3,29.93,NE,48,0.0,0.0,94,0.00,,,-99.99,1.0,HOBO +U30 +Weather +,2013-01-04 13:17:00,
2013-01-04 08:18:00,19.8,18.3,29.93,NE,48,0.0,0.0,94,0.00,,,-99.99,1.0,HOBO +U30 +Weather +,2013-01-04 13:18:00,
2013-01-04 08:19:00,19.9,18.4,29.93,NE,48,0.0,0.0,94,0.00,,,-99.99,1.0,HOBO +U30 +Weather +,2013-01-04 13:19:00,
2013-01-04 08:20:00,20.0,18.6,29.93,NE,48,0.0,0.0,94,0.00,,,-99.99,1.0,HOBO +U30 +Weather +,2013-01-04 13:20:00,
2013-01-04 08:21:00,20.2,18.7,29.93,NE,48,0.0,0.0,94,0.00,,,-99.99,1.0,HOBO +U30 +Weather +,2013-01-04 13:21:00,
2013-01-04 08:22:00,20.2,18.7,29.93,NE,48,0.0,0.0,94,0.00,,,-99.99,1.0,HOBO +U30 +Weather +,2013-01-04 13:22:00,
2013-01-04 08:23:00,20.4,19.0,29.93,NE,48,0.0,0.0,94,0.00,,,-99.99,1.0,HOBO +U30 +Weather +,2013-01-04 13:23:00,
2013-01-04 08:24:00,20.6,19.2,29.93,NE,48,0.0,0.0,94,0.00,,,-99.99,1.0,HOBO +U30 +Weather +,2013-01-04 13:24:00,
2013-01-04 08:25:00,20.9,19.5,29.93,NE,48,0.0,0.0,94,0.00,,,-99.99,1.0,HOBO +U30 +Weather +,2013-01-04 13:25:00,
2013-01-04 08:26:00,21.2,19.8,29.93,NE,48,0.0,0.0,94,0.00,,,-99.99,1.0,HOBO +U30 +Weather +,2013-01-04 13:26:00,
2013-01-04 08:27:00,21.4,20.0,29.93,NE,48,0.0,0.0,94,0.00,,,-99.99,1.0,HOBO +U30 +Weather +,2013-01-04 13:27:00,
2013-01-04 08:28:00,21.7,20.3,29.93,NE,48,0.0,0.0,94,0.00,,,-99.99,1.0,HOBO +U30 +Weather +,2013-01-04 13:28:00,
2013-01-04 08:29:00,21.9,20.5,29.93,NE,48,0.0,0.0,94,0.00,,,-99.99,1.0,HOBO +U30 +Weather +,2013-01-04 13:29:00,
2013-01-04 08:30:00,22.4,20.9,29.93,NE,48,0.0,0.0,94,0.00,,,-99.99,1.0,HOBO +U30 +Weather +,2013-01-04 13:30:00,
2013-01-04 08:31:00,22.6,21.2,29.93,NE,48,0.0,0.0,94,0.00,,,-99.99,1.0,HOBO +U30 +Weather +,2013-01-04 13:31:00,
2013-01-04 08:32:00,22.8,21.3,29.93,NE,48,0.0,0.0,94,0.00,,,-99.99,1.0,HOBO +U30 +Weather +,2013-01-04 13:32:00,
2013-01-04 08:33:00,23.1,21.6,29.93,NE,48,0.0,0.0,93,0.00,,,-99.99,1.0,HOBO +U30 +Weather +,2013-01-04 13:33:00,
2013-01-04 08:34:00,23.3,21.8,29.93,NE,48,0.0,0.0,93,0.00,,,-99.99,1.0,HOBO +U30 +Weather +,2013-01-04 13:34:00,
2013-01-04 08:35:00,23.6,22.0,29.93,NE,48,0.0,0.0,93,0.00,,,-99.99,1.0,HOBO +U30 +Weather +,2013-01-04 13:35:00,
2013-01-04 08:36:00,23.8,22.2,29.93,NE,48,0.0,0.0,93,0.00,,,-99.99,1.0,HOBO +U30 +Weather +,2013-01-04 13:36:00,
2013-01-04 08:37:00,24.0,22.3,29.93,NE,48,0.0,0.0,93,0.00,,,-99.99,1.0,HOBO +U30 +Weather +,2013-01-04 13:37:00,
2013-01-04 08:38:00,24.1,22.4,29.93,NE,48,0.0,0.0,93,0.00,,,-99.99,1.0,HOBO +U30 +Weather +,2013-01-04 13:38:00,
2013-01-04 08:39:00,24.3,22.6,29.93,NE,48,0.0,0.0,93,0.00,,,-99.99,1.0,HOBO +U30 +Weather +,2013-01-04 13:39:00,
2013-01-04 08:40:00,24.4,22.8,29.93,NE,48,0.0,0.0,93,0.00,,,-99.99,1.0,HOBO +U30 +Weather +,2013-01-04 13:40:00,
2013-01-04 08:41:00,24.7,23.0,29.93,NE,48,0.0,0.0,93,0.00,,,-99.99,1.0,HOBO +U30 +Weather +,2013-01-04 13:41:00,
2013-01-04 08:42:00,25.0,23.3,29.93,NE,48,0.0,0.0,93,0.00,,,-99.99,1.0,HOBO +U30 +Weather +,2013-01-04 13:42:00,
2013-01-04 08:43:00,25.2,23.5,29.93,NE,48,0.0,0.0,92,0.00,,,-99.99,1.0,HOBO +U30 +Weather +,2013-01-04 13:43:00,
2013-01-04 08:44:00,25.5,23.6,29.93,NE,48,0.0,0.0,92,0.00,,,-99.99,1.0,HOBO +U30 +Weather +,2013-01-04 13:44:00,
2013-01-04 08:45:00,25.6,23.7,29.93,NE,48,0.0,0.0,92,0.00,,,-99.99,1.0,HOBO +U30 +Weather +,2013-01-04 13:45:00,
2013-01-04 08:46:00,25.7,23.8,29.93,NE,48,0.0,0.0,92,0.00,,,-99.99,1.0,HOBO +U30 +Weather +,2013-01-04 13:46:00,
2013-01-04 08:47:00,26.0,24.1,29.93,NE,48,0.0,0.0,92,0.00,,,-99.99,1.0,HOBO +U30 +Weather +,2013-01-04 13:47:00,
2013-01-04 08:48:00,26.1,24.2,29.93,NE,48,0.0,0.0,92,0.00,,,-99.99,1.0,HOBO +U30 +Weather +,2013-01-04 13:48:00,
2013-01-04 08:49:00,26.2,24.3,29.93,NE,48,0.0,0.0,92,0.00,,,-99.99,1.0,HOBO +U30 +Weather +,2013-01-04 13:49:00,
2013-01-04 08:50:00,26.4,24.4,29.93,NE,48,0.0,0.0,92,0.00,,,-99.99,1.0,HOBO +U30 +Weather +,2013-01-04 13:50:00,
2013-01-04 08:51:00,26.5,24.6,29.93,NE,48,0.0,0.0,92,0.00,,,-99.99,1.0,HOBO +U30 +Weather +,2013-01-04 13:51:00,
2013-01-04 08:52:00,26.7,24.7,29.93,NE,48,0.0,0.0,92,0.00,,,-99.99,1.0,HOBO +U30 +Weather +,2013-01-04 13:52:00,
2013-01-04 08:53:00,26.9,24.8,29.93,NE,48,0.0,0.0,92,0.00,,,-99.99,1.0,HOBO +U30 +Weather +,2013-01-04 13:53:00,
2013-01-04 08:54:00,26.9,24.9,29.93,NE,48,0.0,0.0,91,0.00,,,-99.99,1.0,HOBO +U30 +Weather +,2013-01-04 13:54:00,
2013-01-04 08:55:00,27.1,25.0,29.93,NE,48,0.0,0.0,91,0.00,,,-99.99,1.0,HOBO +U30 +Weather +,2013-01-04 13:55:00,
2013-01-04 08:56:00,27.3,25.2,29.93,NE,48,0.0,0.0,91,0.00,,,-99.99,1.0,HOBO +U30 +Weather +,2013-01-04 13:56:00,
2013-01-04 08:57:00,27.4,25.3,29.93,NE,48,0.0,0.0,91,0.00,,,-99.99,1.0,HOBO +U30 +Weather +,2013-01-04 13:57:00,
2013-01-04 08:58:00,27.5,25.4,29.93,NE,48,0.0,0.0,91,0.00,,,-99.99,1.0,HOBO +U30 +Weather +,2013-01-04 13:58:00,
2013-01-04 08:59:00,27.6,25.4,29.93,NE,48,0.0,0.0,91,0.00,,,-99.99,1.0,HOBO +U30 +Weather +,2013-01-04 13:59:00,
2013-01-04 09:00:00,27.8,25.5,29.93,NE,48,0.0,0.0,91,0.00,,,-99.99,1.0,HOBO +U30 +Weather +,2013-01-04 14:00:00,
2013-01-04 09:01:00,27.9,25.5,29.93,NE,48,0.0,0.0,90,0.00,,,-99.99,1.0,HOBO +U30 +Weather +,2013-01-04 14:01:00,
2013-01-04 09:02:00,28.0,25.6,29.93,NE,48,0.0,0.0,90,0.00,,,-99.99,1.0,HOBO +U30 +Weather +,2013-01-04 14:02:00,
2013-01-04 09:03:00,28.1,25.8,29.93,NE,48,0.0,0.0,90,0.00,,,-99.99,1.0,HOBO +U30 +Weather +,2013-01-04 14:03:00,
2013-01-04 09:04:00,28.2,25.8,29.92,NE,48,0.0,0.0,90,0.00,,,-99.99,1.0,HOBO +U30 +Weather +,2013-01-04 14:04:00,
2013-01-04 09:05:00,28.3,25.9,29.93,NE,48,0.0,0.0,90,0.00,,,-99.99,1.0,HOBO +U30 +Weather +,2013-01-04 14:05:00,
2013-01-04 09:06:00,28.3,25.9,29.92,NE,48,0.0,0.0,90,0.00,,,-99.99,2.0,HOBO +U30 +Weather +,2013-01-04 14:06:00,
2013-01-04 09:07:00,28.4,26.1,29.92,NE,48,0.0,0.0,90,0.00,,,-99.99,1.0,HOBO +U30 +Weather +,2013-01-04 14:07:00,
2013-01-04 09:08:00,28.6,26.2,29.93,NE,48,0.0,0.0,90,0.00,,,-99.99,2.0,HOBO +U30 +Weather +,2013-01-04 14:08:00,
2013-01-04 09:09:00,28.6,26.1,29.93,NE,48,0.0,0.0,90,0.00,,,-99.99,2.0,HOBO +U30 +Weather +,2013-01-04 14:09:00,
2013-01-04 09:10:00,28.7,26.2,29.92,NE,48,0.0,0.0,90,0.00,,,-99.99,2.0,HOBO +U30 +Weather +,2013-01-04 14:10:00,
2013-01-04 09:11:00,28.7,26.2,29.92,NE,48,0.0,0.0,90,0.00,,,-99.99,2.0,HOBO +U30 +Weather +,2013-01-04 14:11:00,
2013-01-04 09:12:00,28.8,26.3,29.93,NE,48,0.0,0.0,90,0.00,,,-99.99,2.0,HOBO +U30 +Weather +,2013-01-04 14:12:00,
2013-01-04 09:13:00,28.9,26.2,29.93,NE,48,0.0,0.0,89,0.00,,,-99.99,2.0,HOBO +U30 +Weather +,2013-01-04 14:13:00,
2013-01-04 09:14:00,28.9,26.3,29.93,NE,48,0.0,0.0,89,0.00,,,-99.99,2.0,HOBO +U30 +Weather +,2013-01-04 14:14:00,
2013-01-04 09:15:00,29.0,26.3,29.92,NE,48,0.0,0.0,89,0.00,,,-99.99,2.0,HOBO +U30 +Weather +,2013-01-04 14:15:00,
2013-01-04 09:16:00,29.0,26.3,29.93,NE,48,0.0,0.0,89,0.00,,,-99.99,2.0,HOBO +U30 +Weather +,2013-01-04 14:16:00,
2013-01-04 09:17:00,29.1,26.4,29.92,NE,48,0.0,0.0,89,0.00,,,-99.99,2.0,HOBO +U30 +Weather +,2013-01-04 14:17:00,
2013-01-04 09:18:00,29.2,26.6,29.92,NE,48,0.0,0.0,89,0.00,,,-99.99,2.0,HOBO +U30 +Weather +,2013-01-04 14:18:00,
2013-01-04 09:19:00,29.2,26.6,29.93,NE,48,0.0,0.0,89,0.00,,,-99.99,2.0,HOBO +U30 +Weather +,2013-01-04 14:19:00,
2013-01-04 09:20:00,29.4,26.7,29.92,NE,48,0.0,0.0,89,0.00,,,-99.99,2.0,HOBO +U30 +Weather +,2013-01-04 14:20:00,
2013-01-04 09:21:00,29.4,26.7,29.92,NE,48,0.0,0.0,89,0.00,,,-99.99,2.0,HOBO +U30 +Weather +,2013-01-04 14:21:00,
2013-01-04 09:22:00,29.5,26.7,29.92,NE,48,0.0,0.0,89,0.00,,,-99.99,2.0,HOBO +U30 +Weather +,2013-01-04 14:22:00,
2013-01-04 09:23:00,29.6,26.8,29.92,NE,48,0.0,0.0,89,0.00,,,-99.99,2.0,HOBO +U30 +Weather +,2013-01-04 14:23:00,
2013-01-04 09:24:00,29.7,26.8,29.91,NE,48,0.0,0.0,89,0.00,,,-99.99,2.0,HOBO +U30 +Weather +,2013-01-04 14:24:00,
2013-01-04 09:25:00,29.7,26.9,29.92,NE,48,0.0,0.0,89,0.00,,,-99.99,2.0,HOBO +U30 +Weather +,2013-01-04 14:25:00,
2013-01-04 09:26:00,29.8,27.0,29.92,NE,48,0.0,0.0,89,0.00,,,-99.99,2.0,HOBO +U30 +Weather +,2013-01-04 14:26:00,
2013-01-04 09:27:00,29.9,27.2,29.92,NE,48,0.0,0.0,89,0.00,,,-99.99,2.0,HOBO +U30 +Weather +,2013-01-04 14:27:00,
2013-01-04 09:28:00,30.0,27.3,29.93,NE,48,0.0,0.0,89,0.00,,,-99.99,2.0,HOBO +U30 +Weather +,2013-01-04 14:28:00,
2013-01-04 09:29:00,30.2,27.4,29.92,NE,48,0.0,0.0,89,0.00,,,-99.99,2.0,HOBO +U30 +Weather +,2013-01-04 14:29:00,
2013-01-04 09:30:00,30.2,27.2,29.92,NE,48,0.0,0.0,88,0.00,,,-99.99,2.0,HOBO +U30 +Weather +,2013-01-04 14:30:00,
2013-01-04 09:31:00,30.2,27.1,29.92,NE,48,0.0,0.0,88,0.00,,,-99.99,2.0,HOBO +U30 +Weather +,2013-01-04 14:31:00,
2013-01-04 09:32:00,30.2,27.2,29.92,NE,48,0.0,0.0,88,0.00,,,-99.99,2.0,HOBO +U30 +Weather +,2013-01-04 14:32:00,
2013-01-04 09:33:00,30.3,27.3,29.92,NE,48,0.0,0.0,88,0.00,,,-99.99,2.0,HOBO +U30 +Weather +,2013-01-04 14:33:00,
2013-01-04 09:34:00,30.4,27.5,29.91,NE,48,0.0,0.0,89,0.00,,,-99.99,2.0,HOBO +U30 +Weather +,2013-01-04 14:34:00,
2013-01-04 09:35:00,30.5,27.6,29.92,NE,48,0.0,0.0,89,0.00,,,-99.99,2.0,HOBO +U30 +Weather +,2013-01-04 14:35:00,
2013-01-04 09:36:00,30.6,27.7,29.92,NE,48,0.0,0.0,89,0.00,,,-99.99,2.0,HOBO +U30 +Weather +,2013-01-04 14:36:00,
2013-01-04 09:37:00,30.6,27.7,29.92,NE,48,0.0,0.0,88,0.00,,,-99.99,2.0,HOBO +U30 +Weather +,2013-01-04 14:37:00,
2013-01-04 09:38:00,30.7,27.7,29.92,NE,48,0.0,0.0,88,0.00,,,-99.99,2.0,HOBO +U30 +Weather +,2013-01-04 14:38:00,
2013-01-04 09:39:00,30.7,27.7,29.93,NE,48,0.0,0.0,88,0.00,,,-99.99,2.0,HOBO +U30 +Weather +,2013-01-04 14:39:00,
2013-01-04 09:40:00,30.8,27.9,29.92,NE,48,0.0,0.0,88,0.00,,,-99.99,2.0,HOBO +U30 +Weather +,2013-01-04 14:40:00,
2013-01-04 09:41:00,30.9,27.9,29.92,NE,48,0.0,0.0,88,0.00,,,-99.99,2.0,HOBO +U30 +Weather +,2013-01-04 14:41:00,
2013-01-04 09:42:00,30.9,27.9,29.92,NE,48,0.0,0.0,88,0.00,,,-99.99,2.0,HOBO +U30 +Weather +,2013-01-04 14:42:00,
2013-01-04 09:43:00,31.0,28.1,29.91,NE,48,0.0,0.0,88,0.00,,,-99.99,2.0,HOBO +U30 +Weather +,2013-01-04 14:43:00,
2013-01-04 09:44:00,31.1,28.3,29.92,NE,48,0.0,0.0,89,0.00,,,-99.99,2.0,HOBO +U30 +Weather +,2013-01-04 14:44:00,
2013-01-04 09:45:00,31.2,28.3,29.93,NE,48,0.0,0.0,88,0.00,,,-99.99,2.0,HOBO +U30 +Weather +,2013-01-04 14:45:00,
2013-01-04 09:46:00,31.3,28.4,29.91,NE,48,0.0,0.0,89,0.00,,,-99.99,2.0,HOBO +U30 +Weather +,2013-01-04 14:46:00,
2013-01-04 09:47:00,31.3,28.1,29.92,NE,48,0.0,0.0,87,0.00,,,-99.99,2.0,HOBO +U30 +Weather +,2013-01-04 14:47:00,
2013-01-04 09:48:00,31.3,28.1,29.92,NE,48,0.0,0.0,88,0.00,,,-99.99,2.0,HOBO +U30 +Weather +,2013-01-04 14:48:00,
2013-01-04 09:49:00,31.3,28.2,29.92,NE,48,0.0,0.0,88,0.00,,,-99.99,2.0,HOBO +U30 +Weather +,2013-01-04 14:49:00,
2013-01-04 09:50:00,31.3,28.1,29.92,NE,48,0.0,0.0,87,0.00,,,-99.99,2.0,HOBO +U30 +Weather +,2013-01-04 14:50:00,
2013-01-04 09:51:00,31.4,28.2,29.92,NE,48,0.0,0.0,87,0.00,,,-99.99,2.0,HOBO +U30 +Weather +,2013-01-04 14:51:00,
2013-01-04 09:52:00,31.4,28.2,29.92,NE,48,0.0,0.0,88,0.00,,,-99.99,2.0,HOBO +U30 +Weather +,2013-01-04 14:52:00,
2013-01-04 09:53:00,31.5,28.4,29.92,NE,48,0.0,0.0,88,0.00,,,-99.99,2.0,HOBO +U30 +Weather +,2013-01-04 14:53:00,
2013-01-04 09:54:00,31.5,28.4,29.91,NE,48,0.0,0.0,88,0.00,,,-99.99,2.0,HOBO +U30 +Weather +,2013-01-04 14:54:00,
2013-01-04 09:55:00,31.6,28.5,29.92,NE,48,0.0,0.0,88,0.00,,,-99.99,2.0,HOBO +U30 +Weather +,2013-01-04 14:55:00,
2013-01-04 09:56:00,31.7,28.5,29.92,NE,48,0.0,0.0,87,0.00,,,-99.99,2.0,HOBO +U30 +Weather +,2013-01-04 14:56:00,
2013-01-04 09:57:00,31.7,28.6,29.91,NE,48,0.0,0.0,88,0.00,,,-99.99,2.0,HOBO +U30 +Weather +,2013-01-04 14:57:00,
2013-01-04 09:58:00,31.8,28.7,29.91,NE,48,0.0,0.0,88,0.00,,,-99.99,2.0,HOBO +U30 +Weather +,2013-01-04 14:58:00,
2013-01-04 09:59:00,31.9,28.9,29.92,NE,48,0.0,0.0,88,0.00,,,-99.99,2.0,HOBO +U30 +Weather +,2013-01-04 14:59:00,
2013-01-04 10:00:00,31.9,28.8,29.92,NE,48,0.0,0.0,88,0.00,,,-99.99,2.0,HOBO +U30 +Weather +,2013-01-04 15:00:00,
2013-01-04 10:01:00,32.1,28.9,29.91,NE,48,0.0,0.0,87,0.00,,,-99.99,2.0,HOBO +U30 +Weather +,2013-01-04 15:01:00,
2013-01-04 10:02:00,32.1,28.8,29.91,NE,48,0.0,0.0,87,0.00,,,-99.99,2.0,HOBO +U30 +Weather +,2013-01-04 15:02:00,
2013-01-04 10:03:00,32.2,29.0,29.92,NE,48,0.0,0.0,87,0.00,,,-99.99,2.0,HOBO +U30 +Weather +,2013-01-04 15:03:00,
2013-01-04 10:04:00,32.3,29.0,29.92,NE,48,0.0,0.0,87,0.00,,,-99.99,2.0,HOBO +U30 +Weather +,2013-01-04 15:04:00,
2013-01-04 10:05:00,32.3,28.9,29.92,NE,48,0.0,0.0,87,0.00,,,-99.99,2.0,HOBO +U30 +Weather +,2013-01-04 15:05:00,
2013-01-04 10:06:00,32.4,29.0,29.92,NE,48,0.0,0.0,87,0.00,,,-99.99,2.0,HOBO +U30 +Weather +,2013-01-04 15:06:00,
2013-01-04 10:07:00,32.5,29.1,29.91,NE,48,0.0,0.0,87,0.00,,,-99.99,2.0,HOBO +U30 +Weather +,2013-01-04 15:07:00,
2013-01-04 10:08:00,32.5,29.2,29.92,NE,48,0.0,0.0,87,0.00,,,-99.99,2.0,HOBO +U30 +Weather +,2013-01-04 15:08:00,
2013-01-04 10:09:00,32.6,29.3,29.92,NE,48,0.0,0.0,87,0.00,,,-99.99,2.0,HOBO +U30 +Weather +,2013-01-04 15:09:00,
2013-01-04 10:10:00,32.6,29.3,29.91,NE,48,0.0,0.0,87,0.00,,,-99.99,2.0,HOBO +U30 +Weather +,2013-01-04 15:10:00,
2013-01-04 10:11:00,32.6,29.0,29.91,NE,48,0.0,0.0,86,0.00,,,-99.99,2.0,HOBO +U30 +Weather +,2013-01-04 15:11:00,
2013-01-04 10:12:00,32.5,29.0,29.92,NE,48,0.0,0.0,86,0.00,,,-99.99,2.0,HOBO +U30 +Weather +,2013-01-04 15:12:00,
2013-01-04 10:13:00,32.6,29.2,29.91,NE,48,0.0,0.0,86,0.00,,,-99.99,2.0,HOBO +U30 +Weather +,2013-01-04 15:13:00,
2013-01-04 10:14:00,32.6,29.1,29.91,NE,48,0.0,0.0,86,0.00,,,-99.99,2.0,HOBO +U30 +Weather +,2013-01-04 15:14:00,
2013-01-04 10:15:00,32.5,29.0,29.91,NE,48,0.0,0.0,86,0.00,,,-99.99,2.0,HOBO +U30 +Weather +,2013-01-04 15:15:00,
2013-01-04 10:16:00,32.6,29.1,29.91,NE,48,0.0,0.0,86,0.00,,,-99.99,2.0,HOBO +U30 +Weather +,2013-01-04 15:16:00,
2013-01-04 10:17:00,32.6,29.1,29.91,NE,48,0.0,0.0,86,0.00,,,-99.99,2.0,HOBO +U30 +Weather +,2013-01-04 15:17:00,
2013-01-04 10:18:00,32.7,29.1,29.91,NE,48,0.0,0.0,86,0.00,,,-99.99,2.0,HOBO +U30 +Weather +,2013-01-04 15:18:00,
2013-01-04 10:19:00,32.9,29.4,29.91,NE,48,0.0,0.0,86,0.00,,,-99.99,2.0,HOBO +U30 +Weather +,2013-01-04 15:19:00,
2013-01-04 10:20:00,33.0,29.4,29.91,NE,48,0.0,0.0,86,0.00,,,-99.99,2.0,HOBO +U30 +Weather +,2013-01-04 15:20:00,
2013-01-04 10:21:00,33.0,29.5,29.91,NE,48,0.0,0.0,86,0.00,,,-99.99,2.0,HOBO +U30 +Weather +,2013-01-04 15:21:00,
2013-01-04 10:22:00,33.0,29.5,29.91,NE,48,0.0,0.0,86,0.00,,,-99.99,2.0,HOBO +U30 +Weather +,2013-01-04 15:22:00,
2013-01-04 10:23:00,33.1,29.4,29.90,NE,48,0.0,0.0,86,0.00,,,-99.99,2.0,HOBO +U30 +Weather +,2013-01-04 15:23:00,
2013-01-04 10:24:00,32.8,29.1,29.91,NE,48,0.0,0.0,86,0.00,,,-99.99,2.0,HOBO +U30 +Weather +,2013-01-04 15:24:00,
2013-01-04 10:25:00,32.6,29.0,29.91,NE,48,0.0,0.0,86,0.00,,,-99.99,2.0,HOBO +U30 +Weather +,2013-01-04 15:25:00,
2013-01-04 10:26:00,32.5,29.0,29.91,NE,48,0.0,0.0,86,0.00,,,-99.99,2.0,HOBO +U30 +Weather +,2013-01-04 15:26:00,
2013-01-04 10:27:00,32.5,28.9,29.91,NE,48,0.0,0.0,86,0.00,,,-99.99,2.0,HOBO +U30 +Weather +,2013-01-04 15:27:00,
2013-01-04 10:28:00,32.5,29.2,29.90,NE,48,0.0,0.0,87,0.00,,,-99.99,2.0,HOBO +U30 +Weather +,2013-01-04 15:28:00,
2013-01-04 10:29:00,32.7,29.2,29.90,NE,48,0.0,0.0,86,0.00,,,-99.99,2.0,HOBO +U30 +Weather +,2013-01-04 15:29:00,
2013-01-04 10:30:00,32.7,29.0,29.91,NE,48,0.0,0.0,86,0.00,,,-99.99,2.0,HOBO +U30 +Weather +,2013-01-04 15:30:00,
2013-01-04 10:31:00,32.7,29.0,29.90,NE,48,0.0,0.0,85,0.00,,,-99.99,2.0,HOBO +U30 +Weather +,2013-01-04 15:31:00,
2013-01-04 10:32:00,32.7,28.9,29.90,NE,48,0.0,0.0,85,0.00,,,-99.99,2.0,HOBO +U30 +Weather +,2013-01-04 15:32:00,
2013-01-04 10:33:00,32.9,29.1,29.90,NE,48,0.0,0.0,85,0.00,,,-99.99,2.0,HOBO +U30 +Weather +,2013-01-04 15:33:00,
2013-01-04 10:34:00,33.0,29.0,29.90,NE,48,0.0,0.0,84,0.00,,,-99.99,2.0,HOBO +U30 +Weather +,2013-01-04 15:34:00,
2013-01-04 10:35:00,32.9,28.9,29.90,NE,48,0.0,0.0,84,0.00,,,-99.99,2.0,HOBO +U30 +Weather +,2013-01-04 15:35:00,
2013-01-04 10:36:00,32.9,28.9,29.90,NE,48,0.0,0.0,85,0.00,,,-99.99,2.0,HOBO +U30 +Weather +,2013-01-04 15:36:00,
2013-01-04 10:37:00,33.0,29.1,29.90,NE,48,0.0,0.0,85,0.00,,,-99.99,2.0,HOBO +U30 +Weather +,2013-01-04 15:37:00,
2013-01-04 10:38:00,33.1,29.4,29.90,NE,48,0.0,0.0,86,0.00,,,-99.99,2.0,HOBO +U30 +Weather +,2013-01-04 15:38:00,
2013-01-04 10:39:00,33.3,29.4,29.90,NE,48,0.0,0.0,85,0.00,,,-99.99,2.0,HOBO +U30 +Weather +,2013-01-04 15:39:00,
2013-01-04 10:40:00,33.3,29.3,29.89,NE,48,0.0,0.0,85,0.00,,,-99.99,2.0,HOBO +U30 +Weather +,2013-01-04 15:40:00,
2013-01-04 10:41:00,33.4,29.4,29.89,NE,48,0.0,0.0,84,0.00,,,-99.99,2.0,HOBO +U30 +Weather +,2013-01-04 15:41:00,
2013-01-04 10:42:00,33.5,29.5,29.89,NE,48,0.0,0.0,85,0.00,,,-99.99,2.0,HOBO +U30 +Weather +,2013-01-04 15:42:00,
2013-01-04 10:43:00,33.5,29.5,29.89,NE,48,0.0,0.0,84,0.00,,,-99.99,2.0,HOBO +U30 +Weather +,2013-01-04 15:43:00,
2013-01-04 10:44:00,33.7,29.7,29.89,NE,48,0.0,0.0,85,0.00,,,-99.99,2.0,HOBO +U30 +Weather +,2013-01-04 15:44:00,
2013-01-04 10:47:00,33.6,29.5,29.88,NE,48,0.0,0.0,84,0.00,,,-99.99,2.0,HOBO +U30 +Weather +,2013-01-04 15:47:00,
2013-01-04 10:48:00,33.6,29.5,29.89,NE,48,0.0,0.0,84,0.00,,,-99.99,2.0,HOBO +U30 +Weather +,2013-01-04 15:48:00,
2013-01-04 10:49:00,33.6,29.6,29.89,NE,48,0.0,0.0,85,0.00,,,-99.99,2.0,HOBO +U30 +Weather +,2013-01-04 15:49:00,
2013-01-04 10:50:00,33.5,29.4,29.89,NE,48,0.0,0.0,84,0.00,,,-99.99,2.0,HOBO +U30 +Weather +,2013-01-04 15:50:00,
2013-01-04 10:51:00,33.6,29.1,29.88,NE,48,0.0,0.0,83,0.00,,,-99.99,2.0,HOBO +U30 +Weather +,2013-01-04 15:51:00,
2013-01-04 10:52:00,33.6,29.1,29.88,NE,48,0.0,0.0,83,0.00,,,-99.99,2.0,HOBO +U30 +Weather +,2013-01-04 15:52:00,
2013-01-04 10:53:00,33.6,29.1,29.88,NE,48,0.0,0.0,83,0.00,,,-99.99,2.0,HOBO +U30 +Weather +,2013-01-04 15:53:00,
2013-01-04 10:54:00,33.6,29.3,29.88,NE,48,0.0,0.0,84,0.00,,,-99.99,2.0,HOBO +U30 +Weather +,2013-01-04 15:54:00,
2013-01-04 10:57:00,33.6,29.2,29.88,NE,48,0.0,0.0,83,0.00,,,-99.99,2.0,HOBO +U30 +Weather +,2013-01-04 15:57:00,
2013-01-04 10:58:00,33.7,29.2,29.88,NE,48,0.0,0.0,83,0.00,,,-99.99,2.0,HOBO +U30 +Weather +,2013-01-04 15:58:00,
2013-01-04 10:59:00,33.8,29.2,29.88,NE,48,0.0,0.0,83,0.00,,,-99.99,2.0,HOBO +U30 +Weather +,2013-01-04 15:59:00,
2013-01-04 11:00:00,33.7,29.2,29.89,NE,48,0.0,0.0,83,0.00,,,-99.99,2.0,HOBO +U30 +Weather +,2013-01-04 16:00:00,
2013-01-04 11:01:00,33.7,29.3,29.89,NE,48,0.0,0.0,83,0.00,,,-99.99,2.0,HOBO +U30 +Weather +,2013-01-04 16:01:00,
2013-01-04 11:02:00,33.8,29.3,29.88,NE,48,0.0,0.0,83,0.00,,,-99.99,2.0,HOBO +U30 +Weather +,2013-01-04 16:02:00,
2013-01-04 11:03:00,33.7,29.2,29.89,NE,48,0.0,0.0,83,0.00,,,-99.99,2.0,HOBO +U30 +Weather +,2013-01-04 16:03:00,
2013-01-04 11:04:00,33.6,29.0,29.88,NE,48,0.0,0.0,83,0.00,,,-99.99,2.0,HOBO +U30 +Weather +,2013-01-04 16:04:00,
2013-01-04 11:05:00,33.5,29.2,29.89,NE,48,0.0,0.0,83,0.00,,,-99.99,2.0,HOBO +U30 +Weather +,2013-01-04 16:05:00,
2013-01-04 11:06:00,33.6,29.2,29.88,NE,48,0.0,0.0,83,0.00,,,-99.99,2.0,HOBO +U30 +Weather +,2013-01-04 16:06:00,
2013-01-04 11:07:00,33.7,29.2,29.88,NE,48,0.0,0.0,83,0.00,,,-99.99,2.0,HOBO +U30 +Weather +,2013-01-04 16:07:00,
2013-01-04 11:08:00,33.7,29.4,29.88,NE,48,0.0,0.0,83,0.00,,,-99.99,2.0,HOBO +U30 +Weather +,2013-01-04 16:08:00,
2013-01-04 11:09:00,33.7,29.3,29.88,NE,48,0.0,0.0,83,0.00,,,-99.99,2.0,HOBO +U30 +Weather +,2013-01-04 16:09:00,
2013-01-04 11:10:00,33.8,29.3,29.87,NE,48,0.0,0.0,83,0.00,,,-99.99,2.0,HOBO +U30 +Weather +,2013-01-04 16:10:00,
2013-01-04 11:11:00,33.9,29.4,29.88,NE,48,0.0,0.0,83,0.00,,,-99.99,2.0,HOBO +U30 +Weather +,2013-01-04 16:11:00,
2013-01-04 11:12:00,33.9,29.3,29.87,NE,48,0.0,0.0,83,0.00,,,-99.99,2.0,HOBO +U30 +Weather +,2013-01-04 16:12:00,
2013-01-04 11:13:00,33.8,29.0,29.88,NE,48,0.0,0.0,82,0.00,,,-99.99,2.0,HOBO +U30 +Weather +,2013-01-04 16:13:00,
2013-01-04 11:14:00,33.7,29.0,29.87,NE,48,0.0,0.0,82,0.00,,,-99.99,2.0,HOBO +U30 +Weather +,2013-01-04 16:14:00,
2013-01-04 11:15:00,33.8,28.8,29.87,NE,48,0.0,0.0,81,0.00,,,-99.99,2.0,HOBO +U30 +Weather +,2013-01-04 16:15:00,
2013-01-04 11:16:00,33.9,29.1,29.87,NE,48,0.0,0.0,82,0.00,,,-99.99,2.0,HOBO +U30 +Weather +,2013-01-04 16:16:00,
2013-01-04 11:17:00,33.8,29.2,29.87,NE,48,0.0,0.0,83,0.00,,,-99.99,2.0,HOBO +U30 +Weather +,2013-01-04 16:17:00,
2013-01-04 11:18:00,33.7,29.2,29.87,NE,48,0.0,0.0,83,0.00,,,-99.99,2.0,HOBO +U30 +Weather +,2013-01-04 16:18:00,
2013-01-04 11:19:00,33.5,28.9,29.87,NE,48,0.0,0.0,82,0.00,,,-99.99,2.0,HOBO +U30 +Weather +,2013-01-04 16:19:00,
2013-01-04 11:20:00,33.4,28.9,29.87,NE,48,0.0,0.0,83,0.00,,,-99.99,2.0,HOBO +U30 +Weather +,2013-01-04 16:20:00,
2013-01-04 11:21:00,33.3,28.9,29.87,NE,48,0.0,0.0,83,0.00,,,-99.99,2.0,HOBO +U30 +Weather +,2013-01-04 16:21:00,
2013-01-04 11:22:00,33.3,29.0,29.87,NE,48,0.0,0.0,84,0.00,,,-99.99,2.0,HOBO +U30 +Weather +,2013-01-04 16:22:00,
2013-01-04 11:23:00,33.4,29.1,29.87,NE,48,0.0,0.0,84,0.00,,,-99.99,2.0,HOBO +U30 +Weather +,2013-01-04 16:23:00,
2013-01-04 11:24:00,33.5,29.1,29.87,NE,48,0.0,0.0,83,0.00,,,-99.99,2.0,HOBO +U30 +Weather +,2013-01-04 16:24:00,
2013-01-04 11:25:00,33.7,29.3,29.87,NE,48,0.0,0.0,83,0.00,,,-99.99,2.0,HOBO +U30 +Weather +,2013-01-04 16:25:00,
2013-01-04 11:26:00,33.6,29.2,29.87,NE,48,0.0,0.0,83,0.00,,,-99.99,2.0,HOBO +U30 +Weather +,2013-01-04 16:26:00,
2013-01-04 11:27:00,33.7,29.4,29.87,NE,48,0.0,0.0,84,0.00,,,-99.99,2.0,HOBO +U30 +Weather +,2013-01-04 16:27:00,
2013-01-04 11:28:00,33.6,29.3,29.87,NE,48,0.0,0.0,84,0.00,,,-99.99,2.0,HOBO +U30 +Weather +,2013-01-04 16:28:00,
2013-01-04 11:29:00,33.7,29.4,29.87,NE,48,0.0,0.0,84,0.00,,,-99.99,2.0,HOBO +U30 +Weather +,2013-01-04 16:29:00,
2013-01-04 11:30:00,33.7,29.5,29.86,NE,48,0.0,0.0,84,0.00,,,-99.99,2.0,HOBO +U30 +Weather +,2013-01-04 16:30:00,
2013-01-04 11:31:00,33.9,29.6,29.87,NE,48,0.0,0.0,84,0.00,,,-99.99,2.0,HOBO +U30 +Weather +,2013-01-04 16:31:00,
2013-01-04 11:32:00,33.9,29.4,29.86,NE,48,0.0,0.0,83,0.00,,,-99.99,2.0,HOBO +U30 +Weather +,2013-01-04 16:32:00,
2013-01-04 11:33:00,33.7,29.2,29.86,NE,48,0.0,0.0,83,0.00,,,-99.99,2.0,HOBO +U30 +Weather +,2013-01-04 16:33:00,
2013-01-04 11:34:00,33.7,29.2,29.86,NE,48,0.0,0.0,83,0.00,,,-99.99,2.0,HOBO +U30 +Weather +,2013-01-04 16:34:00,
2013-01-04 11:35:00,33.7,29.3,29.86,NE,48,0.0,0.0,83,0.00,,,-99.99,2.0,HOBO +U30 +Weather +,2013-01-04 16:35:00,
2013-01-04 11:36:00,33.6,29.3,29.85,NE,48,0.0,0.0,84,0.00,,,-99.99,2.0,HOBO +U30 +Weather +,2013-01-04 16:36:00,
2013-01-04 11:37:00,33.5,29.0,29.85,NE,48,0.0,0.0,83,0.00,,,-99.99,2.0,HOBO +U30 +Weather +,2013-01-04 16:37:00,
2013-01-04 11:38:00,33.5,29.1,29.85,NE,48,0.0,0.0,83,0.00,,,-99.99,2.0,HOBO +U30 +Weather +,2013-01-04 16:38:00,
2013-01-04 11:39:00,33.5,29.0,29.85,NE,48,0.0,0.0,83,0.00,,,-99.99,2.0,HOBO +U30 +Weather +,2013-01-04 16:39:00,
2013-01-04 11:40:00,33.5,29.0,29.85,NE,48,0.0,0.0,83,0.00,,,-99.99,2.0,HOBO +U30 +Weather +,2013-01-04 16:40:00,
2013-01-04 11:41:00,33.4,29.0,29.85,NE,48,0.0,0.0,83,0.00,,,-99.99,2.0,HOBO +U30 +Weather +,2013-01-04 16:41:00,
2013-01-04 11:42:00,33.6,29.2,29.85,NE,48,0.0,0.0,83,0.00,,,-99.99,2.0,HOBO +U30 +Weather +,2013-01-04 16:42:00,
2013-01-04 11:43:00,33.6,29.1,29.85,NE,48,0.0,0.0,83,0.00,,,-99.99,2.0,HOBO +U30 +Weather +,2013-01-04 16:43:00,
2013-01-04 11:44:00,33.7,29.3,29.85,NE,48,0.0,0.0,83,0.00,,,-99.99,2.0,HOBO +U30 +Weather +,2013-01-04 16:44:00,
2013-01-04 11:45:00,33.6,29.3,29.85,NE,48,0.0,0.0,83,0.00,,,-99.99,2.0,HOBO +U30 +Weather +,2013-01-04 16:45:00,
2013-01-04 11:46:00,33.8,29.4,29.85,NE,48,0.0,0.0,83,0.00,,,-99.99,2.0,HOBO +U30 +Weather +,2013-01-04 16:46:00,
2013-01-04 11:47:00,34.0,29.3,29.85,NE,48,0.0,0.0,82,0.00,,,-99.99,2.0,HOBO +U30 +Weather +,2013-01-04 16:47:00,
2013-01-04 11:48:00,34.1,29.4,29.85,NE,48,0.0,0.0,82,0.00,,,-99.99,2.0,HOBO +U30 +Weather +,2013-01-04 16:48:00,
2013-01-04 11:49:00,34.2,29.5,29.85,NE,48,0.0,0.0,82,0.00,,,-99.99,2.0,HOBO +U30 +Weather +,2013-01-04 16:49:00,
2013-01-04 11:50:00,34.3,29.4,29.85,NE,48,0.0,0.0,82,0.00,,,-99.99,2.0,HOBO +U30 +Weather +,2013-01-04 16:50:00,
2013-01-04 11:51:00,34.3,29.4,29.85,NE,48,0.0,0.0,82,0.00,,,-99.99,2.0,HOBO +U30 +Weather +,2013-01-04 16:51:00,
2013-01-04 11:52:00,34.2,29.4,29.85,NE,48,0.0,0.0,82,0.00,,,-99.99,2.0,HOBO +U30 +Weather +,2013-01-04 16:52:00,
2013-01-04 11:53:00,34.2,29.2,29.85,NE,48,0.0,0.0,81,0.00,,,-99.99,2.0,HOBO +U30 +Weather +,2013-01-04 16:53:00,
2013-01-04 11:54:00,34.2,29.0,29.85,NE,48,0.0,0.0,81,0.00,,,-99.99,2.0,HOBO +U30 +Weather +,2013-01-04 16:54:00,
2013-01-04 11:55:00,34.0,28.7,29.85,NE,48,0.0,0.0,80,0.00,,,-99.99,2.0,HOBO +U30 +Weather +,2013-01-04 16:55:00,
2013-01-04 11:56:00,34.1,28.9,29.85,NE,48,0.0,0.0,81,0.00,,,-99.99,2.0,HOBO +U30 +Weather +,2013-01-04 16:56:00,
2013-01-04 11:57:00,34.0,29.1,29.84,NE,48,0.0,0.0,81,0.00,,,-99.99,2.0,HOBO +U30 +Weather +,2013-01-04 16:57:00,
2013-01-04 11:58:00,34.0,29.3,29.85,NE,48,0.0,0.0,82,0.00,,,-99.99,2.0,HOBO +U30 +Weather +,2013-01-04 16:58:00,
2013-01-04 11:59:00,34.1,29.4,29.84,NE,48,0.0,0.0,82,0.00,,,-99.99,2.0,HOBO +U30 +Weather +,2013-01-04 16:59:00,
2013-01-04 12:00:00,34.1,29.5,29.85,NE,48,0.0,0.0,83,0.00,,,-99.99,2.0,HOBO +U30 +Weather +,2013-01-04 17:00:00,
2013-01-04 12:01:00,34.2,29.4,29.84,NE,48,0.0,0.0,82,0.00,,,-99.99,2.0,HOBO +U30 +Weather +,2013-01-04 17:01:00,
2013-01-04 12:02:00,34.2,29.4,29.85,NE,48,0.0,0.0,82,0.00,,,-99.99,2.0,HOBO +U30 +Weather +,2013-01-04 17:02:00,
2013-01-04 12:03:00,34.2,29.3,29.85,NE,48,0.0,0.0,81,0.00,,,-99.99,2.0,HOBO +U30 +Weather +,2013-01-04 17:03:00,
2013-01-04 12:04:00,34.2,29.2,29.84,NE,48,0.0,0.0,81,0.00,,,-99.99,2.0,HOBO +U30 +Weather +,2013-01-04 17:04:00,
2013-01-04 12:05:00,34.1,29.0,29.84,NE,48,0.0,0.0,81,0.00,,,-99.99,2.0,HOBO +U30 +Weather +,2013-01-04 17:05:00,
2013-01-04 12:06:00,34.1,29.1,29.84,NE,48,0.0,0.0,81,0.00,,,-99.99,2.0,HOBO +U30 +Weather +,2013-01-04 17:06:00,
2013-01-04 12:07:00,34.0,29.1,29.84,NE,48,0.0,0.0,82,0.00,,,-99.99,2.0,HOBO +U30 +Weather +,2013-01-04 17:07:00,
2013-01-04 12:12:00,34.2,29.3,29.83,NE,48,0.0,0.0,82,0.00,,,-99.99,3.0,HOBO +U30 +Weather +,2013-01-04 17:12:00,
2013-01-04 12:17:00,34.2,29.2,29.83,NE,48,0.0,0.0,81,0.00,,,-99.99,3.0,HOBO +U30 +Weather +,2013-01-04 17:17:00,
2013-01-04 12:18:00,34.1,29.2,29.83,NE,48,0.0,0.0,82,0.00,,,-99.99,3.0,HOBO +U30 +Weather +,2013-01-04 17:18:00,
2013-01-04 12:19:00,34.2,29.4,29.83,NE,48,0.0,0.0,82,0.00,,,-99.99,3.0,HOBO +U30 +Weather +,2013-01-04 17:19:00,
2013-01-04 12:20:00,34.2,29.4,29.83,NE,48,0.0,0.0,82,0.00,,,-99.99,3.0,HOBO +U30 +Weather +,2013-01-04 17:20:00,
2013-01-04 12:21:00,34.2,29.5,29.83,NE,48,0.0,0.0,82,0.00,,,-99.99,3.0,HOBO +U30 +Weather +,2013-01-04 17:21:00,
2013-01-04 12:22:00,34.2,29.6,29.83,NE,48,0.0,0.0,83,0.00,,,-99.99,3.0,HOBO +U30 +Weather +,2013-01-04 17:22:00,
2013-01-04 12:23:00,34.2,29.6,29.83,NE,48,0.0,0.0,83,0.00,,,-99.99,3.0,HOBO +U30 +Weather +,2013-01-04 17:23:00,
2013-01-04 12:24:00,34.1,29.1,29.83,NE,48,0.0,0.0,81,0.00,,,-99.99,3.0,HOBO +U30 +Weather +,2013-01-04 17:24:00,
2013-01-04 12:25:00,34.0,29.0,29.82,NE,48,0.0,0.0,81,0.00,,,-99.99,3.0,HOBO +U30 +Weather +,2013-01-04 17:25:00,
2013-01-04 12:26:00,33.9,29.2,29.82,NE,48,0.0,0.0,82,0.00,,,-99.99,3.0,HOBO +U30 +Weather +,2013-01-04 17:26:00,
2013-01-04 12:27:00,33.9,29.1,29.83,NE,48,0.0,0.0,82,0.00,,,-99.99,3.0,HOBO +U30 +Weather +,2013-01-04 17:27:00,
2013-01-04 12:28:00,34.0,29.2,29.82,NE,48,0.0,0.0,82,0.00,,,-99.99,3.0,HOBO +U30 +Weather +,2013-01-04 17:28:00,
2013-01-04 12:29:00,33.9,29.0,29.82,NE,48,0.0,0.0,82,0.00,,,-99.99,3.0,HOBO +U30 +Weather +,2013-01-04 17:29:00,
2013-01-04 12:30:00,33.9,29.2,29.82,NE,48,0.0,0.0,82,0.00,,,-99.99,3.0,HOBO +U30 +Weather +,2013-01-04 17:30:00,
2013-01-04 12:31:00,34.1,29.2,29.82,NE,48,0.0,0.0,82,0.00,,,-99.99,3.0,HOBO +U30 +Weather +,2013-01-04 17:31:00,
2013-01-04 12:32:00,34.1,29.4,29.82,NE,48,0.0,0.0,82,0.00,,,-99.99,3.0,HOBO +U30 +Weather +,2013-01-04 17:32:00,
2013-01-04 12:33:00,34.2,29.4,29.82,NE,48,0.0,0.0,82,0.00,,,-99.99,3.0,HOBO +U30 +Weather +,2013-01-04 17:33:00,
2013-01-04 12:34:00,34.2,29.4,29.82,NE,48,0.0,0.0,82,0.00,,,-99.99,3.0,HOBO +U30 +Weather +,2013-01-04 17:34:00,
2013-01-04 12:35:00,34.2,29.2,29.82,NE,48,0.0,0.0,81,0.00,,,-99.99,3.0,HOBO +U30 +Weather +,2013-01-04 17:35:00,
2013-01-04 12:36:00,34.2,29.0,29.81,NE,48,0.0,0.0,81,0.00,,,-99.99,3.0,HOBO +U30 +Weather +,2013-01-04 17:36:00,
2013-01-04 12:37:00,34.1,28.9,29.82,NE,48,0.0,0.0,81,0.00,,,-99.99,3.0,HOBO +U30 +Weather +,2013-01-04 17:37:00,
2013-01-04 12:38:00,34.1,28.9,29.81,NE,48,0.0,0.0,80,0.00,,,-99.99,3.0,HOBO +U30 +Weather +,2013-01-04 17:38:00,
2013-01-04 12:39:00,34.2,29.1,29.81,NE,48,0.0,0.0,81,0.00,,,-99.99,3.0,HOBO +U30 +Weather +,2013-01-04 17:39:00,
2013-01-04 12:40:00,34.3,29.1,29.81,NE,48,0.0,0.0,81,0.00,,,-99.99,3.0,HOBO +U30 +Weather +,2013-01-04 17:40:00,
2013-01-04 12:41:00,34.3,29.1,29.81,NE,48,0.0,0.0,81,0.00,,,-99.99,3.0,HOBO +U30 +Weather +,2013-01-04 17:41:00,
2013-01-04 12:42:00,34.4,29.2,29.81,NE,48,0.0,0.0,81,0.00,,,-99.99,3.0,HOBO +U30 +Weather +,2013-01-04 17:42:00,
2013-01-04 12:43:00,34.4,29.2,29.81,NE,48,0.0,0.0,81,0.00,,,-99.99,3.0,HOBO +U30 +Weather +,2013-01-04 17:43:00,
2013-01-04 12:44:00,34.3,29.5,29.81,NE,48,0.0,0.0,82,0.00,,,-99.99,3.0,HOBO +U30 +Weather +,2013-01-04 17:44:00,
2013-01-04 12:45:00,34.2,29.2,29.81,NE,48,0.0,0.0,81,0.00,,,-99.99,3.0,HOBO +U30 +Weather +,2013-01-04 17:45:00,
2013-01-04 12:46:00,34.2,29.4,29.81,NE,48,0.0,0.0,82,0.00,,,-99.99,3.0,HOBO +U30 +Weather +,2013-01-04 17:46:00,
2013-01-04 12:47:00,34.2,29.5,29.81,NE,48,0.0,0.0,82,0.00,,,-99.99,3.0,HOBO +U30 +Weather +,2013-01-04 17:47:00,
2013-01-04 12:52:00,34.3,29.8,29.81,NE,48,0.0,0.0,83,0.00,,,-99.99,3.0,HOBO +U30 +Weather +,2013-01-04 17:52:00,
2013-01-04 12:57:00,34.3,29.9,29.81,NE,48,0.0,0.0,83,0.00,,,-99.99,3.0,HOBO +U30 +Weather +,2013-01-04 17:57:00,
2013-01-04 13:00:00,34.3,29.9,29.80,NE,48,0.0,0.0,83,0.00,,,-99.99,3.0,HOBO +U30 +Weather +,2013-01-04 18:00:00,
2013-01-04 13:03:00,34.2,29.4,29.80,NE,48,0.0,0.0,82,0.00,,,-99.99,3.0,HOBO +U30 +Weather +,2013-01-04 18:03:00,
2013-01-04 13:07:00,34.2,29.6,29.80,NE,48,0.0,0.0,82,0.00,,,-99.99,3.0,HOBO +U30 +Weather +,2013-01-04 18:07:00,
2013-01-04 13:08:00,34.2,29.7,29.80,NE,48,0.0,0.0,83,0.00,,,-99.99,3.0,HOBO +U30 +Weather +,2013-01-04 18:08:00,
2013-01-04 13:09:00,34.1,29.4,29.80,NE,48,0.0,0.0,82,0.00,,,-99.99,3.0,HOBO +U30 +Weather +,2013-01-04 18:09:00,
2013-01-04 13:10:00,33.9,29.5,29.80,NE,48,0.0,0.0,83,0.00,,,-99.99,3.0,HOBO +U30 +Weather +,2013-01-04 18:10:00,
2013-01-04 13:11:00,33.9,29.2,29.80,NE,48,0.0,0.0,82,0.00,,,-99.99,3.0,HOBO +U30 +Weather +,2013-01-04 18:11:00,
2013-01-04 13:12:00,34.0,29.4,29.80,NE,48,0.0,0.0,83,0.00,,,-99.99,3.0,HOBO +U30 +Weather +,2013-01-04 18:12:00,
2013-01-04 13:13:00,34.1,29.4,29.80,NE,48,0.0,0.0,82,0.00,,,-99.99,3.0,HOBO +U30 +Weather +,2013-01-04 18:13:00,
2013-01-04 13:14:00,34.1,29.4,29.80,NE,48,0.0,0.0,82,0.00,,,-99.99,3.0,HOBO +U30 +Weather +,2013-01-04 18:14:00,
2013-01-04 13:15:00,34.0,29.2,29.80,NE,48,0.0,0.0,82,0.00,,,-99.99,3.0,HOBO +U30 +Weather +,2013-01-04 18:15:00,
2013-01-04 13:16:00,34.0,29.5,29.80,NE,48,0.0,0.0,83,0.00,,,-99.99,3.0,HOBO +U30 +Weather +,2013-01-04 18:16:00,
2013-01-04 13:17:00,33.9,29.5,29.80,NE,48,0.0,0.0,83,0.00,,,-99.99,3.0,HOBO +U30 +Weather +,2013-01-04 18:17:00,
2013-01-04 13:18:00,34.0,29.6,29.80,NE,48,0.0,0.0,83,0.00,,,-99.99,3.0,HOBO +U30 +Weather +,2013-01-04 18:18:00,
2013-01-04 13:19:00,34.2,29.5,29.80,NE,48,0.0,0.0,82,0.00,,,-99.99,3.0,HOBO +U30 +Weather +,2013-01-04 18:19:00,
2013-01-04 13:20:00,34.2,29.5,29.80,NE,48,0.0,0.0,82,0.00,,,-99.99,3.0,HOBO +U30 +Weather +,2013-01-04 18:20:00,
2013-01-04 13:21:00,34.1,29.4,29.80,NE,48,0.0,0.0,82,0.00,,,-99.99,3.0,HOBO +U30 +Weather +,2013-01-04 18:21:00,
2013-01-04 13:22:00,34.2,29.4,29.79,NE,48,0.0,0.0,82,0.00,,,-99.99,3.0,HOBO +U30 +Weather +,2013-01-04 18:22:00,
2013-01-04 13:23:00,34.1,29.4,29.79,NE,48,0.0,0.0,82,0.00,,,-99.99,3.0,HOBO +U30 +Weather +,2013-01-04 18:23:00,
2013-01-04 13:24:00,34.1,29.5,29.79,NE,48,0.0,0.0,83,0.00,,,-99.99,3.0,HOBO +U30 +Weather +,2013-01-04 18:24:00,
2013-01-04 13:25:00,33.9,29.3,29.79,NE,48,0.0,0.0,83,0.00,,,-99.99,3.0,HOBO +U30 +Weather +,2013-01-04 18:25:00,
2013-01-04 13:26:00,33.8,29.3,29.79,NE,48,0.0,0.0,83,0.00,,,-99.99,3.0,HOBO +U30 +Weather +,2013-01-04 18:26:00,
2013-01-04 13:27:00,33.9,29.4,29.79,NE,48,0.0,0.0,83,0.00,,,-99.99,3.0,HOBO +U30 +Weather +,2013-01-04 18:27:00,
2013-01-04 13:28:00,33.9,29.5,29.79,NE,48,0.0,0.0,83,0.00,,,-99.99,3.0,HOBO +U30 +Weather +,2013-01-04 18:28:00,
2013-01-04 13:29:00,34.0,29.9,29.78,NE,48,0.0,0.0,84,0.00,,,-99.99,3.0,HOBO +U30 +Weather +,2013-01-04 18:29:00,
2013-01-04 13:30:00,34.1,29.9,29.78,NE,48,0.0,0.0,84,0.00,,,-99.99,3.0,HOBO +U30 +Weather +,2013-01-04 18:30:00,
2013-01-04 13:31:00,34.2,29.8,29.78,NE,48,0.0,0.0,83,0.00,,,-99.99,3.0,HOBO +U30 +Weather +,2013-01-04 18:31:00,
2013-01-04 13:32:00,34.4,29.8,29.78,NE,48,0.0,0.0,83,0.00,,,-99.99,3.0,HOBO +U30 +Weather +,2013-01-04 18:32:00,
2013-01-04 13:33:00,34.4,29.8,29.78,NE,48,0.0,0.0,83,0.00,,,-99.99,3.0,HOBO +U30 +Weather +,2013-01-04 18:33:00,
2013-01-04 13:34:00,34.4,29.8,29.78,NE,48,0.0,0.0,83,0.00,,,-99.99,3.0,HOBO +U30 +Weather +,2013-01-04 18:34:00,
2013-01-04 13:35:00,34.3,29.7,29.78,NE,48,0.0,0.0,83,0.00,,,-99.99,3.0,HOBO +U30 +Weather +,2013-01-04 18:35:00,
2013-01-04 13:36:00,34.3,29.6,29.78,NE,48,0.0,0.0,82,0.00,,,-99.99,3.0,HOBO +U30 +Weather +,2013-01-04 18:36:00,
2013-01-04 13:37:00,34.3,29.6,29.78,NE,48,0.0,0.0,83,0.00,,,-99.99,3.0,HOBO +U30 +Weather +,2013-01-04 18:37:00,
2013-01-04 13:38:00,34.3,29.6,29.78,NE,48,0.0,0.0,82,0.00,,,-99.99,3.0,HOBO +U30 +Weather +,2013-01-04 18:38:00,
2013-01-04 13:39:00,34.3,29.6,29.78,NE,48,0.0,0.0,82,0.00,,,-99.99,3.0,HOBO +U30 +Weather +,2013-01-04 18:39:00,
2013-01-04 13:40:00,34.3,29.7,29.78,NE,48,0.0,0.0,83,0.00,,,-99.99,3.0,HOBO +U30 +Weather +,2013-01-04 18:40:00,
2013-01-04 13:41:00,34.2,29.7,29.78,NE,48,0.0,0.0,83,0.00,,,-99.99,3.0,HOBO +U30 +Weather +,2013-01-04 18:41:00,
2013-01-04 13:42:00,34.3,29.7,29.78,NE,48,0.0,0.0,83,0.00,,,-99.99,3.0,HOBO +U30 +Weather +,2013-01-04 18:42:00,
2013-01-04 13:43:00,34.3,29.9,29.78,NE,48,0.0,0.0,83,0.00,,,-99.99,3.0,HOBO +U30 +Weather +,2013-01-04 18:43:00,
2013-01-04 13:44:00,34.2,29.8,29.78,NE,48,0.0,0.0,83,0.00,,,-99.99,3.0,HOBO +U30 +Weather +,2013-01-04 18:44:00,
2013-01-04 13:45:00,34.2,29.9,29.78,NE,48,0.0,0.0,83,0.00,,,-99.99,3.0,HOBO +U30 +Weather +,2013-01-04 18:45:00,
2013-01-04 13:46:00,34.3,30.0,29.78,NE,48,0.0,0.0,84,0.00,,,-99.99,3.0,HOBO +U30 +Weather +,2013-01-04 18:46:00,
2013-01-04 13:47:00,34.4,30.1,29.78,NE,48,0.0,0.0,84,0.00,,,-99.99,3.0,HOBO +U30 +Weather +,2013-01-04 18:47:00,
2013-01-04 13:48:00,34.4,30.1,29.78,NE,48,0.0,0.0,84,0.00,,,-99.99,3.0,HOBO +U30 +Weather +,2013-01-04 18:48:00,
2013-01-04 13:49:00,34.4,30.1,29.78,NE,48,0.0,0.0,84,0.00,,,-99.99,3.0,HOBO +U30 +Weather +,2013-01-04 18:49:00,
2013-01-04 13:50:00,34.5,30.1,29.78,NE,48,0.0,0.0,84,0.00,,,-99.99,3.0,HOBO +U30 +Weather +,2013-01-04 18:50:00,
2013-01-04 13:51:00,34.5,30.1,29.78,NE,48,0.0,0.0,83,0.00,,,-99.99,3.0,HOBO +U30 +Weather +,2013-01-04 18:51:00,
2013-01-04 13:52:00,34.4,30.1,29.77,NE,48,0.0,0.0,83,0.00,,,-99.99,3.0,HOBO +U30 +Weather +,2013-01-04 18:52:00,
2013-01-04 13:53:00,34.3,30.0,29.77,NE,48,0.0,0.0,84,0.00,,,-99.99,3.0,HOBO +U30 +Weather +,2013-01-04 18:53:00,
2013-01-04 13:54:00,34.2,30.1,29.78,NE,48,0.0,0.0,84,0.00,,,-99.99,3.0,HOBO +U30 +Weather +,2013-01-04 18:54:00,
2013-01-04 13:55:00,34.3,30.1,29.78,NE,48,0.0,0.0,84,0.00,,,-99.99,3.0,HOBO +U30 +Weather +,2013-01-04 18:55:00,
2013-01-04 13:56:00,34.4,30.1,29.77,NE,48,0.0,0.0,84,0.00,,,-99.99,3.0,HOBO +U30 +Weather +,2013-01-04 18:56:00,
2013-01-04 13:57:00,34.5,30.1,29.77,NE,48,0.0,0.0,83,0.00,,,-99.99,3.0,HOBO +U30 +Weather +,2013-01-04 18:57:00,
2013-01-04 13:58:00,34.4,30.2,29.78,NE,48,0.0,0.0,84,0.00,,,-99.99,3.0,HOBO +U30 +Weather +,2013-01-04 18:58:00,
2013-01-04 13:59:00,34.5,30.4,29.77,NE,48,0.0,0.0,84,0.00,,,-99.99,3.0,HOBO +U30 +Weather +,2013-01-04 18:59:00,
2013-01-04 14:00:00,34.5,30.3,29.77,NE,48,0.0,0.0,84,0.00,,,-99.99,3.0,HOBO +U30 +Weather +,2013-01-04 19:00:00,
2013-01-04 14:01:00,34.4,30.3,29.77,NE,48,0.0,0.0,84,0.00,,,-99.99,3.0,HOBO +U30 +Weather +,2013-01-04 19:01:00,
2013-01-04 14:02:00,34.3,30.2,29.77,NE,48,0.0,0.0,84,0.00,,,-99.99,3.0,HOBO +U30 +Weather +,2013-01-04 19:02:00,
2013-01-04 14:03:00,34.2,30.1,29.78,NE,48,0.0,0.0,84,0.00,,,-99.99,3.0,HOBO +U30 +Weather +,2013-01-04 19:03:00,
2013-01-04 14:04:00,34.2,30.0,29.77,NE,48,0.0,0.0,84,0.00,,,-99.99,3.0,HOBO +U30 +Weather +,2013-01-04 19:04:00,
2013-01-04 14:05:00,34.2,30.0,29.78,NE,48,0.0,0.0,84,0.00,,,-99.99,3.0,HOBO +U30 +Weather +,2013-01-04 19:05:00,
2013-01-04 14:06:00,34.2,30.2,29.78,NE,48,0.0,0.0,85,0.00,,,-99.99,3.0,HOBO +U30 +Weather +,2013-01-04 19:06:00,
2013-01-04 14:07:00,34.2,30.2,29.78,NE,48,0.0,0.0,85,0.00,,,-99.99,3.0,HOBO +U30 +Weather +,2013-01-04 19:07:00,
2013-01-04 14:08:00,34.2,30.2,29.78,NE,48,0.0,0.0,85,0.00,,,-99.99,3.0,HOBO +U30 +Weather +,2013-01-04 19:08:00,
2013-01-04 14:09:00,34.3,30.3,29.78,NE,48,0.0,0.0,85,0.00,,,-99.99,3.0,HOBO +U30 +Weather +,2013-01-04 19:09:00,
2013-01-04 14:10:00,34.3,30.2,29.78,NE,48,0.0,0.0,84,0.00,,,-99.99,3.0,HOBO +U30 +Weather +,2013-01-04 19:10:00,
2013-01-04 14:11:00,34.3,30.2,29.78,NE,48,0.0,0.0,84,0.00,,,-99.99,3.0,HOBO +U30 +Weather +,2013-01-04 19:11:00,
2013-01-04 14:12:00,34.2,30.0,29.78,NE,48,0.0,0.0,84,0.00,,,-99.99,3.0,HOBO +U30 +Weather +,2013-01-04 19:12:00,
2013-01-04 14:13:00,34.3,30.1,29.78,NE,48,0.0,0.0,84,0.00,,,-99.99,3.0,HOBO +U30 +Weather +,2013-01-04 19:13:00,
2013-01-04 14:14:00,34.3,30.0,29.77,NE,48,0.0,0.0,84,0.00,,,-99.99,3.0,HOBO +U30 +Weather +,2013-01-04 19:14:00,
2013-01-04 14:15:00,34.3,30.0,29.78,NE,48,0.0,0.0,84,0.00,,,-99.99,3.0,HOBO +U30 +Weather +,2013-01-04 19:15:00,
2013-01-04 14:16:00,34.4,30.1,29.78,NE,48,0.0,0.0,84,0.00,,,-99.99,3.0,HOBO +U30 +Weather +,2013-01-04 19:16:00,
2013-01-04 14:17:00,34.4,30.2,29.78,NE,48,0.0,0.0,84,0.00,,,-99.99,4.0,HOBO +U30 +Weather +,2013-01-04 19:17:00,
2013-01-04 14:18:00,34.3,30.2,29.78,NE,48,0.0,0.0,84,0.00,,,-99.99,4.0,HOBO +U30 +Weather +,2013-01-04 19:18:00,
2013-01-04 14:19:00,34.3,30.3,29.78,NE,48,0.0,0.0,85,0.00,,,-99.99,6.0,HOBO +U30 +Weather +,2013-01-04 19:19:00,
2013-01-04 14:20:00,34.3,30.2,29.77,NE,48,0.0,0.0,85,0.00,,,-99.99,6.0,HOBO +U30 +Weather +,2013-01-04 19:20:00,
2013-01-04 14:21:00,34.4,30.4,29.78,NE,48,0.0,0.0,85,0.00,,,-99.99,6.0,HOBO +U30 +Weather +,2013-01-04 19:21:00,
2013-01-04 14:22:00,34.4,30.4,29.78,NE,48,0.0,0.0,85,0.00,,,-99.99,6.0,HOBO +U30 +Weather +,2013-01-04 19:22:00,
2013-01-04 14:23:00,34.4,30.3,29.77,NE,48,0.0,0.0,84,0.00,,,-99.99,6.0,HOBO +U30 +Weather +,2013-01-04 19:23:00,
2013-01-04 14:24:00,34.5,30.4,29.78,NE,48,0.0,0.0,85,0.00,,,-99.99,6.0,HOBO +U30 +Weather +,2013-01-04 19:24:00,
2013-01-04 14:25:00,34.5,30.5,29.78,NE,48,0.0,0.0,85,0.00,,,-99.99,6.0,HOBO +U30 +Weather +,2013-01-04 19:25:00,
2013-01-04 14:26:00,34.5,30.5,29.78,NE,48,0.0,0.0,85,0.00,,,-99.99,6.0,HOBO +U30 +Weather +,2013-01-04 19:26:00,
2013-01-04 14:27:00,34.4,30.5,29.78,NE,48,0.0,0.0,85,0.00,,,-99.99,6.0,HOBO +U30 +Weather +,2013-01-04 19:27:00,
2013-01-04 14:28:00,34.5,30.7,29.78,NE,48,0.0,0.0,85,0.00,,,-99.99,6.0,HOBO +U30 +Weather +,2013-01-04 19:28:00,
2013-01-04 14:29:00,34.6,31.0,29.78,NE,48,0.0,0.0,86,0.00,,,-99.99,6.0,HOBO +U30 +Weather +,2013-01-04 19:29:00,
2013-01-04 14:30:00,34.7,31.1,29.78,NE,48,0.0,0.0,86,0.00,,,-99.99,6.0,HOBO +U30 +Weather +,2013-01-04 19:30:00,
2013-01-04 14:31:00,34.9,31.1,29.77,NE,48,0.0,0.0,85,0.00,,,-99.99,6.0,HOBO +U30 +Weather +,2013-01-04 19:31:00,
2013-01-04 14:32:00,34.8,30.9,29.77,NE,48,0.0,0.0,85,0.00,,,-99.99,3.0,HOBO +U30 +Weather +,2013-01-04 19:32:00,
2013-01-04 14:33:00,34.8,30.7,29.77,NE,48,0.0,0.0,85,0.00,,,-99.99,3.0,HOBO +U30 +Weather +,2013-01-04 19:33:00,
2013-01-04 14:34:00,34.6,30.6,29.78,NE,48,0.0,0.0,85,0.00,,,-99.99,3.0,HOBO +U30 +Weather +,2013-01-04 19:34:00,
2013-01-04 14:35:00,34.5,30.5,29.77,NE,48,0.0,0.0,85,0.00,,,-99.99,3.0,HOBO +U30 +Weather +,2013-01-04 19:35:00,
2013-01-04 14:36:00,34.3,30.4,29.77,NE,48,0.0,0.0,85,0.00,,,-99.99,3.0,HOBO +U30 +Weather +,2013-01-04 19:36:00,
2013-01-04 14:37:00,34.1,30.3,29.78,NE,48,0.0,0.0,85,0.00,,,-99.99,3.0,HOBO +U30 +Weather +,2013-01-04 19:37:00,
2013-01-04 14:38:00,34.0,30.2,29.78,NE,48,0.0,0.0,85,0.00,,,-99.99,3.0,HOBO +U30 +Weather +,2013-01-04 19:38:00,
2013-01-04 14:39:00,34.0,30.2,29.78,NE,48,0.0,0.0,85,0.00,,,-99.99,3.0,HOBO +U30 +Weather +,2013-01-04 19:39:00,
2013-01-04 14:40:00,34.0,30.2,29.78,NE,48,0.0,0.0,85,0.00,,,-99.99,2.0,HOBO +U30 +Weather +,2013-01-04 19:40:00,
2013-01-04 14:41:00,33.9,30.1,29.78,NE,48,0.0,0.0,85,0.00,,,-99.99,2.0,HOBO +U30 +Weather +,2013-01-04 19:41:00,
2013-01-04 14:42:00,33.9,30.1,29.78,NE,48,0.0,0.0,85,0.00,,,-99.99,2.0,HOBO +U30 +Weather +,2013-01-04 19:42:00,
2013-01-04 14:43:00,33.8,30.1,29.78,NE,48,0.0,0.0,86,0.00,,,-99.99,2.0,HOBO +U30 +Weather +,2013-01-04 19:43:00,
2013-01-04 14:44:00,33.8,30.0,29.78,NE,48,0.0,0.0,86,0.00,,,-99.99,2.0,HOBO +U30 +Weather +,2013-01-04 19:44:00,
2013-01-04 14:45:00,33.8,30.0,29.78,NE,48,0.0,0.0,86,0.00,,,-99.99,2.0,HOBO +U30 +Weather +,2013-01-04 19:45:00,
2013-01-04 14:46:00,33.7,30.0,29.78,NE,48,0.0,0.0,86,0.00,,,-99.99,2.0,HOBO +U30 +Weather +,2013-01-04 19:46:00,
2013-01-04 14:47:00,33.7,30.1,29.78,NE,48,0.0,0.0,86,0.00,,,-99.99,2.0,HOBO +U30 +Weather +,2013-01-04 19:47:00,
2013-01-04 14:48:00,33.6,30.1,29.78,NE,48,0.0,0.0,86,0.00,,,-99.99,2.0,HOBO +U30 +Weather +,2013-01-04 19:48:00,
2013-01-04 14:49:00,33.6,30.1,29.78,NE,48,0.0,0.0,86,0.00,,,-99.99,2.0,HOBO +U30 +Weather +,2013-01-04 19:49:00,
2013-01-04 14:50:00,33.5,30.1,29.78,NE,48,0.0,0.0,86,0.00,,,-99.99,2.0,HOBO +U30 +Weather +,2013-01-04 19:50:00,
2013-01-04 14:51:00,33.5,30.0,29.78,NE,48,0.0,0.0,86,0.00,,,-99.99,2.0,HOBO +U30 +Weather +,2013-01-04 19:51:00,
2013-01-04 14:52:00,33.5,30.0,29.78,NE,48,0.0,0.0,87,0.00,,,-99.99,2.0,HOBO +U30 +Weather +,2013-01-04 19:52:00,
2013-01-04 14:53:00,33.5,30.0,29.78,NE,48,0.0,0.0,86,0.00,,,-99.99,2.0,HOBO +U30 +Weather +,2013-01-04 19:53:00,
2013-01-04 14:54:00,33.5,30.0,29.78,NE,48,0.0,0.0,86,0.00,,,-99.99,2.0,HOBO +U30 +Weather +,2013-01-04 19:54:00,
2013-01-04 14:55:00,33.5,29.9,29.78,NE,48,0.0,0.0,86,0.00,,,-99.99,2.0,HOBO +U30 +Weather +,2013-01-04 19:55:00,
2013-01-04 14:56:00,33.5,30.0,29.79,NE,48,0.0,0.0,86,0.00,,,-99.99,2.0,HOBO +U30 +Weather +,2013-01-04 19:56:00,
2013-01-04 14:57:00,33.4,30.0,29.79,NE,48,0.0,0.0,86,0.00,,,-99.99,2.0,HOBO +U30 +Weather +,2013-01-04 19:57:00,
2013-01-04 14:58:00,33.4,29.9,29.78,NE,48,0.0,0.0,86,0.00,,,-99.99,2.0,HOBO +U30 +Weather +,2013-01-04 19:58:00,
2013-01-04 14:59:00,33.4,30.0,29.78,NE,48,0.0,0.0,87,0.00,,,-99.99,2.0,HOBO +U30 +Weather +,2013-01-04 19:59:00,
2013-01-04 15:00:00,33.5,29.9,29.79,NE,48,0.0,0.0,86,0.00,,,-99.99,2.0,HOBO +U30 +Weather +,2013-01-04 20:00:00,
2013-01-04 15:01:00,33.5,29.9,29.79,NE,48,0.0,0.0,86,0.00,,,-99.99,2.0,HOBO +U30 +Weather +,2013-01-04 20:01:00,
2013-01-04 15:02:00,33.4,29.8,29.78,NE,48,0.0,0.0,86,0.00,,,-99.99,2.0,HOBO +U30 +Weather +,2013-01-04 20:02:00,
2013-01-04 15:03:00,33.4,29.9,29.79,NE,48,0.0,0.0,86,0.00,,,-99.99,2.0,HOBO +U30 +Weather +,2013-01-04 20:03:00,
2013-01-04 15:04:00,33.4,29.8,29.79,NE,48,0.0,0.0,86,0.00,,,-99.99,2.0,HOBO +U30 +Weather +,2013-01-04 20:04:00,
2013-01-04 15:05:00,33.4,29.8,29.78,NE,48,0.0,0.0,86,0.00,,,-99.99,2.0,HOBO +U30 +Weather +,2013-01-04 20:05:00,
2013-01-04 15:06:00,33.3,29.8,29.79,NE,48,0.0,0.0,86,0.00,,,-99.99,2.0,HOBO +U30 +Weather +,2013-01-04 20:06:00,
2013-01-04 15:07:00,33.3,29.9,29.78,NE,48,0.0,0.0,87,0.00,,,-99.99,2.0,HOBO +U30 +Weather +,2013-01-04 20:07:00,
2013-01-04 15:08:00,33.3,29.8,29.79,NE,48,0.0,0.0,86,0.00,,,-99.99,2.0,HOBO +U30 +Weather +,2013-01-04 20:08:00,
2013-01-04 15:09:00,33.3,29.8,29.79,NE,48,0.0,0.0,86,0.00,,,-99.99,2.0,HOBO +U30 +Weather +,2013-01-04 20:09:00,
2013-01-04 15:10:00,33.3,29.8,29.79,NE,48,0.0,0.0,86,0.00,,,-99.99,2.0,HOBO +U30 +Weather +,2013-01-04 20:10:00,
2013-01-04 15:11:00,33.2,29.8,29.78,NE,48,0.0,0.0,87,0.00,,,-99.99,2.0,HOBO +U30 +Weather +,2013-01-04 20:11:00,
2013-01-04 15:12:00,33.2,29.9,29.78,NE,48,0.0,0.0,87,0.00,,,-99.99,2.0,HOBO +U30 +Weather +,2013-01-04 20:12:00,
2013-01-04 15:13:00,33.2,29.9,29.78,NE,48,0.0,0.0,87,0.00,,,-99.99,2.0,HOBO +U30 +Weather +,2013-01-04 20:13:00,
2013-01-04 15:14:00,33.1,29.9,29.79,NE,48,0.0,0.0,87,0.00,,,-99.99,2.0,HOBO +U30 +Weather +,2013-01-04 20:14:00,
2013-01-04 15:15:00,33.1,29.9,29.79,NE,48,0.0,0.0,87,0.00,,,-99.99,2.0,HOBO +U30 +Weather +,2013-01-04 20:15:00,
2013-01-04 15:17:00,33.2,30.0,29.79,NE,48,0.0,0.0,87,0.00,,,-99.99,2.0,HOBO +U30 +Weather +,2013-01-04 20:17:00,
2013-01-04 15:18:00,33.2,30.0,29.78,NE,48,0.0,0.0,87,0.00,,,-99.99,2.0,HOBO +U30 +Weather +,2013-01-04 20:18:00,
2013-01-04 15:19:00,33.2,30.0,29.78,NE,48,0.0,0.0,87,0.00,,,-99.99,2.0,HOBO +U30 +Weather +,2013-01-04 20:19:00,
2013-01-04 15:20:00,33.2,30.0,29.79,NE,48,0.0,0.0,87,0.00,,,-99.99,2.0,HOBO +U30 +Weather +,2013-01-04 20:20:00,
2013-01-04 15:21:00,33.2,30.0,29.78,NE,48,0.0,0.0,88,0.00,,,-99.99,2.0,HOBO +U30 +Weather +,2013-01-04 20:21:00,
2013-01-04 15:22:00,33.2,30.0,29.79,NE,48,0.0,0.0,87,0.00,,,-99.99,2.0,HOBO +U30 +Weather +,2013-01-04 20:22:00,
2013-01-04 15:23:00,33.2,30.0,29.79,NE,48,0.0,0.0,87,0.00,,,-99.99,2.0,HOBO +U30 +Weather +,2013-01-04 20:23:00,
2013-01-04 15:24:00,33.2,30.0,29.79,NE,48,0.0,0.0,87,0.00,,,-99.99,2.0,HOBO +U30 +Weather +,2013-01-04 20:24:00,
2013-01-04 15:25:00,33.2,30.0,29.79,NE,48,0.0,0.0,87,0.00,,,-99.99,2.0,HOBO +U30 +Weather +,2013-01-04 20:25:00,
2013-01-04 15:26:00,33.2,30.1,29.79,NE,48,0.0,0.0,88,0.00,,,-99.99,2.0,HOBO +U30 +Weather +,2013-01-04 20:26:00,
2013-01-04 15:27:00,33.1,30.0,29.78,NE,48,0.0,0.0,88,0.00,,,-99.99,2.0,HOBO +U30 +Weather +,2013-01-04 20:27:00,
2013-01-04 15:28:00,33.2,30.0,29.78,NE,48,0.0,0.0,88,0.00,,,-99.99,2.0,HOBO +U30 +Weather +,2013-01-04 20:28:00,
2013-01-04 15:29:00,33.1,30.0,29.78,NE,48,0.0,0.0,88,0.00,,,-99.99,1.0,HOBO +U30 +Weather +,2013-01-04 20:29:00,
2013-01-04 15:30:00,33.0,30.0,29.79,NE,48,0.0,0.0,88,0.00,,,-99.99,1.0,HOBO +U30 +Weather +,2013-01-04 20:30:00,
2013-01-04 15:31:00,33.0,30.0,29.78,NE,48,0.0,0.0,88,0.00,,,-99.99,1.0,HOBO +U30 +Weather +,2013-01-04 20:31:00,
2013-01-04 15:32:00,33.0,30.0,29.79,NE,48,0.0,0.0,88,0.00,,,-99.99,1.0,HOBO +U30 +Weather +,2013-01-04 20:32:00,
2013-01-04 15:33:00,33.0,30.0,29.79,NE,48,0.0,0.0,88,0.00,,,-99.99,1.0,HOBO +U30 +Weather +,2013-01-04 20:33:00,
2013-01-04 15:34:00,33.0,30.0,29.78,NE,48,0.0,0.0,88,0.00,,,-99.99,1.0,HOBO +U30 +Weather +,2013-01-04 20:34:00,
2013-01-04 15:35:00,33.0,30.0,29.78,NE,48,0.0,0.0,88,0.00,,,-99.99,1.0,HOBO +U30 +Weather +,2013-01-04 20:35:00,
2013-01-04 15:36:00,33.0,30.0,29.79,NE,48,0.0,0.0,88,0.00,,,-99.99,1.0,HOBO +U30 +Weather +,2013-01-04 20:36:00,
2013-01-04 15:37:00,33.1,30.1,29.78,NE,48,0.0,0.0,88,0.00,,,-99.99,1.0,HOBO +U30 +Weather +,2013-01-04 20:37:00,
2013-01-04 15:38:00,33.1,30.1,29.78,NE,48,0.0,0.0,88,0.00,,,-99.99,1.0,HOBO +U30 +Weather +,2013-01-04 20:38:00,
2013-01-04 15:39:00,33.0,30.0,29.78,NE,48,0.0,0.0,88,0.00,,,-99.99,1.0,HOBO +U30 +Weather +,2013-01-04 20:39:00,
2013-01-04 15:40:00,33.0,30.0,29.78,NE,48,0.0,0.0,88,0.00,,,-99.99,1.0,HOBO +U30 +Weather +,2013-01-04 20:40:00,
2013-01-04 15:41:00,33.0,30.0,29.78,NE,48,0.0,0.0,88,0.00,,,-99.99,1.0,HOBO +U30 +Weather +,2013-01-04 20:41:00,
2013-01-04 15:42:00,33.0,30.0,29.78,NE,48,0.0,0.0,88,0.00,,,-99.99,1.0,HOBO +U30 +Weather +,2013-01-04 20:42:00,
2013-01-04 15:43:00,33.0,30.0,29.78,NE,48,0.0,0.0,88,0.00,,,-99.99,1.0,HOBO +U30 +Weather +,2013-01-04 20:43:00,
2013-01-04 15:44:00,33.0,29.9,29.78,NE,48,0.0,0.0,88,0.00,,,-99.99,1.0,HOBO +U30 +Weather +,2013-01-04 20:44:00,
2013-01-04 15:45:00,33.0,29.9,29.78,NE,48,0.0,0.0,88,0.00,,,-99.99,1.0,HOBO +U30 +Weather +,2013-01-04 20:45:00,
2013-01-04 15:46:00,33.0,29.9,29.78,NE,48,0.0,0.0,88,0.00,,,-99.99,1.0,HOBO +U30 +Weather +,2013-01-04 20:46:00,
2013-01-04 15:47:00,33.0,29.9,29.78,NE,48,0.0,0.0,88,0.00,,,-99.99,1.0,HOBO +U30 +Weather +,2013-01-04 20:47:00,
2013-01-04 15:48:00,33.0,29.9,29.78,NE,48,0.0,0.0,88,0.00,,,-99.99,1.0,HOBO +U30 +Weather +,2013-01-04 20:48:00,
2013-01-04 15:49:00,32.9,29.8,29.78,NE,48,0.0,0.0,88,0.00,,,-99.99,1.0,HOBO +U30 +Weather +,2013-01-04 20:49:00,
2013-01-04 15:50:00,32.9,29.8,29.78,NE,48,0.0,0.0,88,0.00,,,-99.99,1.0,HOBO +U30 +Weather +,2013-01-04 20:50:00,
2013-01-04 15:51:00,32.9,29.8,29.78,NE,48,0.0,0.0,88,0.00,,,-99.99,1.0,HOBO +U30 +Weather +,2013-01-04 20:51:00,
2013-01-04 15:52:00,32.9,29.8,29.78,NE,48,0.0,0.0,88,0.00,,,-99.99,1.0,HOBO +U30 +Weather +,2013-01-04 20:52:00,
2013-01-04 15:53:00,32.9,29.9,29.78,NE,48,0.0,0.0,88,0.00,,,-99.99,1.0,HOBO +U30 +Weather +,2013-01-04 20:53:00,
2013-01-04 15:54:00,32.9,29.9,29.78,NE,48,0.0,0.0,88,0.00,,,-99.99,1.0,HOBO +U30 +Weather +,2013-01-04 20:54:00,
2013-01-04 15:55:00,32.8,29.8,29.78,NE,48,0.0,0.0,88,0.00,,,-99.99,1.0,HOBO +U30 +Weather +,2013-01-04 20:55:00,
2013-01-04 15:56:00,32.8,29.9,29.78,NE,48,0.0,0.0,88,0.00,,,-99.99,1.0,HOBO +U30 +Weather +,2013-01-04 20:56:00,
2013-01-04 15:57:00,32.8,29.9,29.78,NE,48,0.0,0.0,88,0.00,,,-99.99,1.0,HOBO +U30 +Weather +,2013-01-04 20:57:00,
2013-01-04 15:58:00,32.8,29.9,29.78,NE,48,0.0,0.0,89,0.00,,,-99.99,1.0,HOBO +U30 +Weather +,2013-01-04 20:58:00,
2013-01-04 15:59:00,32.8,29.9,29.78,NE,48,0.0,0.0,89,0.00,,,-99.99,1.0,HOBO +U30 +Weather +,2013-01-04 20:59:00,
2013-01-04 16:00:00,32.7,29.9,29.78,NE,48,0.0,0.0,89,0.00,,,-99.99,1.0,HOBO +U30 +Weather +,2013-01-04 21:00:00,
2013-01-04 16:01:00,32.7,29.9,29.78,NE,48,0.0,0.0,89,0.00,,,-99.99,1.0,HOBO +U30 +Weather +,2013-01-04 21:01:00,
2013-01-04 16:02:00,32.8,30.0,29.78,NE,48,0.0,0.0,89,0.00,,,-99.99,1.0,HOBO +U30 +Weather +,2013-01-04 21:02:00,
2013-01-04 16:03:00,32.7,30.0,29.78,NE,48,0.0,0.0,89,0.00,,,-99.99,1.0,HOBO +U30 +Weather +,2013-01-04 21:03:00,
2013-01-04 16:04:00,32.7,30.0,29.78,NE,48,0.0,0.0,89,0.00,,,-99.99,1.0,HOBO +U30 +Weather +,2013-01-04 21:04:00,
2013-01-04 16:05:00,32.8,30.0,29.78,NE,48,0.0,0.0,89,0.00,,,-99.99,1.0,HOBO +U30 +Weather +,2013-01-04 21:05:00,
2013-01-04 16:06:00,32.8,30.0,29.78,NE,48,0.0,0.0,89,0.00,,,-99.99,1.0,HOBO +U30 +Weather +,2013-01-04 21:06:00,
2013-01-04 16:07:00,32.7,30.0,29.78,NE,48,0.0,0.0,89,0.00,,,-99.99,1.0,HOBO +U30 +Weather +,2013-01-04 21:07:00,
2013-01-04 16:08:00,32.7,30.0,29.78,NE,48,0.0,0.0,89,0.00,,,-99.99,1.0,HOBO +U30 +Weather +,2013-01-04 21:08:00,
2013-01-04 16:09:00,32.7,30.0,29.78,NE,48,0.0,0.0,89,0.00,,,-99.99,1.0,HOBO +U30 +Weather +,2013-01-04 21:09:00,
2013-01-04 16:10:00,32.6,30.0,29.78,NE,48,0.0,0.0,89,0.00,,,-99.99,1.0,HOBO +U30 +Weather +,2013-01-04 21:10:00,
2013-01-04 16:11:00,32.6,30.0,29.78,NE,48,0.0,0.0,89,0.00,,,-99.99,1.0,HOBO +U30 +Weather +,2013-01-04 21:11:00,
2013-01-04 16:12:00,32.6,30.0,29.78,NE,48,0.0,0.0,89,0.00,,,-99.99,1.0,HOBO +U30 +Weather +,2013-01-04 21:12:00,
2013-01-04 16:13:00,32.6,30.1,29.78,NE,48,0.0,0.0,90,0.00,,,-99.99,1.0,HOBO +U30 +Weather +,2013-01-04 21:13:00,
2013-01-04 16:14:00,32.6,30.1,29.78,NE,48,0.0,0.0,90,0.00,,,-99.99,1.0,HOBO +U30 +Weather +,2013-01-04 21:14:00,
2013-01-04 16:15:00,32.7,30.1,29.78,NE,48,0.0,0.0,90,0.00,,,-99.99,1.0,HOBO +U30 +Weather +,2013-01-04 21:15:00,
2013-01-04 16:16:00,32.7,30.1,29.78,NE,48,0.0,0.0,89,0.00,,,-99.99,1.0,HOBO +U30 +Weather +,2013-01-04 21:16:00,
2013-01-04 16:17:00,32.7,30.1,29.78,NE,48,0.0,0.0,89,0.00,,,-99.99,1.0,HOBO +U30 +Weather +,2013-01-04 21:17:00,
2013-01-04 16:18:00,32.7,30.1,29.78,NE,48,0.0,0.0,90,0.00,,,-99.99,1.0,HOBO +U30 +Weather +,2013-01-04 21:18:00,
2013-01-04 16:19:00,32.7,30.1,29.78,NE,48,0.0,0.0,90,0.00,,,-99.99,1.0,HOBO +U30 +Weather +,2013-01-04 21:19:00,
2013-01-04 16:20:00,32.8,30.2,29.78,NE,48,0.0,0.0,90,0.00,,,-99.99,1.0,HOBO +U30 +Weather +,2013-01-04 21:20:00,
2013-01-04 16:21:00,32.8,30.2,29.78,NE,48,0.0,0.0,90,0.00,,,-99.99,1.0,HOBO +U30 +Weather +,2013-01-04 21:21:00,
2013-01-04 16:22:00,32.8,30.1,29.77,NE,48,0.0,0.0,89,0.00,,,-99.99,1.0,HOBO +U30 +Weather +,2013-01-04 21:22:00,
2013-01-04 16:23:00,32.7,30.1,29.78,NE,48,0.0,0.0,89,0.00,,,-99.99,1.0,HOBO +U30 +Weather +,2013-01-04 21:23:00,
2013-01-04 16:24:00,32.7,30.1,29.78,NE,48,0.0,0.0,90,0.00,,,-99.99,1.0,HOBO +U30 +Weather +,2013-01-04 21:24:00,
2013-01-04 16:25:00,32.6,30.1,29.78,NE,48,0.0,0.0,90,0.00,,,-99.99,1.0,HOBO +U30 +Weather +,2013-01-04 21:25:00,
2013-01-04 16:26:00,32.6,30.1,29.78,NE,48,0.0,0.0,90,0.00,,,-99.99,1.0,HOBO +U30 +Weather +,2013-01-04 21:26:00,
2013-01-04 16:27:00,32.6,30.1,29.77,NE,48,0.0,0.0,90,0.00,,,-99.99,1.0,HOBO +U30 +Weather +,2013-01-04 21:27:00,
2013-01-04 16:28:00,32.6,30.1,29.78,NE,48,0.0,0.0,90,0.00,,,-99.99,1.0,HOBO +U30 +Weather +,2013-01-04 21:28:00,
2013-01-04 16:29:00,32.6,30.0,29.77,NE,48,0.0,0.0,90,0.00,,,-99.99,1.0,HOBO +U30 +Weather +,2013-01-04 21:29:00,
2013-01-04 16:30:00,32.6,30.1,29.77,NE,48,0.0,0.0,90,0.00,,,-99.99,1.0,HOBO +U30 +Weather +,2013-01-04 21:30:00,
2013-01-04 16:31:00,32.6,30.1,29.78,NE,48,0.0,0.0,90,0.00,,,-99.99,1.0,HOBO +U30 +Weather +,2013-01-04 21:31:00,
2013-01-04 16:32:00,32.6,30.1,29.77,NE,48,0.0,0.0,90,0.00,,,-99.99,1.0,HOBO +U30 +Weather +,2013-01-04 21:32:00,
2013-01-04 16:33:00,32.6,30.1,29.78,NE,48,0.0,0.0,90,0.00,,,-99.99,1.0,HOBO +U30 +Weather +,2013-01-04 21:33:00,
2013-01-04 16:34:00,32.6,30.1,29.78,NE,48,0.0,0.0,90,0.00,,,-99.99,1.0,HOBO +U30 +Weather +,2013-01-04 21:34:00,
2013-01-04 16:35:00,32.5,30.0,29.77,NE,48,0.0,0.0,90,0.00,,,-99.99,1.0,HOBO +U30 +Weather +,2013-01-04 21:35:00,
2013-01-04 16:36:00,32.5,30.0,29.78,NE,48,0.0,0.0,90,0.00,,,-99.99,1.0,HOBO +U30 +Weather +,2013-01-04 21:36:00,
2013-01-04 16:37:00,32.5,30.0,29.78,NE,48,0.0,0.0,90,0.00,,,-99.99,1.0,HOBO +U30 +Weather +,2013-01-04 21:37:00,
2013-01-04 16:38:00,32.5,30.0,29.77,NE,48,0.0,0.0,90,0.00,,,-99.99,1.0,HOBO +U30 +Weather +,2013-01-04 21:38:00,
2013-01-04 16:39:00,32.5,30.0,29.77,NE,48,0.0,0.0,90,0.00,,,-99.99,1.0,HOBO +U30 +Weather +,2013-01-04 21:39:00,
2013-01-04 16:40:00,32.5,29.9,29.78,NE,48,0.0,0.0,90,0.00,,,-99.99,1.0,HOBO +U30 +Weather +,2013-01-04 21:40:00,
2013-01-04 16:41:00,32.5,29.9,29.78,NE,48,0.0,0.0,90,0.00,,,-99.99,1.0,HOBO +U30 +Weather +,2013-01-04 21:41:00,
2013-01-04 16:42:00,32.5,29.9,29.78,NE,48,0.0,0.0,90,0.00,,,-99.99,1.0,HOBO +U30 +Weather +,2013-01-04 21:42:00,
2013-01-04 16:43:00,32.5,29.9,29.78,NE,48,0.0,0.0,90,0.00,,,-99.99,1.0,HOBO +U30 +Weather +,2013-01-04 21:43:00,
2013-01-04 16:44:00,32.5,29.9,29.78,NE,48,0.0,0.0,90,0.00,,,-99.99,1.0,HOBO +U30 +Weather +,2013-01-04 21:44:00,
2013-01-04 16:45:00,32.5,29.8,29.78,NE,48,0.0,0.0,90,0.00,,,-99.99,1.0,HOBO +U30 +Weather +,2013-01-04 21:45:00,
2013-01-04 16:46:00,32.4,29.8,29.78,NE,48,0.0,0.0,90,0.00,,,-99.99,1.0,HOBO +U30 +Weather +,2013-01-04 21:46:00,
2013-01-04 16:47:00,32.5,29.9,29.78,NE,48,0.0,0.0,90,0.00,,,-99.99,1.0,HOBO +U30 +Weather +,2013-01-04 21:47:00,
2013-01-04 16:48:00,32.4,29.8,29.77,NE,48,0.0,0.0,90,0.00,,,-99.99,1.0,HOBO +U30 +Weather +,2013-01-04 21:48:00,
2013-01-04 16:49:00,32.4,29.9,29.78,NE,48,0.0,0.0,90,0.00,,,-99.99,1.0,HOBO +U30 +Weather +,2013-01-04 21:49:00,
2013-01-04 16:50:00,32.4,29.9,29.77,NE,48,0.0,0.0,90,0.00,,,-99.99,1.0,HOBO +U30 +Weather +,2013-01-04 21:50:00,
2013-01-04 16:51:00,32.4,29.8,29.78,NE,48,0.0,0.0,90,0.00,,,-99.99,1.0,HOBO +U30 +Weather +,2013-01-04 21:51:00,
2013-01-04 16:52:00,32.5,30.0,29.77,NE,48,0.0,0.0,90,0.00,,,-99.99,1.0,HOBO +U30 +Weather +,2013-01-04 21:52:00,
2013-01-04 16:53:00,32.5,29.9,29.78,NE,48,0.0,0.0,90,0.00,,,-99.99,1.0,HOBO +U30 +Weather +,2013-01-04 21:53:00,
2013-01-04 16:54:00,32.5,29.9,29.78,NE,48,0.0,0.0,90,0.00,,,-99.99,1.0,HOBO +U30 +Weather +,2013-01-04 21:54:00,
2013-01-04 16:55:00,32.5,30.0,29.78,NE,48,0.0,0.0,90,0.00,,,-99.99,1.0,HOBO +U30 +Weather +,2013-01-04 21:55:00,
2013-01-04 16:56:00,32.5,30.0,29.78,NE,48,0.0,0.0,90,0.00,,,-99.99,1.0,HOBO +U30 +Weather +,2013-01-04 21:56:00,
2013-01-04 16:57:00,32.5,29.9,29.78,NE,48,0.0,0.0,90,0.00,,,-99.99,1.0,HOBO +U30 +Weather +,2013-01-04 21:57:00,
2013-01-04 16:58:00,32.5,30.0,29.78,NE,48,0.0,0.0,90,0.00,,,-99.99,1.0,HOBO +U30 +Weather +,2013-01-04 21:58:00,
2013-01-04 16:59:00,32.5,30.0,29.78,NE,48,0.0,0.0,90,0.00,,,-99.99,1.0,HOBO +U30 +Weather +,2013-01-04 21:59:00,
2013-01-04 17:00:00,32.5,29.9,29.78,NE,48,0.0,0.0,90,0.00,,,-99.99,1.0,HOBO +U30 +Weather +,2013-01-04 22:00:00,
2013-01-04 17:01:00,32.5,29.9,29.78,NE,48,0.0,0.0,90,0.00,,,-99.99,1.0,HOBO +U30 +Weather +,2013-01-04 22:01:00,
2013-01-04 17:02:00,32.5,29.9,29.78,NE,48,0.0,0.0,90,0.00,,,-99.99,1.0,HOBO +U30 +Weather +,2013-01-04 22:02:00,
2013-01-04 17:03:00,32.4,29.9,29.78,NE,48,0.0,0.0,90,0.00,,,-99.99,1.0,HOBO +U30 +Weather +,2013-01-04 22:03:00,
2013-01-04 17:04:00,32.5,30.0,29.78,NE,48,0.0,0.0,90,0.00,,,-99.99,1.0,HOBO +U30 +Weather +,2013-01-04 22:04:00,
2013-01-04 17:05:00,32.4,29.9,29.78,NE,48,0.0,0.0,90,0.00,,,-99.99,1.0,HOBO +U30 +Weather +,2013-01-04 22:05:00,
2013-01-04 17:06:00,32.4,29.9,29.78,NE,48,0.0,0.0,90,0.00,,,-99.99,1.0,HOBO +U30 +Weather +,2013-01-04 22:06:00,
2013-01-04 17:07:00,32.4,29.9,29.78,NE,48,0.0,0.0,90,0.00,,,-99.99,1.0,HOBO +U30 +Weather +,2013-01-04 22:07:00,
2013-01-04 17:08:00,32.4,29.8,29.78,NE,48,0.0,0.0,90,0.00,,,-99.99,1.0,HOBO +U30 +Weather +,2013-01-04 22:08:00,
2013-01-04 17:09:00,32.4,29.8,29.78,NE,48,0.0,0.0,90,0.00,,,-99.99,1.0,HOBO +U30 +Weather +,2013-01-04 22:09:00,
2013-01-04 17:10:00,32.3,29.7,29.78,NE,48,0.0,0.0,89,0.00,,,-99.99,1.0,HOBO +U30 +Weather +,2013-01-04 22:10:00,
2013-01-04 17:11:00,32.4,29.7,29.78,NE,48,0.0,0.0,89,0.00,,,-99.99,1.0,HOBO +U30 +Weather +,2013-01-04 22:11:00,
2013-01-04 17:12:00,32.4,29.7,29.78,NE,48,0.0,0.0,89,0.00,,,-99.99,1.0,HOBO +U30 +Weather +,2013-01-04 22:12:00,
2013-01-04 17:13:00,32.4,29.7,29.78,NE,48,0.0,0.0,89,0.00,,,-99.99,1.0,HOBO +U30 +Weather +,2013-01-04 22:13:00,
2013-01-04 17:14:00,32.3,29.7,29.78,NE,48,0.0,0.0,89,0.00,,,-99.99,1.0,HOBO +U30 +Weather +,2013-01-04 22:14:00,
2013-01-04 17:15:00,32.3,29.7,29.78,NE,48,0.0,0.0,89,0.00,,,-99.99,1.0,HOBO +U30 +Weather +,2013-01-04 22:15:00,
2013-01-04 17:16:00,32.2,29.6,29.78,NE,48,0.0,0.0,90,0.00,,,-99.99,1.0,HOBO +U30 +Weather +,2013-01-04 22:16:00,
2013-01-04 17:17:00,32.2,29.6,29.78,NE,48,0.0,0.0,90,0.00,,,-99.99,1.0,HOBO +U30 +Weather +,2013-01-04 22:17:00,
2013-01-04 17:18:00,32.2,29.6,29.78,NE,48,0.0,0.0,90,0.00,,,-99.99,1.0,HOBO +U30 +Weather +,2013-01-04 22:18:00,
2013-01-04 17:19:00,32.2,29.6,29.78,NE,48,0.0,0.0,90,0.00,,,-99.99,1.0,HOBO +U30 +Weather +,2013-01-04 22:19:00,
2013-01-04 17:20:00,32.2,29.5,29.78,NE,48,0.0,0.0,89,0.00,,,-99.99,1.0,HOBO +U30 +Weather +,2013-01-04 22:20:00,
2013-01-04 17:21:00,32.2,29.5,29.78,NE,48,0.0,0.0,89,0.00,,,-99.99,1.0,HOBO +U30 +Weather +,2013-01-04 22:21:00,
2013-01-04 17:22:00,32.2,29.5,29.78,NE,48,0.0,0.0,89,0.00,,,-99.99,1.0,HOBO +U30 +Weather +,2013-01-04 22:22:00,
2013-01-04 17:23:00,32.2,29.5,29.78,NE,48,0.0,0.0,89,0.00,,,-99.99,1.0,HOBO +U30 +Weather +,2013-01-04 22:23:00,
2013-01-04 17:24:00,32.3,29.6,29.78,NE,48,0.0,0.0,89,0.00,,,-99.99,1.0,HOBO +U30 +Weather +,2013-01-04 22:24:00,
2013-01-04 17:25:00,32.2,29.5,29.78,NE,48,0.0,0.0,89,0.00,,,-99.99,1.0,HOBO +U30 +Weather +,2013-01-04 22:25:00,
2013-01-04 17:26:00,32.2,29.5,29.78,NE,48,0.0,0.0,89,0.00,,,-99.99,1.0,HOBO +U30 +Weather +,2013-01-04 22:26:00,
2013-01-04 17:27:00,32.2,29.5,29.78,NE,48,0.0,0.0,89,0.00,,,-99.99,1.0,HOBO +U30 +Weather +,2013-01-04 22:27:00,
2013-01-04 17:28:00,32.2,29.4,29.78,NE,48,0.0,0.0,89,0.00,,,-99.99,1.0,HOBO +U30 +Weather +,2013-01-04 22:28:00,
2013-01-04 17:29:00,32.2,29.4,29.78,NE,48,0.0,0.0,89,0.00,,,-99.99,1.0,HOBO +U30 +Weather +,2013-01-04 22:29:00,
2013-01-04 17:30:00,32.2,29.4,29.78,NE,48,0.0,0.0,89,0.00,,,-99.99,1.0,HOBO +U30 +Weather +,2013-01-04 22:30:00,
2013-01-04 17:31:00,32.1,29.4,29.78,NE,48,0.0,0.0,89,0.00,,,-99.99,1.0,HOBO +U30 +Weather +,2013-01-04 22:31:00,
2013-01-04 17:32:00,32.1,29.3,29.78,NE,48,0.0,0.0,89,0.00,,,-99.99,1.0,HOBO +U30 +Weather +,2013-01-04 22:32:00,
2013-01-04 17:33:00,32.1,29.3,29.78,NE,48,0.0,0.0,89,0.00,,,-99.99,1.0,HOBO +U30 +Weather +,2013-01-04 22:33:00,
2013-01-04 17:34:00,32.1,29.3,29.78,NE,48,0.0,0.0,89,0.00,,,-99.99,1.0,HOBO +U30 +Weather +,2013-01-04 22:34:00,
2013-01-04 17:35:00,32.1,29.2,29.78,NE,48,0.0,0.0,89,0.00,,,-99.99,1.0,HOBO +U30 +Weather +,2013-01-04 22:35:00,
2013-01-04 17:36:00,32.0,29.2,29.78,NE,48,0.0,0.0,89,0.00,,,-99.99,1.0,HOBO +U30 +Weather +,2013-01-04 22:36:00,
2013-01-04 17:37:00,32.1,29.3,29.78,NE,48,0.0,0.0,89,0.00,,,-99.99,1.0,HOBO +U30 +Weather +,2013-01-04 22:37:00,
2013-01-04 17:38:00,32.0,29.3,29.78,NE,48,0.0,0.0,89,0.00,,,-99.99,1.0,HOBO +U30 +Weather +,2013-01-04 22:38:00,
2013-01-04 17:39:00,32.1,29.3,29.79,NE,48,0.0,0.0,89,0.00,,,-99.99,1.0,HOBO +U30 +Weather +,2013-01-04 22:39:00,
2013-01-04 17:40:00,32.1,29.3,29.78,NE,48,0.0,0.0,89,0.00,,,-99.99,1.0,HOBO +U30 +Weather +,2013-01-04 22:40:00,
2013-01-04 17:41:00,32.1,29.3,29.78,NE,48,0.0,0.0,89,0.00,,,-99.99,1.0,HOBO +U30 +Weather +,2013-01-04 22:41:00,
2013-01-04 17:42:00,32.1,29.3,29.78,NE,48,0.0,0.0,89,0.00,,,-99.99,1.0,HOBO +U30 +Weather +,2013-01-04 22:42:00,
2013-01-04 17:43:00,32.1,29.2,29.78,NE,48,0.0,0.0,89,0.00,,,-99.99,1.0,HOBO +U30 +Weather +,2013-01-04 22:43:00,
2013-01-04 17:44:00,32.1,29.3,29.79,NE,48,0.0,0.0,89,0.00,,,-99.99,1.0,HOBO +U30 +Weather +,2013-01-04 22:44:00,
2013-01-04 17:45:00,32.0,29.2,29.79,NE,48,0.0,0.0,89,0.00,,,-99.99,1.0,HOBO +U30 +Weather +,2013-01-04 22:45:00,
2013-01-04 17:46:00,31.9,29.2,29.79,NE,48,0.0,0.0,89,0.00,,,-99.99,1.0,HOBO +U30 +Weather +,2013-01-04 22:46:00,
2013-01-04 17:47:00,31.9,29.2,29.79,NE,48,0.0,0.0,89,0.00,,,-99.99,1.0,HOBO +U30 +Weather +,2013-01-04 22:47:00,
2013-01-04 17:48:00,31.9,29.2,29.79,NE,48,0.0,0.0,89,0.00,,,-99.99,1.0,HOBO +U30 +Weather +,2013-01-04 22:48:00,
2013-01-04 17:49:00,32.0,29.3,29.79,NE,48,0.0,0.0,89,0.00,,,-99.99,1.0,HOBO +U30 +Weather +,2013-01-04 22:49:00,
2013-01-04 17:50:00,32.0,29.3,29.80,NE,48,0.0,0.0,89,0.00,,,-99.99,1.0,HOBO +U30 +Weather +,2013-01-04 22:50:00,
2013-01-04 17:51:00,32.1,29.3,29.79,NE,48,0.0,0.0,89,0.00,,,-99.99,1.0,HOBO +U30 +Weather +,2013-01-04 22:51:00,
2013-01-04 17:52:00,32.0,29.3,29.80,NE,48,0.0,0.0,89,0.00,,,-99.99,1.0,HOBO +U30 +Weather +,2013-01-04 22:52:00,
2013-01-04 17:53:00,32.0,29.3,29.79,NE,48,0.0,0.0,89,0.00,,,-99.99,1.0,HOBO +U30 +Weather +,2013-01-04 22:53:00,
2013-01-04 17:54:00,32.0,29.3,29.80,NE,48,0.0,0.0,89,0.00,,,-99.99,1.0,HOBO +U30 +Weather +,2013-01-04 22:54:00,
2013-01-04 17:55:00,32.0,29.2,29.80,NE,48,0.0,0.0,89,0.00,,,-99.99,1.0,HOBO +U30 +Weather +,2013-01-04 22:55:00,
2013-01-04 17:56:00,32.0,29.3,29.80,NE,48,0.0,0.0,89,0.00,,,-99.99,1.0,HOBO +U30 +Weather +,2013-01-04 22:56:00,
2013-01-04 17:57:00,31.9,29.2,29.80,NE,48,0.0,0.0,89,0.00,,,-99.99,1.0,HOBO +U30 +Weather +,2013-01-04 22:57:00,
2013-01-04 17:58:00,31.9,29.2,29.80,NE,48,0.0,0.0,89,0.00,,,-99.99,1.0,HOBO +U30 +Weather +,2013-01-04 22:58:00,
2013-01-04 17:59:00,31.8,29.1,29.80,NE,48,0.0,0.0,89,0.00,,,-99.99,1.0,HOBO +U30 +Weather +,2013-01-04 22:59:00,
2013-01-04 18:00:00,31.8,29.1,29.80,NE,48,0.0,0.0,89,0.00,,,-99.99,1.0,HOBO +U30 +Weather +,2013-01-04 23:00:00,
2013-01-04 18:01:00,31.8,29.1,29.80,NE,48,0.0,0.0,89,0.00,,,-99.99,1.0,HOBO +U30 +Weather +,2013-01-04 23:01:00,
2013-01-04 18:02:00,31.8,29.0,29.80,NE,48,0.0,0.0,89,0.00,,,-99.99,1.0,HOBO +U30 +Weather +,2013-01-04 23:02:00,
2013-01-04 18:03:00,31.8,29.1,29.80,NE,48,0.0,0.0,89,0.00,,,-99.99,1.0,HOBO +U30 +Weather +,2013-01-04 23:03:00,
2013-01-04 18:04:00,31.8,29.0,29.80,NE,48,0.0,0.0,89,0.00,,,-99.99,1.0,HOBO +U30 +Weather +,2013-01-04 23:04:00,
2013-01-04 18:05:00,31.8,29.1,29.80,NE,48,0.0,0.0,89,0.00,,,-99.99,1.0,HOBO +U30 +Weather +,2013-01-04 23:05:00,
2013-01-04 18:06:00,31.9,29.1,29.80,NE,48,0.0,0.0,89,0.00,,,-99.99,1.0,HOBO +U30 +Weather +,2013-01-04 23:06:00,
2013-01-04 18:07:00,31.8,29.0,29.80,NE,48,0.0,0.0,89,0.00,,,-99.99,1.0,HOBO +U30 +Weather +,2013-01-04 23:07:00,
2013-01-04 18:08:00,31.8,29.1,29.80,NE,48,0.0,0.0,89,0.00,,,-99.99,1.0,HOBO +U30 +Weather +,2013-01-04 23:08:00,
2013-01-04 18:09:00,31.8,29.0,29.80,NE,48,0.0,0.0,89,0.00,,,-99.99,1.0,HOBO +U30 +Weather +,2013-01-04 23:09:00,
2013-01-04 18:10:00,31.8,29.0,29.80,NE,48,0.0,0.0,89,0.00,,,-99.99,1.0,HOBO +U30 +Weather +,2013-01-04 23:10:00,
2013-01-04 18:11:00,31.9,29.1,29.80,NE,48,0.0,0.0,89,0.00,,,-99.99,1.0,HOBO +U30 +Weather +,2013-01-04 23:11:00,
2013-01-04 18:12:00,31.8,29.0,29.80,NE,48,0.0,0.0,89,0.00,,,-99.99,1.0,HOBO +U30 +Weather +,2013-01-04 23:12:00,
2013-01-04 18:13:00,31.8,29.0,29.80,NE,48,0.0,0.0,89,0.00,,,-99.99,1.0,HOBO +U30 +Weather +,2013-01-04 23:13:00,
2013-01-04 18:14:00,31.8,29.0,29.80,NE,48,0.0,0.0,89,0.00,,,-99.99,1.0,HOBO +U30 +Weather +,2013-01-04 23:14:00,
2013-01-04 18:15:00,31.8,29.0,29.80,NE,48,0.0,0.0,89,0.00,,,-99.99,1.0,HOBO +U30 +Weather +,2013-01-04 23:15:00,
2013-01-04 18:16:00,31.8,29.0,29.80,NE,48,0.0,0.0,89,0.00,,,-99.99,1.0,HOBO +U30 +Weather +,2013-01-04 23:16:00,
2013-01-04 18:17:00,31.9,29.0,29.80,NE,48,0.0,0.0,89,0.00,,,-99.99,1.0,HOBO +U30 +Weather +,2013-01-04 23:17:00,
2013-01-04 18:18:00,31.8,29.0,29.80,NE,48,0.0,0.0,89,0.00,,,-99.99,1.0,HOBO +U30 +Weather +,2013-01-04 23:18:00,
2013-01-04 18:19:00,31.8,29.0,29.80,NE,48,0.0,0.0,89,0.00,,,-99.99,1.0,HOBO +U30 +Weather +,2013-01-04 23:19:00,
2013-01-04 18:20:00,31.7,28.9,29.80,NE,48,0.0,0.0,89,0.00,,,-99.99,1.0,HOBO +U30 +Weather +,2013-01-04 23:20:00,
2013-01-04 18:21:00,31.7,28.9,29.80,NE,48,0.0,0.0,89,0.00,,,-99.99,1.0,HOBO +U30 +Weather +,2013-01-04 23:21:00,
2013-01-04 18:22:00,31.7,28.9,29.80,NE,48,0.0,0.0,89,0.00,,,-99.99,1.0,HOBO +U30 +Weather +,2013-01-04 23:22:00,
2013-01-04 18:23:00,31.8,28.9,29.80,NE,48,0.0,0.0,89,0.00,,,-99.99,1.0,HOBO +U30 +Weather +,2013-01-04 23:23:00,
2013-01-04 18:24:00,31.8,28.9,29.80,NE,48,0.0,0.0,89,0.00,,,-99.99,1.0,HOBO +U30 +Weather +,2013-01-04 23:24:00,
2013-01-04 18:25:00,31.8,28.9,29.80,NE,48,0.0,0.0,89,0.00,,,-99.99,1.0,HOBO +U30 +Weather +,2013-01-04 23:25:00,
2013-01-04 18:26:00,31.7,28.9,29.80,NE,48,0.0,0.0,88,0.00,,,-99.99,1.0,HOBO +U30 +Weather +,2013-01-04 23:26:00,
2013-01-04 18:27:00,31.7,28.8,29.80,NE,48,0.0,0.0,89,0.00,,,-99.99,1.0,HOBO +U30 +Weather +,2013-01-04 23:27:00,
2013-01-04 18:28:00,31.7,28.9,29.80,NE,48,0.0,0.0,89,0.00,,,-99.99,1.0,HOBO +U30 +Weather +,2013-01-04 23:28:00,
2013-01-04 18:29:00,31.7,28.9,29.80,NE,48,0.0,0.0,89,0.00,,,-99.99,1.0,HOBO +U30 +Weather +,2013-01-04 23:29:00,
2013-01-04 18:30:00,31.7,28.9,29.79,NE,48,0.0,0.0,89,0.00,,,-99.99,1.0,HOBO +U30 +Weather +,2013-01-04 23:30:00,
2013-01-04 18:31:00,31.8,28.9,29.80,NE,48,0.0,0.0,88,0.00,,,-99.99,1.0,HOBO +U30 +Weather +,2013-01-04 23:31:00,
2013-01-04 18:32:00,31.8,28.9,29.80,NE,48,0.0,0.0,88,0.00,,,-99.99,1.0,HOBO +U30 +Weather +,2013-01-04 23:32:00,
2013-01-04 18:33:00,31.8,28.9,29.80,NE,48,0.0,0.0,88,0.00,,,-99.99,1.0,HOBO +U30 +Weather +,2013-01-04 23:33:00,
2013-01-04 18:34:00,31.8,28.9,29.80,NE,48,0.0,0.0,88,0.00,,,-99.99,1.0,HOBO +U30 +Weather +,2013-01-04 23:34:00,
2013-01-04 18:35:00,31.7,28.9,29.80,NE,48,0.0,0.0,89,0.00,,,-99.99,1.0,HOBO +U30 +Weather +,2013-01-04 23:35:00,
2013-01-04 18:36:00,31.7,28.8,29.80,NE,48,0.0,0.0,88,0.00,,,-99.99,1.0,HOBO +U30 +Weather +,2013-01-04 23:36:00,
2013-01-04 18:37:00,31.7,28.9,29.80,NE,48,0.0,0.0,89,0.00,,,-99.99,1.0,HOBO +U30 +Weather +,2013-01-04 23:37:00,
2013-01-04 18:38:00,31.7,28.9,29.80,NE,48,0.0,0.0,88,0.00,,,-99.99,1.0,HOBO +U30 +Weather +,2013-01-04 23:38:00,
2013-01-04 18:39:00,31.7,28.8,29.80,NE,48,0.0,0.0,89,0.00,,,-99.99,1.0,HOBO +U30 +Weather +,2013-01-04 23:39:00,
2013-01-04 18:40:00,31.6,28.7,29.80,NE,48,0.0,0.0,88,0.00,,,-99.99,1.0,HOBO +U30 +Weather +,2013-01-04 23:40:00,
2013-01-04 18:41:00,31.6,28.7,29.80,NE,48,0.0,0.0,88,0.00,,,-99.99,1.0,HOBO +U30 +Weather +,2013-01-04 23:41:00,
2013-01-04 18:42:00,31.7,28.7,29.80,NE,48,0.0,0.0,88,0.00,,,-99.99,1.0,HOBO +U30 +Weather +,2013-01-04 23:42:00,
2013-01-04 18:43:00,31.7,28.7,29.80,NE,48,0.0,0.0,88,0.00,,,-99.99,1.0,HOBO +U30 +Weather +,2013-01-04 23:43:00,
2013-01-04 18:44:00,31.6,28.7,29.80,NE,48,0.0,0.0,88,0.00,,,-99.99,1.0,HOBO +U30 +Weather +,2013-01-04 23:44:00,
2013-01-04 18:45:00,31.6,28.7,29.80,NE,48,0.0,0.0,89,0.00,,,-99.99,1.0,HOBO +U30 +Weather +,2013-01-04 23:45:00,
2013-01-04 18:46:00,31.6,28.7,29.80,NE,48,0.0,0.0,89,0.00,,,-99.99,1.0,HOBO +U30 +Weather +,2013-01-04 23:46:00,
2013-01-04 18:47:00,31.6,28.8,29.80,NE,48,0.0,0.0,89,0.00,,,-99.99,1.0,HOBO +U30 +Weather +,2013-01-04 23:47:00,
2013-01-04 18:48:00,31.6,28.8,29.80,NE,48,0.0,0.0,89,0.00,,,-99.99,1.0,HOBO +U30 +Weather +,2013-01-04 23:48:00,
2013-01-04 18:49:00,31.5,28.7,29.80,NE,48,0.0,0.0,89,0.00,,,-99.99,1.0,HOBO +U30 +Weather +,2013-01-04 23:49:00,
2013-01-04 18:50:00,31.4,28.7,29.80,NE,48,0.0,0.0,89,0.00,,,-99.99,1.0,HOBO +U30 +Weather +,2013-01-04 23:50:00,
2013-01-04 18:51:00,31.5,28.7,29.80,NE,48,0.0,0.0,89,0.00,,,-99.99,1.0,HOBO +U30 +Weather +,2013-01-04 23:51:00,
2013-01-04 18:52:00,31.5,28.7,29.80,NE,48,0.0,0.0,89,0.00,,,-99.99,1.0,HOBO +U30 +Weather +,2013-01-04 23:52:00,
2013-01-04 18:53:00,31.5,28.7,29.80,NE,48,0.0,0.0,89,0.00,,,-99.99,1.0,HOBO +U30 +Weather +,2013-01-04 23:53:00,
2013-01-04 18:54:00,31.6,28.8,29.80,NE,48,0.0,0.0,89,0.00,,,-99.99,1.0,HOBO +U30 +Weather +,2013-01-04 23:54:00,
2013-01-04 18:55:00,31.6,28.7,29.80,NE,48,0.0,0.0,88,0.00,,,-99.99,1.0,HOBO +U30 +Weather +,2013-01-04 23:55:00,
2013-01-04 18:56:00,31.5,28.7,29.80,NE,48,0.0,0.0,89,0.00,,,-99.99,1.0,HOBO +U30 +Weather +,2013-01-04 23:56:00,
2013-01-04 18:57:00,31.5,28.7,29.80,NE,48,0.0,0.0,89,0.00,,,-99.99,1.0,HOBO +U30 +Weather +,2013-01-04 23:57:00,
2013-01-04 18:58:00,31.5,28.7,29.80,NE,48,0.0,0.0,89,0.00,,,-99.99,1.0,HOBO +U30 +Weather +,2013-01-04 23:58:00,
2013-01-04 18:59:00,31.6,28.7,29.81,NE,48,0.0,0.0,89,0.00,,,-99.99,1.0,HOBO +U30 +Weather +,2013-01-04 23:59:00,
2013-01-04 19:00:00,31.6,28.6,29.80,NE,48,0.0,0.0,88,0.00,,,-99.99,1.0,HOBO +U30 +Weather +,2013-01-05 00:00:00,
2013-01-04 19:01:00,31.5,28.5,29.80,NE,48,0.0,0.0,88,0.00,,,-99.99,1.0,HOBO +U30 +Weather +,2013-01-05 00:01:00,
2013-01-04 19:02:00,31.5,28.6,29.81,NE,48,0.0,0.0,88,0.00,,,-99.99,1.0,HOBO +U30 +Weather +,2013-01-05 00:02:00,
2013-01-04 19:03:00,31.4,28.5,29.81,NE,48,0.0,0.0,88,0.00,,,-99.99,1.0,HOBO +U30 +Weather +,2013-01-05 00:03:00,
2013-01-04 19:04:00,31.4,28.6,29.80,NE,48,0.0,0.0,89,0.00,,,-99.99,1.0,HOBO +U30 +Weather +,2013-01-05 00:04:00,
2013-01-04 19:05:00,31.4,28.6,29.81,NE,48,0.0,0.0,89,0.00,,,-99.99,1.0,HOBO +U30 +Weather +,2013-01-05 00:05:00,
2013-01-04 19:06:00,31.4,28.6,29.81,NE,48,0.0,0.0,89,0.00,,,-99.99,1.0,HOBO +U30 +Weather +,2013-01-05 00:06:00,
2013-01-04 19:07:00,31.4,28.6,29.80,NE,48,0.0,0.0,89,0.00,,,-99.99,1.0,HOBO +U30 +Weather +,2013-01-05 00:07:00,
2013-01-04 19:08:00,31.4,28.5,29.81,NE,48,0.0,0.0,89,0.00,,,-99.99,1.0,HOBO +U30 +Weather +,2013-01-05 00:08:00,
2013-01-04 19:09:00,31.4,28.6,29.81,NE,48,0.0,0.0,89,0.00,,,-99.99,1.0,HOBO +U30 +Weather +,2013-01-05 00:09:00,
2013-01-04 19:10:00,31.5,28.6,29.81,NE,48,0.0,0.0,88,0.00,,,-99.99,1.0,HOBO +U30 +Weather +,2013-01-05 00:10:00,
2013-01-04 19:11:00,31.5,28.6,29.80,NE,48,0.0,0.0,89,0.00,,,-99.99,1.0,HOBO +U30 +Weather +,2013-01-05 00:11:00,
2013-01-04 19:12:00,31.4,28.6,29.81,NE,48,0.0,0.0,89,0.00,,,-99.99,1.0,HOBO +U30 +Weather +,2013-01-05 00:12:00,
2013-01-04 19:13:00,31.5,28.7,29.81,NE,48,0.0,0.0,89,0.00,,,-99.99,1.0,HOBO +U30 +Weather +,2013-01-05 00:13:00,
2013-01-04 19:14:00,31.4,28.6,29.81,NE,48,0.0,0.0,89,0.00,,,-99.99,1.0,HOBO +U30 +Weather +,2013-01-05 00:14:00,
2013-01-04 19:15:00,31.5,28.7,29.81,NE,48,0.0,0.0,89,0.00,,,-99.99,1.0,HOBO +U30 +Weather +,2013-01-05 00:15:00,
2013-01-04 19:16:00,31.4,28.7,29.81,NE,48,0.0,0.0,89,0.00,,,-99.99,1.0,HOBO +U30 +Weather +,2013-01-05 00:16:00,
2013-01-04 19:17:00,31.5,28.7,29.81,NE,48,0.0,0.0,89,0.00,,,-99.99,1.0,HOBO +U30 +Weather +,2013-01-05 00:17:00,
2013-01-04 19:18:00,31.5,28.7,29.81,NE,48,0.0,0.0,89,0.00,,,-99.99,1.0,HOBO +U30 +Weather +,2013-01-05 00:18:00,
2013-01-04 19:19:00,31.5,28.6,29.81,NE,48,0.0,0.0,88,0.00,,,-99.99,1.0,HOBO +U30 +Weather +,2013-01-05 00:19:00,
2013-01-04 19:20:00,31.5,28.6,29.81,NE,48,0.0,0.0,88,0.00,,,-99.99,1.0,HOBO +U30 +Weather +,2013-01-05 00:20:00,
2013-01-04 19:21:00,31.5,28.6,29.81,NE,48,0.0,0.0,88,0.00,,,-99.99,1.0,HOBO +U30 +Weather +,2013-01-05 00:21:00,
2013-01-04 19:22:00,31.5,28.5,29.81,NE,48,0.0,0.0,88,0.00,,,-99.99,1.0,HOBO +U30 +Weather +,2013-01-05 00:22:00,
2013-01-04 19:23:00,31.5,28.5,29.81,NE,48,0.0,0.0,88,0.00,,,-99.99,1.0,HOBO +U30 +Weather +,2013-01-05 00:23:00,
2013-01-04 19:24:00,31.4,28.4,29.81,NE,48,0.0,0.0,88,0.00,,,-99.99,1.0,HOBO +U30 +Weather +,2013-01-05 00:24:00,
2013-01-04 19:25:00,31.4,28.5,29.81,NE,48,0.0,0.0,88,0.00,,,-99.99,1.0,HOBO +U30 +Weather +,2013-01-05 00:25:00,
2013-01-04 19:26:00,31.4,28.5,29.81,NE,48,0.0,0.0,88,0.00,,,-99.99,1.0,HOBO +U30 +Weather +,2013-01-05 00:26:00,
2013-01-04 19:27:00,31.4,28.5,29.81,NE,48,0.0,0.0,88,0.00,,,-99.99,1.0,HOBO +U30 +Weather +,2013-01-05 00:27:00,
2013-01-04 19:28:00,31.5,28.5,29.81,NE,48,0.0,0.0,88,0.00,,,-99.99,1.0,HOBO +U30 +Weather +,2013-01-05 00:28:00,
2013-01-04 19:29:00,31.5,28.5,29.81,NE,48,0.0,0.0,88,0.00,,,-99.99,1.0,HOBO +U30 +Weather +,2013-01-05 00:29:00,
2013-01-04 19:30:00,31.5,28.5,29.81,NE,48,0.0,0.0,88,0.00,,,-99.99,1.0,HOBO +U30 +Weather +,2013-01-05 00:30:00,
2013-01-04 19:31:00,31.5,28.5,29.81,NE,48,0.0,0.0,88,0.00,,,-99.99,1.0,HOBO +U30 +Weather +,2013-01-05 00:31:00,
2013-01-04 19:32:00,31.5,28.5,29.81,NE,48,0.0,0.0,88,0.00,,,-99.99,1.0,HOBO +U30 +Weather +,2013-01-05 00:32:00,
2013-01-04 19:33:00,31.5,28.5,29.81,NE,48,0.0,0.0,88,0.00,,,-99.99,1.0,HOBO +U30 +Weather +,2013-01-05 00:33:00,
2013-01-04 19:34:00,31.5,28.5,29.81,NE,48,0.0,0.0,88,0.00,,,-99.99,1.0,HOBO +U30 +Weather +,2013-01-05 00:34:00,
2013-01-04 19:35:00,31.5,28.5,29.81,NE,48,0.0,0.0,88,0.00,,,-99.99,1.0,HOBO +U30 +Weather +,2013-01-05 00:35:00,
2013-01-04 19:36:00,31.6,28.5,29.81,NE,48,0.0,0.0,88,0.00,,,-99.99,1.0,HOBO +U30 +Weather +,2013-01-05 00:36:00,
2013-01-04 19:37:00,31.6,28.5,29.81,NE,48,0.0,0.0,88,0.00,,,-99.99,1.0,HOBO +U30 +Weather +,2013-01-05 00:37:00,
2013-01-04 19:38:00,31.6,28.5,29.81,NE,48,0.0,0.0,87,0.00,,,-99.99,1.0,HOBO +U30 +Weather +,2013-01-05 00:38:00,
2013-01-04 19:39:00,31.7,28.5,29.81,NE,48,0.0,0.0,87,0.00,,,-99.99,1.0,HOBO +U30 +Weather +,2013-01-05 00:39:00,
2013-01-04 19:40:00,31.7,28.5,29.80,NE,48,0.0,0.0,87,0.00,,,-99.99,1.0,HOBO +U30 +Weather +,2013-01-05 00:40:00,
2013-01-04 19:41:00,31.7,28.5,29.81,NE,48,0.0,0.0,87,0.00,,,-99.99,1.0,HOBO +U30 +Weather +,2013-01-05 00:41:00,
2013-01-04 19:42:00,31.8,28.5,29.81,NE,48,0.0,0.0,87,0.00,,,-99.99,1.0,HOBO +U30 +Weather +,2013-01-05 00:42:00,
2013-01-04 19:43:00,31.7,28.5,29.81,NE,48,0.0,0.0,87,0.00,,,-99.99,1.0,HOBO +U30 +Weather +,2013-01-05 00:43:00,
2013-01-04 19:44:00,31.7,28.5,29.81,NE,48,0.0,0.0,87,0.00,,,-99.99,1.0,HOBO +U30 +Weather +,2013-01-05 00:44:00,
2013-01-04 19:45:00,31.7,28.4,29.82,NE,48,0.0,0.0,87,0.00,,,-99.99,1.0,HOBO +U30 +Weather +,2013-01-05 00:45:00,
2013-01-04 19:46:00,31.6,28.4,29.81,NE,48,0.0,0.0,87,0.00,,,-99.99,1.0,HOBO +U30 +Weather +,2013-01-05 00:46:00,
2013-01-04 19:47:00,31.7,28.4,29.81,NE,48,0.0,0.0,87,0.00,,,-99.99,1.0,HOBO +U30 +Weather +,2013-01-05 00:47:00,
2013-01-04 19:48:00,31.7,28.4,29.82,NE,48,0.0,0.0,87,0.00,,,-99.99,1.0,HOBO +U30 +Weather +,2013-01-05 00:48:00,
2013-01-04 19:49:00,31.7,28.4,29.81,NE,48,0.0,0.0,87,0.00,,,-99.99,1.0,HOBO +U30 +Weather +,2013-01-05 00:49:00,
2013-01-04 19:50:00,31.6,28.3,29.81,NE,48,0.0,0.0,87,0.00,,,-99.99,1.0,HOBO +U30 +Weather +,2013-01-05 00:50:00,
2013-01-04 19:51:00,31.6,28.3,29.81,NE,48,0.0,0.0,87,0.00,,,-99.99,1.0,HOBO +U30 +Weather +,2013-01-05 00:51:00,
2013-01-04 19:52:00,31.5,28.2,29.81,NE,48,0.0,0.0,87,0.00,,,-99.99,1.0,HOBO +U30 +Weather +,2013-01-05 00:52:00,
2013-01-04 19:53:00,31.5,28.2,29.81,NE,48,0.0,0.0,87,0.00,,,-99.99,1.0,HOBO +U30 +Weather +,2013-01-05 00:53:00,
2013-01-04 19:54:00,31.5,28.3,29.81,NE,48,0.0,0.0,87,0.00,,,-99.99,1.0,HOBO +U30 +Weather +,2013-01-05 00:54:00,
2013-01-04 19:55:00,31.5,28.3,29.81,NE,48,0.0,0.0,87,0.00,,,-99.99,1.0,HOBO +U30 +Weather +,2013-01-05 00:55:00,
2013-01-04 19:56:00,31.4,28.3,29.81,NE,48,0.0,0.0,87,0.00,,,-99.99,1.0,HOBO +U30 +Weather +,2013-01-05 00:56:00,
2013-01-04 19:57:00,31.4,28.2,29.81,NE,48,0.0,0.0,88,0.00,,,-99.99,1.0,HOBO +U30 +Weather +,2013-01-05 00:57:00,
2013-01-04 19:58:00,31.4,28.2,29.81,NE,48,0.0,0.0,87,0.00,,,-99.99,1.0,HOBO +U30 +Weather +,2013-01-05 00:58:00,
2013-01-04 19:59:00,31.3,28.2,29.81,NE,48,0.0,0.0,87,0.00,,,-99.99,1.0,HOBO +U30 +Weather +,2013-01-05 00:59:00,
2013-01-04 20:00:00,31.4,28.2,29.81,NE,48,0.0,0.0,87,0.00,,,-99.99,1.0,HOBO +U30 +Weather +,2013-01-05 01:00:00,
2013-01-04 20:01:00,31.5,28.3,29.81,NE,48,0.0,0.0,87,0.00,,,-99.99,1.0,HOBO +U30 +Weather +,2013-01-05 01:01:00,
2013-01-04 20:02:00,31.5,28.3,29.81,NE,48,0.0,0.0,87,0.00,,,-99.99,1.0,HOBO +U30 +Weather +,2013-01-05 01:02:00,
2013-01-04 20:03:00,31.4,28.3,29.81,NE,48,0.0,0.0,87,0.00,,,-99.99,1.0,HOBO +U30 +Weather +,2013-01-05 01:03:00,
2013-01-04 20:04:00,31.4,28.2,29.81,NE,48,0.0,0.0,88,0.00,,,-99.99,1.0,HOBO +U30 +Weather +,2013-01-05 01:04:00,
2013-01-04 20:05:00,31.3,28.2,29.81,NE,48,0.0,0.0,87,0.00,,,-99.99,1.0,HOBO +U30 +Weather +,2013-01-05 01:05:00,
2013-01-04 20:06:00,31.4,28.1,29.81,NE,48,0.0,0.0,87,0.00,,,-99.99,1.0,HOBO +U30 +Weather +,2013-01-05 01:06:00,
2013-01-04 20:07:00,31.4,28.1,29.81,NE,48,0.0,0.0,87,0.00,,,-99.99,1.0,HOBO +U30 +Weather +,2013-01-05 01:07:00,
2013-01-04 20:08:00,31.3,28.0,29.81,NE,48,0.0,0.0,87,0.00,,,-99.99,1.0,HOBO +U30 +Weather +,2013-01-05 01:08:00,
2013-01-04 20:09:00,31.3,28.1,29.81,NE,48,0.0,0.0,87,0.00,,,-99.99,1.0,HOBO +U30 +Weather +,2013-01-05 01:09:00,
2013-01-04 20:10:00,31.2,28.0,29.81,NE,48,0.0,0.0,87,0.00,,,-99.99,1.0,HOBO +U30 +Weather +,2013-01-05 01:10:00,
2013-01-04 20:11:00,31.2,27.9,29.81,NE,48,0.0,0.0,87,0.00,,,-99.99,1.0,HOBO +U30 +Weather +,2013-01-05 01:11:00,
2013-01-04 20:12:00,31.2,27.9,29.81,NE,48,0.0,0.0,87,0.00,,,-99.99,1.0,HOBO +U30 +Weather +,2013-01-05 01:12:00,
2013-01-04 20:13:00,31.1,27.8,29.81,NE,48,0.0,0.0,87,0.00,,,-99.99,1.0,HOBO +U30 +Weather +,2013-01-05 01:13:00,
2013-01-04 20:14:00,31.1,27.8,29.81,NE,48,0.0,0.0,87,0.00,,,-99.99,1.0,HOBO +U30 +Weather +,2013-01-05 01:14:00,
2013-01-04 20:15:00,31.0,27.6,29.81,NE,48,0.0,0.0,86,0.00,,,-99.99,1.0,HOBO +U30 +Weather +,2013-01-05 01:15:00,
2013-01-04 20:16:00,30.9,27.5,29.81,NE,48,0.0,0.0,87,0.00,,,-99.99,1.0,HOBO +U30 +Weather +,2013-01-05 01:16:00,
2013-01-04 20:17:00,30.8,27.4,29.81,NE,48,0.0,0.0,86,0.00,,,-99.99,1.0,HOBO +U30 +Weather +,2013-01-05 01:17:00,
2013-01-04 20:18:00,30.7,27.3,29.81,NE,48,0.0,0.0,87,0.00,,,-99.99,1.0,HOBO +U30 +Weather +,2013-01-05 01:18:00,
2013-01-04 20:19:00,30.7,27.4,29.81,NE,48,0.0,0.0,87,0.00,,,-99.99,1.0,HOBO +U30 +Weather +,2013-01-05 01:19:00,
2013-01-04 20:20:00,30.7,27.4,29.81,NE,48,0.0,0.0,87,0.00,,,-99.99,1.0,HOBO +U30 +Weather +,2013-01-05 01:20:00,
2013-01-04 20:21:00,30.6,27.2,29.81,NE,48,0.0,0.0,87,0.00,,,-99.99,1.0,HOBO +U30 +Weather +,2013-01-05 01:21:00,
2013-01-04 20:22:00,30.6,27.1,29.81,NE,48,0.0,0.0,86,0.00,,,-99.99,1.0,HOBO +U30 +Weather +,2013-01-05 01:22:00,
2013-01-04 20:23:00,30.5,27.1,29.81,NE,48,0.0,0.0,86,0.00,,,-99.99,1.0,HOBO +U30 +Weather +,2013-01-05 01:23:00,
2013-01-04 20:24:00,30.4,27.1,29.81,NE,48,0.0,0.0,87,0.00,,,-99.99,1.0,HOBO +U30 +Weather +,2013-01-05 01:24:00,
2013-01-04 20:25:00,30.4,27.1,29.81,NE,48,0.0,0.0,87,0.00,,,-99.99,1.0,HOBO +U30 +Weather +,2013-01-05 01:25:00,
2013-01-04 20:26:00,30.4,27.1,29.82,NE,48,0.0,0.0,87,0.00,,,-99.99,1.0,HOBO +U30 +Weather +,2013-01-05 01:26:00,
2013-01-04 20:27:00,30.3,27.0,29.81,NE,48,0.0,0.0,87,0.00,,,-99.99,1.0,HOBO +U30 +Weather +,2013-01-05 01:27:00,
2013-01-04 20:28:00,30.3,27.0,29.82,NE,48,0.0,0.0,87,0.00,,,-99.99,1.0,HOBO +U30 +Weather +,2013-01-05 01:28:00,
2013-01-04 20:29:00,30.4,27.1,29.82,NE,48,0.0,0.0,87,0.00,,,-99.99,1.0,HOBO +U30 +Weather +,2013-01-05 01:29:00,
2013-01-04 20:30:00,30.4,27.1,29.82,NE,48,0.0,0.0,87,0.00,,,-99.99,1.0,HOBO +U30 +Weather +,2013-01-05 01:30:00,
2013-01-04 20:31:00,30.4,27.0,29.81,NE,48,0.0,0.0,87,0.00,,,-99.99,1.0,HOBO +U30 +Weather +,2013-01-05 01:31:00,
2013-01-04 20:32:00,30.3,26.9,29.81,NE,48,0.0,0.0,87,0.00,,,-99.99,1.0,HOBO +U30 +Weather +,2013-01-05 01:32:00,
2013-01-04 20:33:00,30.3,26.9,29.81,NE,48,0.0,0.0,87,0.00,,,-99.99,1.0,HOBO +U30 +Weather +,2013-01-05 01:33:00,
2013-01-04 20:34:00,30.2,26.8,29.81,NE,48,0.0,0.0,87,0.00,,,-99.99,1.0,HOBO +U30 +Weather +,2013-01-05 01:34:00,
2013-01-04 20:35:00,30.2,26.9,29.82,NE,48,0.0,0.0,87,0.00,,,-99.99,1.0,HOBO +U30 +Weather +,2013-01-05 01:35:00,
2013-01-04 20:36:00,30.2,26.8,29.81,NE,48,0.0,0.0,87,0.00,,,-99.99,1.0,HOBO +U30 +Weather +,2013-01-05 01:36:00,
2013-01-04 20:37:00,30.2,26.8,29.81,NE,48,0.0,0.0,87,0.00,,,-99.99,1.0,HOBO +U30 +Weather +,2013-01-05 01:37:00,
2013-01-04 20:38:00,30.1,26.7,29.81,NE,48,0.0,0.0,87,0.00,,,-99.99,1.0,HOBO +U30 +Weather +,2013-01-05 01:38:00,
2013-01-04 20:39:00,30.1,26.7,29.81,NE,48,0.0,0.0,86,0.00,,,-99.99,1.0,HOBO +U30 +Weather +,2013-01-05 01:39:00,
2013-01-04 20:40:00,30.1,26.7,29.81,NE,48,0.0,0.0,86,0.00,,,-99.99,1.0,HOBO +U30 +Weather +,2013-01-05 01:40:00,
2013-01-04 20:41:00,30.1,26.6,29.81,NE,48,0.0,0.0,86,0.00,,,-99.99,1.0,HOBO +U30 +Weather +,2013-01-05 01:41:00,
2013-01-04 20:42:00,30.0,26.6,29.81,NE,48,0.0,0.0,86,0.00,,,-99.99,1.0,HOBO +U30 +Weather +,2013-01-05 01:42:00,
2013-01-04 20:43:00,30.0,26.5,29.81,NE,48,0.0,0.0,86,0.00,,,-99.99,1.0,HOBO +U30 +Weather +,2013-01-05 01:43:00,
2013-01-04 20:44:00,29.9,26.5,29.81,NE,48,0.0,0.0,86,0.00,,,-99.99,1.0,HOBO +U30 +Weather +,2013-01-05 01:44:00,
2013-01-04 20:45:00,29.9,26.5,29.81,NE,48,0.0,0.0,87,0.00,,,-99.99,1.0,HOBO +U30 +Weather +,2013-01-05 01:45:00,
2013-01-04 20:46:00,29.8,26.5,29.81,NE,48,0.0,0.0,87,0.00,,,-99.99,1.0,HOBO +U30 +Weather +,2013-01-05 01:46:00,
2013-01-04 20:47:00,29.8,26.5,29.81,NE,48,0.0,0.0,87,0.00,,,-99.99,1.0,HOBO +U30 +Weather +,2013-01-05 01:47:00,
2013-01-04 20:48:00,29.8,26.5,29.80,NE,48,0.0,0.0,87,0.00,,,-99.99,1.0,HOBO +U30 +Weather +,2013-01-05 01:48:00,
2013-01-04 20:49:00,29.8,26.5,29.81,NE,48,0.0,0.0,87,0.00,,,-99.99,1.0,HOBO +U30 +Weather +,2013-01-05 01:49:00,
2013-01-04 20:50:00,29.9,26.5,29.81,NE,48,0.0,0.0,87,0.00,,,-99.99,1.0,HOBO +U30 +Weather +,2013-01-05 01:50:00,
2013-01-04 20:51:00,29.8,26.4,29.81,NE,48,0.0,0.0,87,0.00,,,-99.99,1.0,HOBO +U30 +Weather +,2013-01-05 01:51:00,
2013-01-04 20:52:00,29.7,26.3,29.81,NE,48,0.0,0.0,86,0.00,,,-99.99,1.0,HOBO +U30 +Weather +,2013-01-05 01:52:00,
2013-01-04 20:53:00,29.7,26.3,29.81,NE,48,0.0,0.0,86,0.00,,,-99.99,1.0,HOBO +U30 +Weather +,2013-01-05 01:53:00,
2013-01-04 20:54:00,29.6,26.2,29.81,NE,48,0.0,0.0,86,0.00,,,-99.99,1.0,HOBO +U30 +Weather +,2013-01-05 01:54:00,
2013-01-04 20:55:00,29.6,26.2,29.81,NE,48,0.0,0.0,86,0.00,,,-99.99,1.0,HOBO +U30 +Weather +,2013-01-05 01:55:00,
2013-01-04 20:56:00,29.6,26.2,29.81,NE,48,0.0,0.0,87,0.00,,,-99.99,1.0,HOBO +U30 +Weather +,2013-01-05 01:56:00,
2013-01-04 20:57:00,29.7,26.3,29.81,NE,48,0.0,0.0,87,0.00,,,-99.99,1.0,HOBO +U30 +Weather +,2013-01-05 01:57:00,
2013-01-04 20:58:00,29.8,26.4,29.81,NE,48,0.0,0.0,87,0.00,,,-99.99,1.0,HOBO +U30 +Weather +,2013-01-05 01:58:00,
2013-01-04 20:59:00,29.8,26.3,29.81,NE,48,0.0,0.0,86,0.00,,,-99.99,1.0,HOBO +U30 +Weather +,2013-01-05 01:59:00,
2013-01-04 21:00:00,29.8,26.3,29.81,NE,48,0.0,0.0,86,0.00,,,-99.99,1.0,HOBO +U30 +Weather +,2013-01-05 02:00:00,
2013-01-04 21:01:00,29.7,26.2,29.81,NE,48,0.0,0.0,86,0.00,,,-99.99,1.0,HOBO +U30 +Weather +,2013-01-05 02:01:00,
2013-01-04 21:02:00,29.7,26.2,29.81,NE,48,0.0,0.0,86,0.00,,,-99.99,1.0,HOBO +U30 +Weather +,2013-01-05 02:02:00,
2013-01-04 21:03:00,29.6,26.1,29.81,NE,48,0.0,0.0,86,0.00,,,-99.99,1.0,HOBO +U30 +Weather +,2013-01-05 02:03:00,
2013-01-04 21:04:00,29.5,26.1,29.81,NE,48,0.0,0.0,86,0.00,,,-99.99,1.0,HOBO +U30 +Weather +,2013-01-05 02:04:00,
2013-01-04 21:05:00,29.5,26.1,29.81,NE,48,0.0,0.0,87,0.00,,,-99.99,1.0,HOBO +U30 +Weather +,2013-01-05 02:05:00,
2013-01-04 21:06:00,29.5,26.0,29.81,NE,48,0.0,0.0,86,0.00,,,-99.99,1.0,HOBO +U30 +Weather +,2013-01-05 02:06:00,
2013-01-04 21:07:00,29.5,26.0,29.81,NE,48,0.0,0.0,86,0.00,,,-99.99,1.0,HOBO +U30 +Weather +,2013-01-05 02:07:00,
2013-01-04 21:08:00,29.5,26.1,29.80,NE,48,0.0,0.0,86,0.00,,,-99.99,1.0,HOBO +U30 +Weather +,2013-01-05 02:08:00,
2013-01-04 21:09:00,29.5,26.1,29.81,NE,48,0.0,0.0,86,0.00,,,-99.99,1.0,HOBO +U30 +Weather +,2013-01-05 02:09:00,
2013-01-04 21:10:00,29.5,26.0,29.80,NE,48,0.0,0.0,86,0.00,,,-99.99,1.0,HOBO +U30 +Weather +,2013-01-05 02:10:00,
2013-01-04 21:11:00,29.4,25.9,29.80,NE,48,0.0,0.0,86,0.00,,,-99.99,1.0,HOBO +U30 +Weather +,2013-01-05 02:11:00,
2013-01-04 21:12:00,29.4,25.9,29.81,NE,48,0.0,0.0,86,0.00,,,-99.99,1.0,HOBO +U30 +Weather +,2013-01-05 02:12:00,
2013-01-04 21:13:00,29.3,25.9,29.81,NE,48,0.0,0.0,86,0.00,,,-99.99,1.0,HOBO +U30 +Weather +,2013-01-05 02:13:00,
2013-01-04 21:14:00,29.3,25.9,29.81,NE,48,0.0,0.0,87,0.00,,,-99.99,1.0,HOBO +U30 +Weather +,2013-01-05 02:14:00,
2013-01-04 21:15:00,29.2,25.9,29.81,NE,48,0.0,0.0,87,0.00,,,-99.99,1.0,HOBO +U30 +Weather +,2013-01-05 02:15:00,
2013-01-04 21:16:00,29.2,25.8,29.81,NE,48,0.0,0.0,86,0.00,,,-99.99,1.0,HOBO +U30 +Weather +,2013-01-05 02:16:00,
2013-01-04 21:17:00,29.3,25.9,29.81,NE,48,0.0,0.0,86,0.00,,,-99.99,1.0,HOBO +U30 +Weather +,2013-01-05 02:17:00,
2013-01-04 21:18:00,29.2,25.8,29.81,NE,48,0.0,0.0,86,0.00,,,-99.99,1.0,HOBO +U30 +Weather +,2013-01-05 02:18:00,
2013-01-04 21:19:00,29.4,25.9,29.81,NE,48,0.0,0.0,86,0.00,,,-99.99,1.0,HOBO +U30 +Weather +,2013-01-05 02:19:00,
2013-01-04 21:20:00,29.4,26.0,29.81,NE,48,0.0,0.0,86,0.00,,,-99.99,1.0,HOBO +U30 +Weather +,2013-01-05 02:20:00,
2013-01-04 21:21:00,29.5,26.0,29.81,NE,48,0.0,0.0,86,0.00,,,-99.99,1.0,HOBO +U30 +Weather +,2013-01-05 02:21:00,
2013-01-04 21:22:00,29.6,26.0,29.81,NE,48,0.0,0.0,86,0.00,,,-99.99,1.0,HOBO +U30 +Weather +,2013-01-05 02:22:00,
2013-01-04 21:23:00,29.5,26.0,29.80,NE,48,0.0,0.0,86,0.00,,,-99.99,1.0,HOBO +U30 +Weather +,2013-01-05 02:23:00,
2013-01-04 21:24:00,29.4,26.0,29.80,NE,48,0.0,0.0,86,0.00,,,-99.99,1.0,HOBO +U30 +Weather +,2013-01-05 02:24:00,
2013-01-04 21:25:00,29.4,25.9,29.81,NE,48,0.0,0.0,86,0.00,,,-99.99,1.0,HOBO +U30 +Weather +,2013-01-05 02:25:00,
2013-01-04 21:26:00,29.3,25.8,29.80,NE,48,0.0,0.0,86,0.00,,,-99.99,1.0,HOBO +U30 +Weather +,2013-01-05 02:26:00,
2013-01-04 21:27:00,29.2,25.8,29.80,NE,48,0.0,0.0,86,0.00,,,-99.99,1.0,HOBO +U30 +Weather +,2013-01-05 02:27:00,
2013-01-04 21:28:00,29.2,25.8,29.80,NE,48,0.0,0.0,86,0.00,,,-99.99,1.0,HOBO +U30 +Weather +,2013-01-05 02:28:00,
2013-01-04 21:29:00,29.2,25.8,29.80,NE,48,0.0,0.0,86,0.00,,,-99.99,1.0,HOBO +U30 +Weather +,2013-01-05 02:29:00,
2013-01-04 21:30:00,29.4,25.9,29.80,NE,48,0.0,0.0,86,0.00,,,-99.99,1.0,HOBO +U30 +Weather +,2013-01-05 02:30:00,
2013-01-04 21:31:00,29.3,25.8,29.80,NE,48,0.0,0.0,86,0.00,,,-99.99,1.0,HOBO +U30 +Weather +,2013-01-05 02:31:00,
2013-01-04 21:32:00,29.2,25.8,29.80,NE,48,0.0,0.0,86,0.00,,,-99.99,1.0,HOBO +U30 +Weather +,2013-01-05 02:32:00,
2013-01-04 21:33:00,29.4,26.0,29.80,NE,48,0.0,0.0,87,0.00,,,-99.99,1.0,HOBO +U30 +Weather +,2013-01-05 02:33:00,
2013-01-04 21:34:00,29.3,25.8,29.81,NE,48,0.0,0.0,86,0.00,,,-99.99,1.0,HOBO +U30 +Weather +,2013-01-05 02:34:00,
2013-01-04 21:35:00,29.2,25.7,29.81,NE,48,0.0,0.0,86,0.00,,,-99.99,1.0,HOBO +U30 +Weather +,2013-01-05 02:35:00,
2013-01-04 21:36:00,29.2,25.7,29.81,NE,48,0.0,0.0,86,0.00,,,-99.99,1.0,HOBO +U30 +Weather +,2013-01-05 02:36:00,
2013-01-04 21:37:00,29.0,25.5,29.81,NE,48,0.0,0.0,86,0.00,,,-99.99,1.0,HOBO +U30 +Weather +,2013-01-05 02:37:00,
2013-01-04 21:38:00,29.2,25.7,29.81,NE,48,0.0,0.0,86,0.00,,,-99.99,1.0,HOBO +U30 +Weather +,2013-01-05 02:38:00,
2013-01-04 21:39:00,29.2,25.7,29.81,NE,48,0.0,0.0,86,0.00,,,-99.99,1.0,HOBO +U30 +Weather +,2013-01-05 02:39:00,
2013-01-04 21:40:00,29.2,25.6,29.81,NE,48,0.0,0.0,86,0.00,,,-99.99,1.0,HOBO +U30 +Weather +,2013-01-05 02:40:00,
2013-01-04 21:41:00,29.1,25.6,29.81,NE,48,0.0,0.0,86,0.00,,,-99.99,1.0,HOBO +U30 +Weather +,2013-01-05 02:41:00,
2013-01-04 21:42:00,29.0,25.6,29.80,NE,48,0.0,0.0,86,0.00,,,-99.99,1.0,HOBO +U30 +Weather +,2013-01-05 02:42:00,
2013-01-04 21:43:00,29.1,25.6,29.81,NE,48,0.0,0.0,86,0.00,,,-99.99,1.0,HOBO +U30 +Weather +,2013-01-05 02:43:00,
2013-01-04 21:44:00,29.1,25.6,29.81,NE,48,0.0,0.0,86,0.00,,,-99.99,1.0,HOBO +U30 +Weather +,2013-01-05 02:44:00,
2013-01-04 21:45:00,29.2,25.7,29.80,NE,48,0.0,0.0,86,0.00,,,-99.99,1.0,HOBO +U30 +Weather +,2013-01-05 02:45:00,
2013-01-04 21:46:00,29.2,25.7,29.81,NE,48,0.0,0.0,86,0.00,,,-99.99,1.0,HOBO +U30 +Weather +,2013-01-05 02:46:00,
2013-01-04 21:47:00,29.2,25.6,29.80,NE,48,0.0,0.0,86,0.00,,,-99.99,1.0,HOBO +U30 +Weather +,2013-01-05 02:47:00,
2013-01-04 21:48:00,29.0,25.4,29.81,NE,48,0.0,0.0,86,0.00,,,-99.99,1.0,HOBO +U30 +Weather +,2013-01-05 02:48:00,
2013-01-04 21:49:00,29.0,25.4,29.80,NE,48,0.0,0.0,86,0.00,,,-99.99,1.0,HOBO +U30 +Weather +,2013-01-05 02:49:00,
2013-01-04 21:50:00,28.9,25.3,29.80,NE,48,0.0,0.0,86,0.00,,,-99.99,1.0,HOBO +U30 +Weather +,2013-01-05 02:50:00,
2013-01-04 21:51:00,28.9,25.3,29.81,NE,48,0.0,0.0,86,0.00,,,-99.99,1.0,HOBO +U30 +Weather +,2013-01-05 02:51:00,
2013-01-04 21:52:00,29.0,25.5,29.80,NE,48,0.0,0.0,86,0.00,,,-99.99,1.0,HOBO +U30 +Weather +,2013-01-05 02:52:00,
2013-01-04 21:53:00,29.0,25.6,29.80,NE,48,0.0,0.0,87,0.00,,,-99.99,1.0,HOBO +U30 +Weather +,2013-01-05 02:53:00,
2013-01-04 21:54:00,28.9,25.5,29.80,NE,48,0.0,0.0,86,0.00,,,-99.99,1.0,HOBO +U30 +Weather +,2013-01-05 02:54:00,
2013-01-04 21:55:00,28.9,25.4,29.81,NE,48,0.0,0.0,86,0.00,,,-99.99,1.0,HOBO +U30 +Weather +,2013-01-05 02:55:00,
2013-01-04 21:56:00,28.9,25.5,29.81,NE,48,0.0,0.0,86,0.00,,,-99.99,1.0,HOBO +U30 +Weather +,2013-01-05 02:56:00,
2013-01-04 21:57:00,28.9,25.4,29.81,NE,48,0.0,0.0,86,0.00,,,-99.99,1.0,HOBO +U30 +Weather +,2013-01-05 02:57:00,
2013-01-04 21:58:00,28.9,25.4,29.81,NE,48,0.0,0.0,86,0.00,,,-99.99,1.0,HOBO +U30 +Weather +,2013-01-05 02:58:00,
2013-01-04 21:59:00,29.0,25.6,29.81,NE,48,0.0,0.0,86,0.00,,,-99.99,1.0,HOBO +U30 +Weather +,2013-01-05 02:59:00,
2013-01-04 22:00:00,29.0,25.6,29.81,NE,48,0.0,0.0,86,0.00,,,-99.99,1.0,HOBO +U30 +Weather +,2013-01-05 03:00:00,
2013-01-04 22:01:00,29.0,25.6,29.81,NE,48,0.0,0.0,86,0.00,,,-99.99,1.0,HOBO +U30 +Weather +,2013-01-05 03:01:00,
2013-01-04 22:02:00,29.0,25.6,29.81,NE,48,0.0,0.0,86,0.00,,,-99.99,1.0,HOBO +U30 +Weather +,2013-01-05 03:02:00,
2013-01-04 22:03:00,29.0,25.6,29.81,NE,48,0.0,0.0,86,0.00,,,-99.99,1.0,HOBO +U30 +Weather +,2013-01-05 03:03:00,
2013-01-04 22:04:00,29.0,25.6,29.81,NE,48,0.0,0.0,86,0.00,,,-99.99,1.0,HOBO +U30 +Weather +,2013-01-05 03:04:00,
2013-01-04 22:05:00,29.2,25.7,29.81,NE,48,0.0,0.0,86,0.00,,,-99.99,1.0,HOBO +U30 +Weather +,2013-01-05 03:05:00,
2013-01-04 22:06:00,29.2,25.7,29.81,NE,48,0.0,0.0,86,0.00,,,-99.99,1.0,HOBO +U30 +Weather +,2013-01-05 03:06:00,
2013-01-04 22:07:00,29.4,25.8,29.81,NE,48,0.0,0.0,86,0.00,,,-99.99,1.0,HOBO +U30 +Weather +,2013-01-05 03:07:00,
2013-01-04 22:08:00,29.4,25.8,29.81,NE,48,0.0,0.0,86,0.00,,,-99.99,1.0,HOBO +U30 +Weather +,2013-01-05 03:08:00,
2013-01-04 22:09:00,29.4,25.7,29.81,NE,48,0.0,0.0,86,0.00,,,-99.99,1.0,HOBO +U30 +Weather +,2013-01-05 03:09:00,
2013-01-04 22:10:00,29.4,25.7,29.81,NE,48,0.0,0.0,86,0.00,,,-99.99,1.0,HOBO +U30 +Weather +,2013-01-05 03:10:00,
2013-01-04 22:11:00,29.4,25.8,29.81,NE,48,0.0,0.0,86,0.00,,,-99.99,1.0,HOBO +U30 +Weather +,2013-01-05 03:11:00,
2013-01-04 22:12:00,29.3,25.7,29.81,NE,48,0.0,0.0,86,0.00,,,-99.99,1.0,HOBO +U30 +Weather +,2013-01-05 03:12:00,
2013-01-04 22:13:00,29.2,25.6,29.81,NE,48,0.0,0.0,86,0.00,,,-99.99,1.0,HOBO +U30 +Weather +,2013-01-05 03:13:00,
2013-01-04 22:14:00,29.2,25.6,29.81,NE,48,0.0,0.0,86,0.00,,,-99.99,1.0,HOBO +U30 +Weather +,2013-01-05 03:14:00,
2013-01-04 22:15:00,29.2,25.6,29.81,NE,48,0.0,0.0,86,0.00,,,-99.99,1.0,HOBO +U30 +Weather +,2013-01-05 03:15:00,
2013-01-04 22:16:00,29.2,25.6,29.81,NE,48,0.0,0.0,86,0.00,,,-99.99,1.0,HOBO +U30 +Weather +,2013-01-05 03:16:00,
2013-01-04 22:17:00,29.2,25.5,29.81,NE,48,0.0,0.0,86,0.00,,,-99.99,1.0,HOBO +U30 +Weather +,2013-01-05 03:17:00,
2013-01-04 22:18:00,29.2,25.5,29.81,NE,48,0.0,0.0,86,0.00,,,-99.99,1.0,HOBO +U30 +Weather +,2013-01-05 03:18:00,
2013-01-04 22:19:00,29.0,25.5,29.80,NE,48,0.0,0.0,86,0.00,,,-99.99,1.0,HOBO +U30 +Weather +,2013-01-05 03:19:00,
2013-01-04 22:20:00,28.9,25.3,29.81,NE,48,0.0,0.0,86,0.00,,,-99.99,1.0,HOBO +U30 +Weather +,2013-01-05 03:20:00,
2013-01-04 22:21:00,28.9,25.4,29.81,NE,48,0.0,0.0,86,0.00,,,-99.99,1.0,HOBO +U30 +Weather +,2013-01-05 03:21:00,
2013-01-04 22:22:00,29.0,25.6,29.81,NE,48,0.0,0.0,86,0.00,,,-99.99,1.0,HOBO +U30 +Weather +,2013-01-05 03:22:00,
2013-01-04 22:23:00,29.0,25.5,29.82,NE,48,0.0,0.0,86,0.00,,,-99.99,1.0,HOBO +U30 +Weather +,2013-01-05 03:23:00,
2013-01-04 22:24:00,29.1,25.5,29.81,NE,48,0.0,0.0,86,0.00,,,-99.99,1.0,HOBO +U30 +Weather +,2013-01-05 03:24:00,
2013-01-04 22:25:00,29.0,25.3,29.81,NE,48,0.0,0.0,86,0.00,,,-99.99,1.0,HOBO +U30 +Weather +,2013-01-05 03:25:00,
2013-01-04 22:26:00,28.9,25.3,29.82,NE,48,0.0,0.0,86,0.00,,,-99.99,1.0,HOBO +U30 +Weather +,2013-01-05 03:26:00,
2013-01-04 22:27:00,29.0,25.5,29.81,NE,48,0.0,0.0,86,0.00,,,-99.99,1.0,HOBO +U30 +Weather +,2013-01-05 03:27:00,
2013-01-04 22:28:00,29.1,25.6,29.82,NE,48,0.0,0.0,86,0.00,,,-99.99,1.0,HOBO +U30 +Weather +,2013-01-05 03:28:00,
2013-01-04 22:29:00,29.0,25.5,29.82,NE,48,0.0,0.0,86,0.00,,,-99.99,1.0,HOBO +U30 +Weather +,2013-01-05 03:29:00,
2013-01-04 22:30:00,29.0,25.5,29.81,NE,48,0.0,0.0,86,0.00,,,-99.99,1.0,HOBO +U30 +Weather +,2013-01-05 03:30:00,
2013-01-04 22:31:00,29.0,25.4,29.82,NE,48,0.0,0.0,86,0.00,,,-99.99,1.0,HOBO +U30 +Weather +,2013-01-05 03:31:00,
2013-01-04 22:32:00,28.9,25.3,29.81,NE,48,0.0,0.0,86,0.00,,,-99.99,1.0,HOBO +U30 +Weather +,2013-01-05 03:32:00,
2013-01-04 22:33:00,28.9,25.3,29.82,NE,48,0.0,0.0,86,0.00,,,-99.99,1.0,HOBO +U30 +Weather +,2013-01-05 03:33:00,
2013-01-04 22:34:00,28.9,25.3,29.81,NE,48,0.0,0.0,86,0.00,,,-99.99,1.0,HOBO +U30 +Weather +,2013-01-05 03:34:00,
2013-01-04 22:35:00,28.8,25.2,29.82,NE,48,0.0,0.0,86,0.00,,,-99.99,1.0,HOBO +U30 +Weather +,2013-01-05 03:35:00,
2013-01-04 22:36:00,28.8,25.2,29.82,NE,48,0.0,0.0,86,0.00,,,-99.99,1.0,HOBO +U30 +Weather +,2013-01-05 03:36:00,
2013-01-04 22:37:00,28.8,25.2,29.82,NE,48,0.0,0.0,86,0.00,,,-99.99,1.0,HOBO +U30 +Weather +,2013-01-05 03:37:00,
2013-01-04 22:38:00,28.8,25.3,29.81,NE,48,0.0,0.0,86,0.00,,,-99.99,1.0,HOBO +U30 +Weather +,2013-01-05 03:38:00,
2013-01-04 22:39:00,28.7,25.2,29.82,NE,48,0.0,0.0,86,0.00,,,-99.99,1.0,HOBO +U30 +Weather +,2013-01-05 03:39:00,
2013-01-04 22:40:00,28.6,25.1,29.82,NE,48,0.0,0.0,86,0.00,,,-99.99,1.0,HOBO +U30 +Weather +,2013-01-05 03:40:00,
2013-01-04 22:41:00,28.7,25.1,29.82,NE,48,0.0,0.0,86,0.00,,,-99.99,1.0,HOBO +U30 +Weather +,2013-01-05 03:41:00,
2013-01-04 22:42:00,28.6,25.1,29.81,NE,48,0.0,0.0,86,0.00,,,-99.99,1.0,HOBO +U30 +Weather +,2013-01-05 03:42:00,
2013-01-04 22:43:00,28.7,25.1,29.81,NE,48,0.0,0.0,86,0.00,,,-99.99,1.0,HOBO +U30 +Weather +,2013-01-05 03:43:00,
2013-01-04 22:44:00,28.6,24.9,29.82,NE,48,0.0,0.0,85,0.00,,,-99.99,1.0,HOBO +U30 +Weather +,2013-01-05 03:44:00,
2013-01-04 22:45:00,28.6,24.9,29.81,NE,48,0.0,0.0,85,0.00,,,-99.99,1.0,HOBO +U30 +Weather +,2013-01-05 03:45:00,
2013-01-04 22:46:00,28.6,25.0,29.81,NE,48,0.0,0.0,86,0.00,,,-99.99,1.0,HOBO +U30 +Weather +,2013-01-05 03:46:00,
2013-01-04 22:47:00,28.6,25.0,29.82,NE,48,0.0,0.0,86,0.00,,,-99.99,1.0,HOBO +U30 +Weather +,2013-01-05 03:47:00,
2013-01-04 22:48:00,28.6,25.1,29.82,NE,48,0.0,0.0,86,0.00,,,-99.99,1.0,HOBO +U30 +Weather +,2013-01-05 03:48:00,
2013-01-04 22:49:00,28.7,25.1,29.82,NE,48,0.0,0.0,86,0.00,,,-99.99,1.0,HOBO +U30 +Weather +,2013-01-05 03:49:00,
2013-01-04 22:50:00,28.8,25.3,29.82,NE,48,0.0,0.0,86,0.00,,,-99.99,1.0,HOBO +U30 +Weather +,2013-01-05 03:50:00,
2013-01-04 22:51:00,28.8,25.2,29.82,NE,48,0.0,0.0,86,0.00,,,-99.99,1.0,HOBO +U30 +Weather +,2013-01-05 03:51:00,
2013-01-04 22:52:00,28.8,25.2,29.82,NE,48,0.0,0.0,86,0.00,,,-99.99,1.0,HOBO +U30 +Weather +,2013-01-05 03:52:00,
2013-01-04 22:53:00,28.8,25.2,29.82,NE,48,0.0,0.0,86,0.00,,,-99.99,1.0,HOBO +U30 +Weather +,2013-01-05 03:53:00,
2013-01-04 22:54:00,28.8,25.3,29.82,NE,48,0.0,0.0,86,0.00,,,-99.99,1.0,HOBO +U30 +Weather +,2013-01-05 03:54:00,
2013-01-04 22:55:00,28.7,25.2,29.82,NE,48,0.0,0.0,86,0.00,,,-99.99,1.0,HOBO +U30 +Weather +,2013-01-05 03:55:00,
2013-01-04 22:56:00,28.6,25.1,29.82,NE,48,0.0,0.0,86,0.00,,,-99.99,1.0,HOBO +U30 +Weather +,2013-01-05 03:56:00,
2013-01-04 22:57:00,28.5,24.9,29.82,NE,48,0.0,0.0,86,0.00,,,-99.99,1.0,HOBO +U30 +Weather +,2013-01-05 03:57:00,
2013-01-04 22:58:00,28.5,24.9,29.82,NE,48,0.0,0.0,86,0.00,,,-99.99,1.0,HOBO +U30 +Weather +,2013-01-05 03:58:00,
2013-01-04 22:59:00,28.4,24.8,29.82,NE,48,0.0,0.0,86,0.00,,,-99.99,1.0,HOBO +U30 +Weather +,2013-01-05 03:59:00,
2013-01-04 23:00:00,28.3,24.8,29.82,NE,48,0.0,0.0,86,0.00,,,-99.99,1.0,HOBO +U30 +Weather +,2013-01-05 04:00:00,
2013-01-04 23:01:00,28.2,24.7,29.82,NE,48,0.0,0.0,86,0.00,,,-99.99,1.0,HOBO +U30 +Weather +,2013-01-05 04:01:00,
2013-01-04 23:02:00,28.1,24.5,29.82,NE,48,0.0,0.0,86,0.00,,,-99.99,1.0,HOBO +U30 +Weather +,2013-01-05 04:02:00,
2013-01-04 23:03:00,28.0,24.5,29.82,NE,48,0.0,0.0,86,0.00,,,-99.99,1.0,HOBO +U30 +Weather +,2013-01-05 04:03:00,
2013-01-04 23:04:00,28.0,24.7,29.82,NE,48,0.0,0.0,87,0.00,,,-99.99,1.0,HOBO +U30 +Weather +,2013-01-05 04:04:00,
2013-01-04 23:05:00,28.2,24.9,29.82,NE,48,0.0,0.0,87,0.00,,,-99.99,1.0,HOBO +U30 +Weather +,2013-01-05 04:05:00,
2013-01-04 23:06:00,28.1,24.8,29.82,NE,48,0.0,0.0,87,0.00,,,-99.99,1.0,HOBO +U30 +Weather +,2013-01-05 04:06:00,
2013-01-04 23:07:00,28.2,24.8,29.82,NE,48,0.0,0.0,87,0.00,,,-99.99,1.0,HOBO +U30 +Weather +,2013-01-05 04:07:00,
2013-01-04 23:08:00,28.1,24.9,29.82,NE,48,0.0,0.0,87,0.00,,,-99.99,1.0,HOBO +U30 +Weather +,2013-01-05 04:08:00,
2013-01-04 23:09:00,28.1,24.9,29.82,NE,48,0.0,0.0,87,0.00,,,-99.99,1.0,HOBO +U30 +Weather +,2013-01-05 04:09:00,
2013-01-04 23:10:00,28.1,24.8,29.81,NE,48,0.0,0.0,87,0.00,,,-99.99,1.0,HOBO +U30 +Weather +,2013-01-05 04:10:00,
2013-01-04 23:11:00,28.0,24.6,29.82,NE,48,0.0,0.0,87,0.00,,,-99.99,1.0,HOBO +U30 +Weather +,2013-01-05 04:11:00,
2013-01-04 23:12:00,28.1,24.7,29.81,NE,48,0.0,0.0,86,0.00,,,-99.99,1.0,HOBO +U30 +Weather +,2013-01-05 04:12:00,
2013-01-04 23:13:00,28.1,24.7,29.82,NE,48,0.0,0.0,86,0.00,,,-99.99,1.0,HOBO +U30 +Weather +,2013-01-05 04:13:00,
2013-01-04 23:14:00,28.0,24.5,29.81,NE,48,0.0,0.0,86,0.00,,,-99.99,1.0,HOBO +U30 +Weather +,2013-01-05 04:14:00,
2013-01-04 23:15:00,28.0,24.5,29.81,NE,48,0.0,0.0,86,0.00,,,-99.99,1.0,HOBO +U30 +Weather +,2013-01-05 04:15:00,
2013-01-04 23:16:00,27.9,24.5,29.82,NE,48,0.0,0.0,86,0.00,,,-99.99,1.0,HOBO +U30 +Weather +,2013-01-05 04:16:00,
2013-01-04 23:17:00,27.8,24.4,29.82,NE,48,0.0,0.0,86,0.00,,,-99.99,1.0,HOBO +U30 +Weather +,2013-01-05 04:17:00,
2013-01-04 23:18:00,27.8,24.4,29.81,NE,48,0.0,0.0,86,0.00,,,-99.99,1.0,HOBO +U30 +Weather +,2013-01-05 04:18:00,
2013-01-04 23:19:00,27.8,24.4,29.81,NE,48,0.0,0.0,86,0.00,,,-99.99,1.0,HOBO +U30 +Weather +,2013-01-05 04:19:00,
2013-01-04 23:20:00,27.8,24.5,29.82,NE,48,0.0,0.0,87,0.00,,,-99.99,1.0,HOBO +U30 +Weather +,2013-01-05 04:20:00,
2013-01-04 23:21:00,28.0,24.6,29.82,NE,48,0.0,0.0,87,0.00,,,-99.99,1.0,HOBO +U30 +Weather +,2013-01-05 04:21:00,
2013-01-04 23:22:00,28.0,24.6,29.82,NE,48,0.0,0.0,87,0.00,,,-99.99,1.0,HOBO +U30 +Weather +,2013-01-05 04:22:00,
2013-01-04 23:23:00,28.0,24.5,29.82,NE,48,0.0,0.0,86,0.00,,,-99.99,1.0,HOBO +U30 +Weather +,2013-01-05 04:23:00,
2013-01-04 23:24:00,27.9,24.5,29.82,NE,48,0.0,0.0,86,0.00,,,-99.99,1.0,HOBO +U30 +Weather +,2013-01-05 04:24:00,
2013-01-04 23:25:00,28.0,24.6,29.82,NE,48,0.0,0.0,86,0.00,,,-99.99,1.0,HOBO +U30 +Weather +,2013-01-05 04:25:00,
2013-01-04 23:26:00,28.1,24.7,29.82,NE,48,0.0,0.0,86,0.00,,,-99.99,1.0,HOBO +U30 +Weather +,2013-01-05 04:26:00,
2013-01-04 23:27:00,28.0,24.5,29.82,NE,48,0.0,0.0,86,0.00,,,-99.99,1.0,HOBO +U30 +Weather +,2013-01-05 04:27:00,
2013-01-04 23:28:00,27.9,24.4,29.82,NE,48,0.0,0.0,86,0.00,,,-99.99,1.0,HOBO +U30 +Weather +,2013-01-05 04:28:00,
2013-01-04 23:29:00,27.9,24.4,29.81,NE,48,0.0,0.0,86,0.00,,,-99.99,1.0,HOBO +U30 +Weather +,2013-01-05 04:29:00,
2013-01-04 23:30:00,28.0,24.5,29.81,NE,48,0.0,0.0,86,0.00,,,-99.99,1.0,HOBO +U30 +Weather +,2013-01-05 04:30:00,
2013-01-04 23:31:00,27.9,24.4,29.82,NE,48,0.0,0.0,86,0.00,,,-99.99,1.0,HOBO +U30 +Weather +,2013-01-05 04:31:00,
2013-01-04 23:32:00,27.8,24.2,29.81,NE,48,0.0,0.0,86,0.00,,,-99.99,1.0,HOBO +U30 +Weather +,2013-01-05 04:32:00,
2013-01-04 23:33:00,27.8,24.3,29.82,NE,48,0.0,0.0,86,0.00,,,-99.99,1.0,HOBO +U30 +Weather +,2013-01-05 04:33:00,
2013-01-04 23:34:00,27.7,24.3,29.82,NE,48,0.0,0.0,86,0.00,,,-99.99,1.0,HOBO +U30 +Weather +,2013-01-05 04:34:00,
2013-01-04 23:35:00,27.6,24.2,29.81,NE,48,0.0,0.0,86,0.00,,,-99.99,1.0,HOBO +U30 +Weather +,2013-01-05 04:35:00,
2013-01-04 23:36:00,27.5,24.2,29.81,NE,48,0.0,0.0,87,0.00,,,-99.99,1.0,HOBO +U30 +Weather +,2013-01-05 04:36:00,
2013-01-04 23:37:00,27.5,24.2,29.81,NE,48,0.0,0.0,87,0.00,,,-99.99,1.0,HOBO +U30 +Weather +,2013-01-05 04:37:00,
2013-01-04 23:38:00,27.5,24.2,29.81,NE,48,0.0,0.0,87,0.00,,,-99.99,1.0,HOBO +U30 +Weather +,2013-01-05 04:38:00,
2013-01-04 23:39:00,27.5,24.2,29.81,NE,48,0.0,0.0,87,0.00,,,-99.99,1.0,HOBO +U30 +Weather +,2013-01-05 04:39:00,
2013-01-04 23:40:00,27.5,24.2,29.82,NE,48,0.0,0.0,87,0.00,,,-99.99,1.0,HOBO +U30 +Weather +,2013-01-05 04:40:00,
2013-01-04 23:41:00,27.6,24.4,29.82,NE,48,0.0,0.0,87,0.00,,,-99.99,1.0,HOBO +U30 +Weather +,2013-01-05 04:41:00,
2013-01-04 23:42:00,27.5,24.2,29.82,NE,48,0.0,0.0,87,0.00,,,-99.99,1.0,HOBO +U30 +Weather +,2013-01-05 04:42:00,
2013-01-04 23:43:00,27.5,24.1,29.81,NE,48,0.0,0.0,87,0.00,,,-99.99,1.0,HOBO +U30 +Weather +,2013-01-05 04:43:00,
2013-01-04 23:44:00,27.4,24.1,29.81,NE,48,0.0,0.0,87,0.00,,,-99.99,1.0,HOBO +U30 +Weather +,2013-01-05 04:44:00,
2013-01-04 23:45:00,27.3,24.0,29.81,NE,48,0.0,0.0,87,0.00,,,-99.99,1.0,HOBO +U30 +Weather +,2013-01-05 04:45:00,
2013-01-04 23:46:00,27.2,23.8,29.81,NE,48,0.0,0.0,87,0.00,,,-99.99,1.0,HOBO +U30 +Weather +,2013-01-05 04:46:00,
2013-01-04 23:47:00,27.1,23.8,29.81,NE,48,0.0,0.0,87,0.00,,,-99.99,1.0,HOBO +U30 +Weather +,2013-01-05 04:47:00,
2013-01-04 23:48:00,27.0,23.7,29.82,NE,48,0.0,0.0,87,0.00,,,-99.99,1.0,HOBO +U30 +Weather +,2013-01-05 04:48:00,
2013-01-04 23:49:00,27.0,23.7,29.81,NE,48,0.0,0.0,87,0.00,,,-99.99,1.0,HOBO +U30 +Weather +,2013-01-05 04:49:00,
2013-01-04 23:50:00,27.0,23.7,29.82,NE,48,0.0,0.0,87,0.00,,,-99.99,1.0,HOBO +U30 +Weather +,2013-01-05 04:50:00,
2013-01-04 23:51:00,27.0,23.8,29.81,NE,48,0.0,0.0,87,0.00,,,-99.99,1.0,HOBO +U30 +Weather +,2013-01-05 04:51:00,
2013-01-04 23:52:00,27.0,23.8,29.81,NE,48,0.0,0.0,87,0.00,,,-99.99,1.0,HOBO +U30 +Weather +,2013-01-05 04:52:00,
2013-01-04 23:53:00,27.2,24.0,29.82,NE,48,0.0,0.0,87,0.00,,,-99.99,1.0,HOBO +U30 +Weather +,2013-01-05 04:53:00,
2013-01-04 23:54:00,27.2,24.0,29.81,NE,48,0.0,0.0,87,0.00,,,-99.99,1.0,HOBO +U30 +Weather +,2013-01-05 04:54:00,
2013-01-04 23:55:00,27.2,24.0,29.82,NE,48,0.0,0.0,87,0.00,,,-99.99,1.0,HOBO +U30 +Weather +,2013-01-05 04:55:00,
2013-01-04 23:56:00,27.2,24.0,29.82,NE,48,0.0,0.0,87,0.00,,,-99.99,1.0,HOBO +U30 +Weather +,2013-01-05 04:56:00,
2013-01-04 23:57:00,27.1,23.9,29.82,NE,48,0.0,0.0,87,0.00,,,-99.99,1.0,HOBO +U30 +Weather +,2013-01-05 04:57:00,
2013-01-04 23:58:00,27.1,23.8,29.82,NE,48,0.0,0.0,87,0.00,,,-99.99,1.0,HOBO +U30 +Weather +,2013-01-05 04:58:00,
2013-01-04 23:59:00,27.0,23.7,29.82,NE,48,0.0,0.0,87,0.00,,,-99.99,1.0,HOBO +U30 +Weather +,2013-01-05 04:59:00,